<?xml version="1.0" encoding="UTF-8" standalone="no" ?>
<gpx xmlns="http://www.topografix.com/GPX/1/1" xmlns:xsi="http://www.w3.org/2001/XMLSchema-instance" xsi:schemaLocation="http://www.topografix.com/GPX/1/1 http://www.topografix.com/GPX/1/1/gpx.xsd" version="1.1" creator="VisuGPX - https://www.visugpx.com">
  <metadata>
    <name>Jouy en Josas - Bièvres</name>
  </metadata>
  <trk>
    <name><![CDATA[06-MARS-21 04:44:28 PM]]></name>
    <extensions>
      <line xmlns="http://www.topografix.com/GPX/gpx_style/0/2">
        <color>0000FF</color>
        <width>4</width>
      </line>
    </extensions>
    <trkseg>
      <trkpt lat="48.76511" lon="2.16743">
        <ele>-45.53</ele>
        <time>2021-03-06T12:31:27Z</time>
      </trkpt>
      <trkpt lat="48.76512" lon="2.16748">
        <ele>-44.08</ele>
        <time>2021-03-06T12:31:48Z</time>
      </trkpt>
      <trkpt lat="48.76514" lon="2.16748">
        <ele>-43.6</ele>
        <time>2021-03-06T12:32:09Z</time>
      </trkpt>
      <trkpt lat="48.76513" lon="2.16742">
        <ele>-42.16</ele>
        <time>2021-03-06T12:32:21Z</time>
      </trkpt>
      <trkpt lat="48.76512" lon="2.16745">
        <ele>-41.68</ele>
        <time>2021-03-06T12:32:32Z</time>
      </trkpt>
      <trkpt lat="48.76516" lon="2.16748">
        <ele>-41.2</ele>
        <time>2021-03-06T12:32:44Z</time>
      </trkpt>
      <trkpt lat="48.7652" lon="2.16749">
        <ele>-40.72</ele>
        <time>2021-03-06T12:33:02Z</time>
      </trkpt>
      <trkpt lat="48.76522" lon="2.16753">
        <ele>-37.83</ele>
        <time>2021-03-06T12:33:23Z</time>
      </trkpt>
      <trkpt lat="48.76521" lon="2.16754">
        <ele>-36.87</ele>
        <time>2021-03-06T12:33:39Z</time>
      </trkpt>
      <trkpt lat="48.76515" lon="2.16747">
        <ele>-36.87</ele>
        <time>2021-03-06T12:33:59Z</time>
      </trkpt>
      <trkpt lat="48.76515" lon="2.16747">
        <ele>-35.91</ele>
        <time>2021-03-06T12:34:15Z</time>
      </trkpt>
      <trkpt lat="48.76514" lon="2.16754">
        <ele>-33.51</ele>
        <time>2021-03-06T12:34:45Z</time>
      </trkpt>
      <trkpt lat="48.76513" lon="2.16741">
        <ele>-31.59</ele>
        <time>2021-03-06T12:35:11Z</time>
      </trkpt>
      <trkpt lat="48.76515" lon="2.16753">
        <ele>-30.62</ele>
        <time>2021-03-06T12:35:37Z</time>
      </trkpt>
      <trkpt lat="48.76508" lon="2.16742">
        <ele>-29.66</ele>
        <time>2021-03-06T12:35:56Z</time>
      </trkpt>
      <trkpt lat="48.76514" lon="2.16749">
        <ele>99.63</ele>
        <time>2021-03-06T12:36:12Z</time>
      </trkpt>
      <trkpt lat="48.76514" lon="2.16749">
        <ele>99.63</ele>
        <time>2021-03-06T12:36:13Z</time>
      </trkpt>
      <trkpt lat="48.76514" lon="2.16748">
        <ele>82.81</ele>
        <time>2021-03-06T12:36:18Z</time>
      </trkpt>
      <trkpt lat="48.76514" lon="2.16748">
        <ele>83.29</ele>
        <time>2021-03-06T12:36:19Z</time>
      </trkpt>
      <trkpt lat="48.76513" lon="2.16744">
        <ele>82.81</ele>
        <time>2021-03-06T12:36:26Z</time>
      </trkpt>
      <trkpt lat="48.76514" lon="2.16739">
        <ele>83.29</ele>
        <time>2021-03-06T12:36:30Z</time>
      </trkpt>
      <trkpt lat="48.7652" lon="2.16742">
        <ele>83.77</ele>
        <time>2021-03-06T12:36:39Z</time>
      </trkpt>
      <trkpt lat="48.76534" lon="2.16742">
        <ele>82.81</ele>
        <time>2021-03-06T12:36:54Z</time>
      </trkpt>
      <trkpt lat="48.76545" lon="2.16744">
        <ele>82.33</ele>
        <time>2021-03-06T12:37:07Z</time>
      </trkpt>
      <trkpt lat="48.76544" lon="2.16745">
        <ele>82.81</ele>
        <time>2021-03-06T12:37:17Z</time>
      </trkpt>
      <trkpt lat="48.76546" lon="2.16746">
        <ele>82.81</ele>
        <time>2021-03-06T12:37:28Z</time>
      </trkpt>
      <trkpt lat="48.76547" lon="2.16746">
        <ele>82.33</ele>
        <time>2021-03-06T12:37:37Z</time>
      </trkpt>
      <trkpt lat="48.76546" lon="2.16747">
        <ele>82.33</ele>
        <time>2021-03-06T12:37:51Z</time>
      </trkpt>
      <trkpt lat="48.76547" lon="2.16749">
        <ele>82.81</ele>
        <time>2021-03-06T12:38:00Z</time>
      </trkpt>
      <trkpt lat="48.76548" lon="2.16745">
        <ele>83.29</ele>
        <time>2021-03-06T12:38:16Z</time>
      </trkpt>
      <trkpt lat="48.76544" lon="2.16743">
        <ele>83.29</ele>
        <time>2021-03-06T12:38:37Z</time>
      </trkpt>
      <trkpt lat="48.76549" lon="2.16748">
        <ele>83.29</ele>
        <time>2021-03-06T12:38:49Z</time>
      </trkpt>
      <trkpt lat="48.76555" lon="2.1675">
        <ele>84.73</ele>
        <time>2021-03-06T12:38:58Z</time>
      </trkpt>
      <trkpt lat="48.76564" lon="2.16756">
        <ele>84.25</ele>
        <time>2021-03-06T12:39:08Z</time>
      </trkpt>
      <trkpt lat="48.76572" lon="2.16759">
        <ele>84.73</ele>
        <time>2021-03-06T12:39:19Z</time>
      </trkpt>
      <trkpt lat="48.76573" lon="2.16759">
        <ele>83.77</ele>
        <time>2021-03-06T12:39:20Z</time>
      </trkpt>
      <trkpt lat="48.76576" lon="2.16763">
        <ele>84.25</ele>
        <time>2021-03-06T12:39:23Z</time>
      </trkpt>
      <trkpt lat="48.76581" lon="2.16763">
        <ele>84.73</ele>
        <time>2021-03-06T12:39:27Z</time>
      </trkpt>
      <trkpt lat="48.76584" lon="2.1676">
        <ele>84.73</ele>
        <time>2021-03-06T12:39:31Z</time>
      </trkpt>
      <trkpt lat="48.76589" lon="2.16759">
        <ele>84.25</ele>
        <time>2021-03-06T12:39:36Z</time>
      </trkpt>
      <trkpt lat="48.76591" lon="2.1676">
        <ele>84.25</ele>
        <time>2021-03-06T12:39:37Z</time>
      </trkpt>
      <trkpt lat="48.76596" lon="2.16768">
        <ele>84.25</ele>
        <time>2021-03-06T12:39:40Z</time>
      </trkpt>
      <trkpt lat="48.76611" lon="2.16771">
        <ele>84.73</ele>
        <time>2021-03-06T12:39:53Z</time>
      </trkpt>
      <trkpt lat="48.76628" lon="2.16766">
        <ele>87.62</ele>
        <time>2021-03-06T12:40:08Z</time>
      </trkpt>
      <trkpt lat="48.76639" lon="2.16766">
        <ele>89.06</ele>
        <time>2021-03-06T12:40:21Z</time>
      </trkpt>
      <trkpt lat="48.76657" lon="2.1678">
        <ele>90.98</ele>
        <time>2021-03-06T12:40:36Z</time>
      </trkpt>
      <trkpt lat="48.7666" lon="2.16783">
        <ele>90.98</ele>
        <time>2021-03-06T12:40:39Z</time>
      </trkpt>
      <trkpt lat="48.76661" lon="2.16785">
        <ele>92.42</ele>
        <time>2021-03-06T12:40:40Z</time>
      </trkpt>
      <trkpt lat="48.76663" lon="2.16787">
        <ele>91.94</ele>
        <time>2021-03-06T12:40:41Z</time>
      </trkpt>
      <trkpt lat="48.76667" lon="2.16795">
        <ele>92.42</ele>
        <time>2021-03-06T12:40:46Z</time>
      </trkpt>
      <trkpt lat="48.76669" lon="2.16796">
        <ele>92.9</ele>
        <time>2021-03-06T12:40:47Z</time>
      </trkpt>
      <trkpt lat="48.7667" lon="2.16798">
        <ele>92.9</ele>
        <time>2021-03-06T12:40:48Z</time>
      </trkpt>
      <trkpt lat="48.76671" lon="2.168">
        <ele>92.9</ele>
        <time>2021-03-06T12:40:49Z</time>
      </trkpt>
      <trkpt lat="48.76672" lon="2.16802">
        <ele>92.9</ele>
        <time>2021-03-06T12:40:50Z</time>
      </trkpt>
      <trkpt lat="48.76675" lon="2.16815">
        <ele>93.39</ele>
        <time>2021-03-06T12:41:01Z</time>
      </trkpt>
      <trkpt lat="48.76684" lon="2.1682">
        <ele>95.79</ele>
        <time>2021-03-06T12:41:13Z</time>
      </trkpt>
      <trkpt lat="48.76694" lon="2.16826">
        <ele>97.71</ele>
        <time>2021-03-06T12:41:27Z</time>
      </trkpt>
      <trkpt lat="48.76707" lon="2.16833">
        <ele>99.15</ele>
        <time>2021-03-06T12:41:40Z</time>
      </trkpt>
      <trkpt lat="48.76722" lon="2.16835">
        <ele>102.04</ele>
        <time>2021-03-06T12:41:54Z</time>
      </trkpt>
      <trkpt lat="48.76732" lon="2.16836">
        <ele>104.44</ele>
        <time>2021-03-06T12:42:05Z</time>
      </trkpt>
      <trkpt lat="48.76744" lon="2.1684">
        <ele>107.81</ele>
        <time>2021-03-06T12:42:17Z</time>
      </trkpt>
      <trkpt lat="48.76752" lon="2.16833">
        <ele>110.69</ele>
        <time>2021-03-06T12:42:32Z</time>
      </trkpt>
      <trkpt lat="48.76757" lon="2.16837">
        <ele>112.13</ele>
        <time>2021-03-06T12:42:38Z</time>
      </trkpt>
      <trkpt lat="48.76762" lon="2.1684">
        <ele>113.57</ele>
        <time>2021-03-06T12:42:46Z</time>
      </trkpt>
      <trkpt lat="48.7676" lon="2.16847">
        <ele>114.05</ele>
        <time>2021-03-06T12:42:57Z</time>
      </trkpt>
      <trkpt lat="48.76758" lon="2.16851">
        <ele>114.05</ele>
        <time>2021-03-06T12:43:01Z</time>
      </trkpt>
      <trkpt lat="48.76758" lon="2.16853">
        <ele>114.53</ele>
        <time>2021-03-06T12:43:02Z</time>
      </trkpt>
      <trkpt lat="48.76758" lon="2.16855">
        <ele>115.01</ele>
        <time>2021-03-06T12:43:03Z</time>
      </trkpt>
      <trkpt lat="48.7676" lon="2.16863">
        <ele>115.98</ele>
        <time>2021-03-06T12:43:08Z</time>
      </trkpt>
      <trkpt lat="48.76761" lon="2.1687">
        <ele>115.5</ele>
        <time>2021-03-06T12:43:13Z</time>
      </trkpt>
      <trkpt lat="48.76762" lon="2.16873">
        <ele>115.5</ele>
        <time>2021-03-06T12:43:14Z</time>
      </trkpt>
      <trkpt lat="48.76762" lon="2.16875">
        <ele>115.01</ele>
        <time>2021-03-06T12:43:15Z</time>
      </trkpt>
      <trkpt lat="48.76762" lon="2.16878">
        <ele>115.01</ele>
        <time>2021-03-06T12:43:16Z</time>
      </trkpt>
      <trkpt lat="48.76763" lon="2.16891">
        <ele>115.5</ele>
        <time>2021-03-06T12:43:24Z</time>
      </trkpt>
      <trkpt lat="48.76763" lon="2.16893">
        <ele>115.5</ele>
        <time>2021-03-06T12:43:25Z</time>
      </trkpt>
      <trkpt lat="48.76764" lon="2.16895">
        <ele>115.5</ele>
        <time>2021-03-06T12:43:26Z</time>
      </trkpt>
      <trkpt lat="48.76764" lon="2.16913">
        <ele>115.01</ele>
        <time>2021-03-06T12:43:37Z</time>
      </trkpt>
      <trkpt lat="48.76764" lon="2.16916">
        <ele>114.53</ele>
        <time>2021-03-06T12:43:38Z</time>
      </trkpt>
      <trkpt lat="48.76763" lon="2.16919">
        <ele>114.05</ele>
        <time>2021-03-06T12:43:39Z</time>
      </trkpt>
      <trkpt lat="48.76763" lon="2.16921">
        <ele>114.53</ele>
        <time>2021-03-06T12:43:40Z</time>
      </trkpt>
      <trkpt lat="48.76763" lon="2.16925">
        <ele>114.53</ele>
        <time>2021-03-06T12:43:42Z</time>
      </trkpt>
      <trkpt lat="48.76763" lon="2.16929">
        <ele>114.05</ele>
        <time>2021-03-06T12:43:46Z</time>
      </trkpt>
      <trkpt lat="48.76761" lon="2.16931">
        <ele>113.09</ele>
        <time>2021-03-06T12:43:49Z</time>
      </trkpt>
      <trkpt lat="48.7676" lon="2.16933">
        <ele>113.09</ele>
        <time>2021-03-06T12:43:51Z</time>
      </trkpt>
      <trkpt lat="48.76759" lon="2.16943">
        <ele>112.61</ele>
        <time>2021-03-06T12:43:56Z</time>
      </trkpt>
      <trkpt lat="48.76756" lon="2.16962">
        <ele>113.09</ele>
        <time>2021-03-06T12:44:06Z</time>
      </trkpt>
      <trkpt lat="48.76756" lon="2.16965">
        <ele>113.09</ele>
        <time>2021-03-06T12:44:07Z</time>
      </trkpt>
      <trkpt lat="48.76755" lon="2.16967">
        <ele>113.09</ele>
        <time>2021-03-06T12:44:08Z</time>
      </trkpt>
      <trkpt lat="48.76753" lon="2.16981">
        <ele>113.09</ele>
        <time>2021-03-06T12:44:16Z</time>
      </trkpt>
      <trkpt lat="48.76752" lon="2.16983">
        <ele>112.61</ele>
        <time>2021-03-06T12:44:17Z</time>
      </trkpt>
      <trkpt lat="48.76749" lon="2.16993">
        <ele>112.61</ele>
        <time>2021-03-06T12:44:24Z</time>
      </trkpt>
      <trkpt lat="48.76749" lon="2.16995">
        <ele>113.09</ele>
        <time>2021-03-06T12:44:25Z</time>
      </trkpt>
      <trkpt lat="48.76747" lon="2.17009">
        <ele>111.65</ele>
        <time>2021-03-06T12:44:34Z</time>
      </trkpt>
      <trkpt lat="48.76749" lon="2.17017">
        <ele>112.13</ele>
        <time>2021-03-06T12:44:50Z</time>
      </trkpt>
      <trkpt lat="48.76752" lon="2.17016">
        <ele>111.65</ele>
        <time>2021-03-06T12:45:05Z</time>
      </trkpt>
      <trkpt lat="48.76747" lon="2.17013">
        <ele>112.61</ele>
        <time>2021-03-06T12:45:26Z</time>
      </trkpt>
      <trkpt lat="48.76751" lon="2.17019">
        <ele>112.13</ele>
        <time>2021-03-06T12:45:47Z</time>
      </trkpt>
      <trkpt lat="48.76756" lon="2.17022">
        <ele>113.09</ele>
        <time>2021-03-06T12:46:04Z</time>
      </trkpt>
      <trkpt lat="48.76768" lon="2.17014">
        <ele>115.01</ele>
        <time>2021-03-06T12:46:20Z</time>
      </trkpt>
      <trkpt lat="48.76776" lon="2.1701">
        <ele>116.94</ele>
        <time>2021-03-06T12:46:32Z</time>
      </trkpt>
      <trkpt lat="48.76787" lon="2.16998">
        <ele>120.3</ele>
        <time>2021-03-06T12:46:43Z</time>
      </trkpt>
      <trkpt lat="48.76797" lon="2.1699">
        <ele>121.26</ele>
        <time>2021-03-06T12:46:58Z</time>
      </trkpt>
      <trkpt lat="48.76805" lon="2.16979">
        <ele>123.19</ele>
        <time>2021-03-06T12:47:10Z</time>
      </trkpt>
      <trkpt lat="48.76807" lon="2.16977">
        <ele>123.19</ele>
        <time>2021-03-06T12:47:11Z</time>
      </trkpt>
      <trkpt lat="48.76809" lon="2.16974">
        <ele>124.15</ele>
        <time>2021-03-06T12:47:15Z</time>
      </trkpt>
      <trkpt lat="48.76809" lon="2.16973">
        <ele>124.63</ele>
        <time>2021-03-06T12:47:16Z</time>
      </trkpt>
      <trkpt lat="48.7681" lon="2.16966">
        <ele>126.07</ele>
        <time>2021-03-06T12:47:26Z</time>
      </trkpt>
      <trkpt lat="48.76811" lon="2.16965">
        <ele>126.55</ele>
        <time>2021-03-06T12:47:27Z</time>
      </trkpt>
      <trkpt lat="48.76812" lon="2.1696">
        <ele>129.43</ele>
        <time>2021-03-06T12:47:39Z</time>
      </trkpt>
      <trkpt lat="48.76815" lon="2.16953">
        <ele>131.84</ele>
        <time>2021-03-06T12:47:53Z</time>
      </trkpt>
      <trkpt lat="48.76816" lon="2.16947">
        <ele>134.24</ele>
        <time>2021-03-06T12:48:06Z</time>
      </trkpt>
      <trkpt lat="48.7682" lon="2.16937">
        <ele>135.2</ele>
        <time>2021-03-06T12:48:20Z</time>
      </trkpt>
      <trkpt lat="48.76825" lon="2.16927">
        <ele>137.61</ele>
        <time>2021-03-06T12:48:31Z</time>
      </trkpt>
      <trkpt lat="48.76827" lon="2.16922">
        <ele>138.09</ele>
        <time>2021-03-06T12:48:36Z</time>
      </trkpt>
      <trkpt lat="48.76828" lon="2.16917">
        <ele>139.53</ele>
        <time>2021-03-06T12:48:47Z</time>
      </trkpt>
      <trkpt lat="48.7683" lon="2.1691">
        <ele>142.41</ele>
        <time>2021-03-06T12:48:57Z</time>
      </trkpt>
      <trkpt lat="48.7683" lon="2.16907">
        <ele>141.93</ele>
        <time>2021-03-06T12:48:59Z</time>
      </trkpt>
      <trkpt lat="48.76831" lon="2.16903">
        <ele>143.37</ele>
        <time>2021-03-06T12:49:03Z</time>
      </trkpt>
      <trkpt lat="48.76831" lon="2.16902">
        <ele>143.85</ele>
        <time>2021-03-06T12:49:16Z</time>
      </trkpt>
      <trkpt lat="48.76831" lon="2.16903">
        <ele>145.3</ele>
        <time>2021-03-06T12:49:27Z</time>
      </trkpt>
      <trkpt lat="48.76838" lon="2.16898">
        <ele>146.26</ele>
        <time>2021-03-06T12:49:43Z</time>
      </trkpt>
      <trkpt lat="48.76845" lon="2.16898">
        <ele>148.18</ele>
        <time>2021-03-06T12:50:04Z</time>
      </trkpt>
      <trkpt lat="48.7685" lon="2.16892">
        <ele>151.54</ele>
        <time>2021-03-06T12:50:16Z</time>
      </trkpt>
      <trkpt lat="48.76858" lon="2.16888">
        <ele>154.91</ele>
        <time>2021-03-06T12:50:28Z</time>
      </trkpt>
      <trkpt lat="48.76864" lon="2.16878">
        <ele>154.91</ele>
        <time>2021-03-06T12:50:37Z</time>
      </trkpt>
      <trkpt lat="48.76865" lon="2.16876">
        <ele>154.91</ele>
        <time>2021-03-06T12:50:38Z</time>
      </trkpt>
      <trkpt lat="48.76865" lon="2.16873">
        <ele>154.91</ele>
        <time>2021-03-06T12:50:39Z</time>
      </trkpt>
      <trkpt lat="48.76865" lon="2.16871">
        <ele>154.43</ele>
        <time>2021-03-06T12:50:40Z</time>
      </trkpt>
      <trkpt lat="48.76865" lon="2.16862">
        <ele>154.43</ele>
        <time>2021-03-06T12:50:46Z</time>
      </trkpt>
      <trkpt lat="48.76863" lon="2.1684">
        <ele>153.95</ele>
        <time>2021-03-06T12:51:00Z</time>
      </trkpt>
      <trkpt lat="48.76863" lon="2.16837">
        <ele>153.47</ele>
        <time>2021-03-06T12:51:02Z</time>
      </trkpt>
      <trkpt lat="48.76863" lon="2.16835">
        <ele>153.95</ele>
        <time>2021-03-06T12:51:03Z</time>
      </trkpt>
      <trkpt lat="48.76863" lon="2.16833">
        <ele>153.95</ele>
        <time>2021-03-06T12:51:04Z</time>
      </trkpt>
      <trkpt lat="48.76863" lon="2.16831">
        <ele>153.95</ele>
        <time>2021-03-06T12:51:05Z</time>
      </trkpt>
      <trkpt lat="48.76865" lon="2.16819">
        <ele>153.47</ele>
        <time>2021-03-06T12:51:18Z</time>
      </trkpt>
      <trkpt lat="48.76864" lon="2.16818">
        <ele>153.47</ele>
        <time>2021-03-06T12:51:22Z</time>
      </trkpt>
      <trkpt lat="48.76866" lon="2.16813">
        <ele>152.99</ele>
        <time>2021-03-06T12:51:26Z</time>
      </trkpt>
      <trkpt lat="48.76866" lon="2.16808">
        <ele>153.47</ele>
        <time>2021-03-06T12:51:29Z</time>
      </trkpt>
      <trkpt lat="48.76874" lon="2.16784">
        <ele>152.51</ele>
        <time>2021-03-06T12:51:45Z</time>
      </trkpt>
      <trkpt lat="48.76884" lon="2.16764">
        <ele>152.51</ele>
        <time>2021-03-06T12:52:00Z</time>
      </trkpt>
      <trkpt lat="48.76884" lon="2.16763">
        <ele>152.51</ele>
        <time>2021-03-06T12:52:01Z</time>
      </trkpt>
      <trkpt lat="48.76886" lon="2.16755">
        <ele>152.51</ele>
        <time>2021-03-06T12:52:06Z</time>
      </trkpt>
      <trkpt lat="48.76886" lon="2.16751">
        <ele>152.51</ele>
        <time>2021-03-06T12:52:08Z</time>
      </trkpt>
      <trkpt lat="48.76886" lon="2.16745">
        <ele>152.51</ele>
        <time>2021-03-06T12:52:11Z</time>
      </trkpt>
      <trkpt lat="48.76887" lon="2.16743">
        <ele>152.99</ele>
        <time>2021-03-06T12:52:12Z</time>
      </trkpt>
      <trkpt lat="48.76887" lon="2.16741">
        <ele>152.51</ele>
        <time>2021-03-06T12:52:13Z</time>
      </trkpt>
      <trkpt lat="48.76887" lon="2.16739">
        <ele>152.51</ele>
        <time>2021-03-06T12:52:14Z</time>
      </trkpt>
      <trkpt lat="48.76887" lon="2.16737">
        <ele>152.99</ele>
        <time>2021-03-06T12:52:15Z</time>
      </trkpt>
      <trkpt lat="48.76887" lon="2.16735">
        <ele>152.51</ele>
        <time>2021-03-06T12:52:16Z</time>
      </trkpt>
      <trkpt lat="48.76886" lon="2.16726">
        <ele>152.99</ele>
        <time>2021-03-06T12:52:21Z</time>
      </trkpt>
      <trkpt lat="48.76886" lon="2.16724">
        <ele>152.99</ele>
        <time>2021-03-06T12:52:22Z</time>
      </trkpt>
      <trkpt lat="48.76889" lon="2.16697">
        <ele>152.51</ele>
        <time>2021-03-06T12:52:37Z</time>
      </trkpt>
      <trkpt lat="48.7689" lon="2.1669">
        <ele>152.99</ele>
        <time>2021-03-06T12:52:41Z</time>
      </trkpt>
      <trkpt lat="48.76894" lon="2.1667">
        <ele>154.43</ele>
        <time>2021-03-06T12:52:52Z</time>
      </trkpt>
      <trkpt lat="48.76893" lon="2.16666">
        <ele>153.95</ele>
        <time>2021-03-06T12:52:55Z</time>
      </trkpt>
      <trkpt lat="48.76893" lon="2.16664">
        <ele>153.95</ele>
        <time>2021-03-06T12:52:56Z</time>
      </trkpt>
      <trkpt lat="48.76893" lon="2.16662">
        <ele>153.95</ele>
        <time>2021-03-06T12:52:57Z</time>
      </trkpt>
      <trkpt lat="48.76892" lon="2.16647">
        <ele>152.99</ele>
        <time>2021-03-06T12:53:06Z</time>
      </trkpt>
      <trkpt lat="48.76891" lon="2.16645">
        <ele>153.47</ele>
        <time>2021-03-06T12:53:07Z</time>
      </trkpt>
      <trkpt lat="48.76886" lon="2.16629">
        <ele>152.51</ele>
        <time>2021-03-06T12:53:17Z</time>
      </trkpt>
      <trkpt lat="48.76886" lon="2.16624">
        <ele>152.03</ele>
        <time>2021-03-06T12:53:20Z</time>
      </trkpt>
      <trkpt lat="48.7688" lon="2.16603">
        <ele>152.03</ele>
        <time>2021-03-06T12:53:31Z</time>
      </trkpt>
      <trkpt lat="48.76875" lon="2.16581">
        <ele>152.03</ele>
        <time>2021-03-06T12:53:45Z</time>
      </trkpt>
      <trkpt lat="48.76868" lon="2.16556">
        <ele>152.03</ele>
        <time>2021-03-06T12:53:58Z</time>
      </trkpt>
      <trkpt lat="48.76862" lon="2.16536">
        <ele>151.06</ele>
        <time>2021-03-06T12:54:12Z</time>
      </trkpt>
      <trkpt lat="48.76857" lon="2.16512">
        <ele>151.06</ele>
        <time>2021-03-06T12:54:25Z</time>
      </trkpt>
      <trkpt lat="48.76857" lon="2.1651">
        <ele>151.06</ele>
        <time>2021-03-06T12:54:26Z</time>
      </trkpt>
      <trkpt lat="48.76856" lon="2.16507">
        <ele>151.06</ele>
        <time>2021-03-06T12:54:27Z</time>
      </trkpt>
      <trkpt lat="48.76853" lon="2.16484">
        <ele>150.58</ele>
        <time>2021-03-06T12:54:40Z</time>
      </trkpt>
      <trkpt lat="48.7685" lon="2.16471">
        <ele>150.58</ele>
        <time>2021-03-06T12:54:51Z</time>
      </trkpt>
      <trkpt lat="48.7685" lon="2.16469">
        <ele>150.58</ele>
        <time>2021-03-06T12:54:52Z</time>
      </trkpt>
      <trkpt lat="48.76843" lon="2.16448">
        <ele>150.58</ele>
        <time>2021-03-06T12:55:06Z</time>
      </trkpt>
      <trkpt lat="48.7684" lon="2.16437">
        <ele>150.58</ele>
        <time>2021-03-06T12:55:20Z</time>
      </trkpt>
      <trkpt lat="48.7684" lon="2.16434">
        <ele>150.1</ele>
        <time>2021-03-06T12:55:25Z</time>
      </trkpt>
      <trkpt lat="48.76841" lon="2.16432">
        <ele>150.1</ele>
        <time>2021-03-06T12:55:26Z</time>
      </trkpt>
      <trkpt lat="48.76837" lon="2.16413">
        <ele>149.62</ele>
        <time>2021-03-06T12:55:39Z</time>
      </trkpt>
      <trkpt lat="48.7684" lon="2.16391">
        <ele>148.66</ele>
        <time>2021-03-06T12:55:53Z</time>
      </trkpt>
      <trkpt lat="48.76841" lon="2.16377">
        <ele>148.18</ele>
        <time>2021-03-06T12:56:04Z</time>
      </trkpt>
      <trkpt lat="48.76844" lon="2.16368">
        <ele>147.7</ele>
        <time>2021-03-06T12:56:11Z</time>
      </trkpt>
      <trkpt lat="48.76845" lon="2.16367">
        <ele>147.7</ele>
        <time>2021-03-06T12:56:12Z</time>
      </trkpt>
      <trkpt lat="48.76851" lon="2.16357">
        <ele>148.18</ele>
        <time>2021-03-06T12:56:19Z</time>
      </trkpt>
      <trkpt lat="48.76851" lon="2.16352">
        <ele>147.7</ele>
        <time>2021-03-06T12:56:23Z</time>
      </trkpt>
      <trkpt lat="48.76851" lon="2.1635">
        <ele>147.7</ele>
        <time>2021-03-06T12:56:24Z</time>
      </trkpt>
      <trkpt lat="48.76852" lon="2.16346">
        <ele>147.22</ele>
        <time>2021-03-06T12:56:26Z</time>
      </trkpt>
      <trkpt lat="48.76852" lon="2.16344">
        <ele>147.22</ele>
        <time>2021-03-06T12:56:27Z</time>
      </trkpt>
      <trkpt lat="48.76861" lon="2.16323">
        <ele>147.7</ele>
        <time>2021-03-06T12:56:40Z</time>
      </trkpt>
      <trkpt lat="48.76861" lon="2.16318">
        <ele>147.7</ele>
        <time>2021-03-06T12:56:44Z</time>
      </trkpt>
      <trkpt lat="48.76862" lon="2.16316">
        <ele>147.7</ele>
        <time>2021-03-06T12:56:45Z</time>
      </trkpt>
      <trkpt lat="48.76865" lon="2.1631">
        <ele>147.7</ele>
        <time>2021-03-06T12:56:49Z</time>
      </trkpt>
      <trkpt lat="48.76865" lon="2.16308">
        <ele>147.7</ele>
        <time>2021-03-06T12:56:50Z</time>
      </trkpt>
      <trkpt lat="48.76867" lon="2.16288">
        <ele>147.7</ele>
        <time>2021-03-06T12:57:02Z</time>
      </trkpt>
      <trkpt lat="48.76864" lon="2.16279">
        <ele>147.7</ele>
        <time>2021-03-06T12:57:14Z</time>
      </trkpt>
      <trkpt lat="48.76863" lon="2.16275">
        <ele>147.7</ele>
        <time>2021-03-06T12:57:17Z</time>
      </trkpt>
      <trkpt lat="48.76863" lon="2.16273">
        <ele>147.22</ele>
        <time>2021-03-06T12:57:18Z</time>
      </trkpt>
      <trkpt lat="48.76863" lon="2.1627">
        <ele>147.22</ele>
        <time>2021-03-06T12:57:19Z</time>
      </trkpt>
      <trkpt lat="48.76862" lon="2.16267">
        <ele>147.22</ele>
        <time>2021-03-06T12:57:20Z</time>
      </trkpt>
      <trkpt lat="48.76862" lon="2.16265">
        <ele>147.22</ele>
        <time>2021-03-06T12:57:21Z</time>
      </trkpt>
      <trkpt lat="48.76862" lon="2.16262">
        <ele>147.22</ele>
        <time>2021-03-06T12:57:22Z</time>
      </trkpt>
      <trkpt lat="48.76861" lon="2.16248">
        <ele>147.22</ele>
        <time>2021-03-06T12:57:34Z</time>
      </trkpt>
      <trkpt lat="48.76856" lon="2.16228">
        <ele>146.26</ele>
        <time>2021-03-06T12:57:45Z</time>
      </trkpt>
      <trkpt lat="48.76848" lon="2.16208">
        <ele>146.74</ele>
        <time>2021-03-06T12:57:58Z</time>
      </trkpt>
      <trkpt lat="48.76846" lon="2.16197">
        <ele>146.26</ele>
        <time>2021-03-06T12:58:06Z</time>
      </trkpt>
      <trkpt lat="48.76846" lon="2.16196">
        <ele>146.26</ele>
        <time>2021-03-06T12:58:07Z</time>
      </trkpt>
      <trkpt lat="48.76839" lon="2.16179">
        <ele>146.74</ele>
        <time>2021-03-06T12:58:19Z</time>
      </trkpt>
      <trkpt lat="48.76834" lon="2.1617">
        <ele>145.78</ele>
        <time>2021-03-06T12:58:26Z</time>
      </trkpt>
      <trkpt lat="48.76833" lon="2.16168">
        <ele>145.78</ele>
        <time>2021-03-06T12:58:27Z</time>
      </trkpt>
      <trkpt lat="48.76828" lon="2.16142">
        <ele>145.3</ele>
        <time>2021-03-06T12:58:42Z</time>
      </trkpt>
      <trkpt lat="48.76826" lon="2.16138">
        <ele>144.82</ele>
        <time>2021-03-06T12:58:45Z</time>
      </trkpt>
      <trkpt lat="48.76825" lon="2.16137">
        <ele>145.3</ele>
        <time>2021-03-06T12:58:46Z</time>
      </trkpt>
      <trkpt lat="48.76825" lon="2.16134">
        <ele>144.82</ele>
        <time>2021-03-06T12:58:47Z</time>
      </trkpt>
      <trkpt lat="48.76824" lon="2.16106">
        <ele>144.82</ele>
        <time>2021-03-06T12:59:01Z</time>
      </trkpt>
      <trkpt lat="48.76825" lon="2.16085">
        <ele>143.85</ele>
        <time>2021-03-06T12:59:14Z</time>
      </trkpt>
      <trkpt lat="48.76825" lon="2.16082">
        <ele>143.85</ele>
        <time>2021-03-06T12:59:15Z</time>
      </trkpt>
      <trkpt lat="48.76825" lon="2.1608">
        <ele>144.34</ele>
        <time>2021-03-06T12:59:16Z</time>
      </trkpt>
      <trkpt lat="48.76827" lon="2.16057">
        <ele>143.85</ele>
        <time>2021-03-06T12:59:30Z</time>
      </trkpt>
      <trkpt lat="48.76826" lon="2.16049">
        <ele>143.37</ele>
        <time>2021-03-06T12:59:45Z</time>
      </trkpt>
      <trkpt lat="48.76828" lon="2.16044">
        <ele>142.89</ele>
        <time>2021-03-06T12:59:51Z</time>
      </trkpt>
      <trkpt lat="48.7683" lon="2.16031">
        <ele>142.89</ele>
        <time>2021-03-06T12:59:58Z</time>
      </trkpt>
      <trkpt lat="48.76831" lon="2.1602">
        <ele>142.41</ele>
        <time>2021-03-06T13:00:06Z</time>
      </trkpt>
      <trkpt lat="48.76834" lon="2.16008">
        <ele>142.41</ele>
        <time>2021-03-06T13:00:13Z</time>
      </trkpt>
      <trkpt lat="48.76842" lon="2.15998">
        <ele>143.37</ele>
        <time>2021-03-06T13:00:27Z</time>
      </trkpt>
      <trkpt lat="48.76853" lon="2.16">
        <ele>145.3</ele>
        <time>2021-03-06T13:00:41Z</time>
      </trkpt>
      <trkpt lat="48.76858" lon="2.16001">
        <ele>145.78</ele>
        <time>2021-03-06T13:00:45Z</time>
      </trkpt>
      <trkpt lat="48.76872" lon="2.16">
        <ele>146.74</ele>
        <time>2021-03-06T13:00:58Z</time>
      </trkpt>
      <trkpt lat="48.76873" lon="2.16001">
        <ele>146.74</ele>
        <time>2021-03-06T13:00:59Z</time>
      </trkpt>
      <trkpt lat="48.76875" lon="2.16002">
        <ele>147.22</ele>
        <time>2021-03-06T13:01:00Z</time>
      </trkpt>
      <trkpt lat="48.76876" lon="2.16002">
        <ele>147.22</ele>
        <time>2021-03-06T13:01:01Z</time>
      </trkpt>
      <trkpt lat="48.76877" lon="2.16002">
        <ele>147.22</ele>
        <time>2021-03-06T13:01:02Z</time>
      </trkpt>
      <trkpt lat="48.76894" lon="2.15997">
        <ele>148.66</ele>
        <time>2021-03-06T13:01:18Z</time>
      </trkpt>
      <trkpt lat="48.76911" lon="2.15995">
        <ele>150.1</ele>
        <time>2021-03-06T13:01:32Z</time>
      </trkpt>
      <trkpt lat="48.76928" lon="2.15998">
        <ele>151.54</ele>
        <time>2021-03-06T13:01:48Z</time>
      </trkpt>
      <trkpt lat="48.76945" lon="2.16007">
        <ele>152.51</ele>
        <time>2021-03-06T13:02:02Z</time>
      </trkpt>
      <trkpt lat="48.76961" lon="2.16009">
        <ele>153.47</ele>
        <time>2021-03-06T13:02:16Z</time>
      </trkpt>
      <trkpt lat="48.76974" lon="2.1601">
        <ele>153.95</ele>
        <time>2021-03-06T13:02:29Z</time>
      </trkpt>
      <trkpt lat="48.76977" lon="2.1601">
        <ele>153.95</ele>
        <time>2021-03-06T13:02:33Z</time>
      </trkpt>
      <trkpt lat="48.76978" lon="2.1601">
        <ele>153.95</ele>
        <time>2021-03-06T13:02:34Z</time>
      </trkpt>
      <trkpt lat="48.76993" lon="2.16013">
        <ele>155.87</ele>
        <time>2021-03-06T13:02:50Z</time>
      </trkpt>
      <trkpt lat="48.77017" lon="2.16014">
        <ele>156.83</ele>
        <time>2021-03-06T13:03:09Z</time>
      </trkpt>
      <trkpt lat="48.77035" lon="2.16016">
        <ele>157.79</ele>
        <time>2021-03-06T13:03:24Z</time>
      </trkpt>
      <trkpt lat="48.77039" lon="2.16019">
        <ele>158.75</ele>
        <time>2021-03-06T13:03:29Z</time>
      </trkpt>
      <trkpt lat="48.7704" lon="2.1602">
        <ele>158.27</ele>
        <time>2021-03-06T13:03:30Z</time>
      </trkpt>
      <trkpt lat="48.7706" lon="2.16025">
        <ele>160.2</ele>
        <time>2021-03-06T13:03:47Z</time>
      </trkpt>
      <trkpt lat="48.77069" lon="2.16027">
        <ele>162.12</ele>
        <time>2021-03-06T13:03:57Z</time>
      </trkpt>
      <trkpt lat="48.77083" lon="2.16037">
        <ele>161.64</ele>
        <time>2021-03-06T13:04:08Z</time>
      </trkpt>
      <trkpt lat="48.77097" lon="2.16033">
        <ele>162.6</ele>
        <time>2021-03-06T13:04:22Z</time>
      </trkpt>
      <trkpt lat="48.77114" lon="2.16039">
        <ele>163.56</ele>
        <time>2021-03-06T13:04:38Z</time>
      </trkpt>
      <trkpt lat="48.77139" lon="2.16041">
        <ele>165</ele>
        <time>2021-03-06T13:04:56Z</time>
      </trkpt>
      <trkpt lat="48.77142" lon="2.1604">
        <ele>164.52</ele>
        <time>2021-03-06T13:04:58Z</time>
      </trkpt>
      <trkpt lat="48.77149" lon="2.16039">
        <ele>165.48</ele>
        <time>2021-03-06T13:05:04Z</time>
      </trkpt>
      <trkpt lat="48.77151" lon="2.16039">
        <ele>165</ele>
        <time>2021-03-06T13:05:05Z</time>
      </trkpt>
      <trkpt lat="48.77155" lon="2.16041">
        <ele>165.96</ele>
        <time>2021-03-06T13:05:10Z</time>
      </trkpt>
      <trkpt lat="48.77156" lon="2.16041">
        <ele>165.48</ele>
        <time>2021-03-06T13:05:11Z</time>
      </trkpt>
      <trkpt lat="48.77171" lon="2.16045">
        <ele>167.41</ele>
        <time>2021-03-06T13:05:25Z</time>
      </trkpt>
      <trkpt lat="48.7719" lon="2.1605">
        <ele>167.89</ele>
        <time>2021-03-06T13:05:41Z</time>
      </trkpt>
      <trkpt lat="48.77194" lon="2.16049">
        <ele>168.37</ele>
        <time>2021-03-06T13:05:46Z</time>
      </trkpt>
      <trkpt lat="48.77195" lon="2.16049">
        <ele>168.37</ele>
        <time>2021-03-06T13:05:47Z</time>
      </trkpt>
      <trkpt lat="48.77207" lon="2.16051">
        <ele>168.37</ele>
        <time>2021-03-06T13:05:58Z</time>
      </trkpt>
      <trkpt lat="48.77216" lon="2.16049">
        <ele>168.85</ele>
        <time>2021-03-06T13:06:04Z</time>
      </trkpt>
      <trkpt lat="48.77228" lon="2.16053">
        <ele>169.33</ele>
        <time>2021-03-06T13:06:16Z</time>
      </trkpt>
      <trkpt lat="48.7723" lon="2.16053">
        <ele>169.81</ele>
        <time>2021-03-06T13:06:17Z</time>
      </trkpt>
      <trkpt lat="48.77232" lon="2.16053">
        <ele>169.81</ele>
        <time>2021-03-06T13:06:18Z</time>
      </trkpt>
      <trkpt lat="48.77234" lon="2.16053">
        <ele>169.33</ele>
        <time>2021-03-06T13:06:19Z</time>
      </trkpt>
      <trkpt lat="48.77245" lon="2.16055">
        <ele>170.29</ele>
        <time>2021-03-06T13:06:30Z</time>
      </trkpt>
      <trkpt lat="48.77262" lon="2.16052">
        <ele>170.77</ele>
        <time>2021-03-06T13:06:43Z</time>
      </trkpt>
      <trkpt lat="48.77278" lon="2.16058">
        <ele>171.73</ele>
        <time>2021-03-06T13:06:56Z</time>
      </trkpt>
      <trkpt lat="48.77296" lon="2.16061">
        <ele>171.73</ele>
        <time>2021-03-06T13:07:09Z</time>
      </trkpt>
      <trkpt lat="48.77311" lon="2.16068">
        <ele>172.69</ele>
        <time>2021-03-06T13:07:24Z</time>
      </trkpt>
      <trkpt lat="48.77314" lon="2.16067">
        <ele>172.21</ele>
        <time>2021-03-06T13:07:27Z</time>
      </trkpt>
      <trkpt lat="48.77316" lon="2.16067">
        <ele>172.69</ele>
        <time>2021-03-06T13:07:28Z</time>
      </trkpt>
      <trkpt lat="48.77317" lon="2.16067">
        <ele>172.69</ele>
        <time>2021-03-06T13:07:29Z</time>
      </trkpt>
      <trkpt lat="48.77319" lon="2.16067">
        <ele>173.17</ele>
        <time>2021-03-06T13:07:30Z</time>
      </trkpt>
      <trkpt lat="48.77334" lon="2.16064">
        <ele>173.66</ele>
        <time>2021-03-06T13:07:43Z</time>
      </trkpt>
      <trkpt lat="48.77348" lon="2.16072">
        <ele>173.66</ele>
        <time>2021-03-06T13:07:58Z</time>
      </trkpt>
      <trkpt lat="48.7735" lon="2.16072">
        <ele>173.66</ele>
        <time>2021-03-06T13:07:59Z</time>
      </trkpt>
      <trkpt lat="48.77351" lon="2.16072">
        <ele>173.66</ele>
        <time>2021-03-06T13:08:00Z</time>
      </trkpt>
      <trkpt lat="48.77354" lon="2.16073">
        <ele>174.14</ele>
        <time>2021-03-06T13:08:01Z</time>
      </trkpt>
      <trkpt lat="48.77372" lon="2.16077">
        <ele>174.14</ele>
        <time>2021-03-06T13:08:16Z</time>
      </trkpt>
      <trkpt lat="48.77386" lon="2.16076">
        <ele>174.62</ele>
        <time>2021-03-06T13:08:28Z</time>
      </trkpt>
      <trkpt lat="48.77396" lon="2.16078">
        <ele>175.1</ele>
        <time>2021-03-06T13:08:38Z</time>
      </trkpt>
      <trkpt lat="48.7742" lon="2.1608">
        <ele>175.1</ele>
        <time>2021-03-06T13:08:55Z</time>
      </trkpt>
      <trkpt lat="48.77431" lon="2.1608">
        <ele>175.1</ele>
        <time>2021-03-06T13:09:05Z</time>
      </trkpt>
      <trkpt lat="48.77445" lon="2.16082">
        <ele>175.1</ele>
        <time>2021-03-06T13:09:16Z</time>
      </trkpt>
      <trkpt lat="48.77454" lon="2.1608">
        <ele>175.1</ele>
        <time>2021-03-06T13:09:22Z</time>
      </trkpt>
      <trkpt lat="48.77456" lon="2.1608">
        <ele>175.1</ele>
        <time>2021-03-06T13:09:23Z</time>
      </trkpt>
      <trkpt lat="48.77457" lon="2.16081">
        <ele>175.58</ele>
        <time>2021-03-06T13:09:24Z</time>
      </trkpt>
      <trkpt lat="48.77472" lon="2.16087">
        <ele>176.06</ele>
        <time>2021-03-06T13:09:39Z</time>
      </trkpt>
      <trkpt lat="48.7749" lon="2.16088">
        <ele>176.54</ele>
        <time>2021-03-06T13:09:53Z</time>
      </trkpt>
      <trkpt lat="48.77503" lon="2.16091">
        <ele>176.06</ele>
        <time>2021-03-06T13:10:07Z</time>
      </trkpt>
      <trkpt lat="48.77507" lon="2.16092">
        <ele>177.02</ele>
        <time>2021-03-06T13:10:10Z</time>
      </trkpt>
      <trkpt lat="48.7751" lon="2.16093">
        <ele>176.54</ele>
        <time>2021-03-06T13:10:12Z</time>
      </trkpt>
      <trkpt lat="48.77512" lon="2.16093">
        <ele>176.54</ele>
        <time>2021-03-06T13:10:13Z</time>
      </trkpt>
      <trkpt lat="48.77531" lon="2.16098">
        <ele>176.54</ele>
        <time>2021-03-06T13:10:29Z</time>
      </trkpt>
      <trkpt lat="48.7755" lon="2.16098">
        <ele>177.02</ele>
        <time>2021-03-06T13:10:43Z</time>
      </trkpt>
      <trkpt lat="48.77569" lon="2.16102">
        <ele>177.02</ele>
        <time>2021-03-06T13:10:58Z</time>
      </trkpt>
      <trkpt lat="48.77584" lon="2.16107">
        <ele>177.5</ele>
        <time>2021-03-06T13:11:12Z</time>
      </trkpt>
      <trkpt lat="48.77601" lon="2.16104">
        <ele>178.46</ele>
        <time>2021-03-06T13:11:23Z</time>
      </trkpt>
      <trkpt lat="48.77604" lon="2.16104">
        <ele>178.46</ele>
        <time>2021-03-06T13:11:26Z</time>
      </trkpt>
      <trkpt lat="48.77609" lon="2.16106">
        <ele>177.98</ele>
        <time>2021-03-06T13:11:32Z</time>
      </trkpt>
      <trkpt lat="48.77616" lon="2.16107">
        <ele>177.5</ele>
        <time>2021-03-06T13:11:39Z</time>
      </trkpt>
      <trkpt lat="48.77636" lon="2.16112">
        <ele>178.46</ele>
        <time>2021-03-06T13:11:54Z</time>
      </trkpt>
      <trkpt lat="48.77654" lon="2.16113">
        <ele>178.46</ele>
        <time>2021-03-06T13:12:09Z</time>
      </trkpt>
      <trkpt lat="48.77669" lon="2.16116">
        <ele>178.94</ele>
        <time>2021-03-06T13:12:23Z</time>
      </trkpt>
      <trkpt lat="48.77683" lon="2.16121">
        <ele>178.94</ele>
        <time>2021-03-06T13:12:34Z</time>
      </trkpt>
      <trkpt lat="48.77697" lon="2.16124">
        <ele>178.94</ele>
        <time>2021-03-06T13:12:47Z</time>
      </trkpt>
      <trkpt lat="48.77703" lon="2.16122">
        <ele>178.94</ele>
        <time>2021-03-06T13:12:56Z</time>
      </trkpt>
      <trkpt lat="48.77695" lon="2.16121">
        <ele>178.94</ele>
        <time>2021-03-06T13:13:04Z</time>
      </trkpt>
      <trkpt lat="48.7769" lon="2.16136">
        <ele>179.42</ele>
        <time>2021-03-06T13:13:15Z</time>
      </trkpt>
      <trkpt lat="48.7769" lon="2.1614">
        <ele>178.94</ele>
        <time>2021-03-06T13:13:17Z</time>
      </trkpt>
      <trkpt lat="48.77689" lon="2.1615">
        <ele>178.94</ele>
        <time>2021-03-06T13:13:21Z</time>
      </trkpt>
      <trkpt lat="48.77687" lon="2.16173">
        <ele>178.94</ele>
        <time>2021-03-06T13:13:34Z</time>
      </trkpt>
      <trkpt lat="48.77687" lon="2.16182">
        <ele>178.46</ele>
        <time>2021-03-06T13:13:38Z</time>
      </trkpt>
      <trkpt lat="48.77687" lon="2.16204">
        <ele>178.46</ele>
        <time>2021-03-06T13:13:49Z</time>
      </trkpt>
      <trkpt lat="48.77686" lon="2.16222">
        <ele>178.94</ele>
        <time>2021-03-06T13:13:58Z</time>
      </trkpt>
      <trkpt lat="48.77684" lon="2.16252">
        <ele>178.94</ele>
        <time>2021-03-06T13:14:12Z</time>
      </trkpt>
      <trkpt lat="48.77684" lon="2.16254">
        <ele>178.46</ele>
        <time>2021-03-06T13:14:14Z</time>
      </trkpt>
      <trkpt lat="48.77683" lon="2.16268">
        <ele>178.94</ele>
        <time>2021-03-06T13:14:23Z</time>
      </trkpt>
      <trkpt lat="48.77683" lon="2.16271">
        <ele>179.42</ele>
        <time>2021-03-06T13:14:24Z</time>
      </trkpt>
      <trkpt lat="48.77683" lon="2.16276">
        <ele>178.94</ele>
        <time>2021-03-06T13:14:26Z</time>
      </trkpt>
      <trkpt lat="48.77683" lon="2.16284">
        <ele>178.94</ele>
        <time>2021-03-06T13:14:29Z</time>
      </trkpt>
      <trkpt lat="48.77683" lon="2.16287">
        <ele>178.94</ele>
        <time>2021-03-06T13:14:30Z</time>
      </trkpt>
      <trkpt lat="48.77683" lon="2.1629">
        <ele>179.42</ele>
        <time>2021-03-06T13:14:31Z</time>
      </trkpt>
      <trkpt lat="48.77683" lon="2.16306">
        <ele>178.94</ele>
        <time>2021-03-06T13:14:42Z</time>
      </trkpt>
      <trkpt lat="48.77678" lon="2.16333">
        <ele>178.94</ele>
        <time>2021-03-06T13:14:54Z</time>
      </trkpt>
      <trkpt lat="48.77677" lon="2.16344">
        <ele>178.94</ele>
        <time>2021-03-06T13:15:01Z</time>
      </trkpt>
      <trkpt lat="48.77677" lon="2.16346">
        <ele>179.42</ele>
        <time>2021-03-06T13:15:02Z</time>
      </trkpt>
      <trkpt lat="48.77678" lon="2.16349">
        <ele>179.42</ele>
        <time>2021-03-06T13:15:03Z</time>
      </trkpt>
      <trkpt lat="48.77679" lon="2.16351">
        <ele>179.42</ele>
        <time>2021-03-06T13:15:04Z</time>
      </trkpt>
      <trkpt lat="48.77679" lon="2.16354">
        <ele>179.42</ele>
        <time>2021-03-06T13:15:05Z</time>
      </trkpt>
      <trkpt lat="48.7768" lon="2.16357">
        <ele>178.94</ele>
        <time>2021-03-06T13:15:06Z</time>
      </trkpt>
      <trkpt lat="48.77681" lon="2.16359">
        <ele>178.94</ele>
        <time>2021-03-06T13:15:07Z</time>
      </trkpt>
      <trkpt lat="48.7769" lon="2.16379">
        <ele>178.94</ele>
        <time>2021-03-06T13:15:20Z</time>
      </trkpt>
      <trkpt lat="48.77694" lon="2.16382">
        <ele>178.94</ele>
        <time>2021-03-06T13:15:24Z</time>
      </trkpt>
      <trkpt lat="48.77695" lon="2.16382">
        <ele>179.42</ele>
        <time>2021-03-06T13:15:25Z</time>
      </trkpt>
      <trkpt lat="48.77697" lon="2.16383">
        <ele>178.94</ele>
        <time>2021-03-06T13:15:26Z</time>
      </trkpt>
      <trkpt lat="48.77698" lon="2.16383">
        <ele>179.42</ele>
        <time>2021-03-06T13:15:27Z</time>
      </trkpt>
      <trkpt lat="48.777" lon="2.16384">
        <ele>178.94</ele>
        <time>2021-03-06T13:15:28Z</time>
      </trkpt>
      <trkpt lat="48.77701" lon="2.16384">
        <ele>178.94</ele>
        <time>2021-03-06T13:15:29Z</time>
      </trkpt>
      <trkpt lat="48.77702" lon="2.16385">
        <ele>178.46</ele>
        <time>2021-03-06T13:15:30Z</time>
      </trkpt>
      <trkpt lat="48.77719" lon="2.16395">
        <ele>178.94</ele>
        <time>2021-03-06T13:15:46Z</time>
      </trkpt>
      <trkpt lat="48.77731" lon="2.16399">
        <ele>178.94</ele>
        <time>2021-03-06T13:15:57Z</time>
      </trkpt>
      <trkpt lat="48.77746" lon="2.16404">
        <ele>178.94</ele>
        <time>2021-03-06T13:16:07Z</time>
      </trkpt>
      <trkpt lat="48.77764" lon="2.16412">
        <ele>178.94</ele>
        <time>2021-03-06T13:16:22Z</time>
      </trkpt>
      <trkpt lat="48.7778" lon="2.16418">
        <ele>178.94</ele>
        <time>2021-03-06T13:16:35Z</time>
      </trkpt>
      <trkpt lat="48.77798" lon="2.16421">
        <ele>177.98</ele>
        <time>2021-03-06T13:16:50Z</time>
      </trkpt>
      <trkpt lat="48.77816" lon="2.16426">
        <ele>178.46</ele>
        <time>2021-03-06T13:17:00Z</time>
      </trkpt>
      <trkpt lat="48.77832" lon="2.1643">
        <ele>178.46</ele>
        <time>2021-03-06T13:17:13Z</time>
      </trkpt>
      <trkpt lat="48.7785" lon="2.16438">
        <ele>177.98</ele>
        <time>2021-03-06T13:17:25Z</time>
      </trkpt>
      <trkpt lat="48.77868" lon="2.16441">
        <ele>177.98</ele>
        <time>2021-03-06T13:17:38Z</time>
      </trkpt>
      <trkpt lat="48.77878" lon="2.16447">
        <ele>178.46</ele>
        <time>2021-03-06T13:17:50Z</time>
      </trkpt>
      <trkpt lat="48.77882" lon="2.16448">
        <ele>178.46</ele>
        <time>2021-03-06T13:17:53Z</time>
      </trkpt>
      <trkpt lat="48.77885" lon="2.16449">
        <ele>178.46</ele>
        <time>2021-03-06T13:17:55Z</time>
      </trkpt>
      <trkpt lat="48.779" lon="2.16454">
        <ele>178.46</ele>
        <time>2021-03-06T13:18:05Z</time>
      </trkpt>
      <trkpt lat="48.77913" lon="2.16461">
        <ele>178.46</ele>
        <time>2021-03-06T13:18:18Z</time>
      </trkpt>
      <trkpt lat="48.77927" lon="2.16471">
        <ele>177.98</ele>
        <time>2021-03-06T13:18:31Z</time>
      </trkpt>
      <trkpt lat="48.77927" lon="2.16473">
        <ele>177.98</ele>
        <time>2021-03-06T13:18:32Z</time>
      </trkpt>
      <trkpt lat="48.77928" lon="2.16476">
        <ele>177.98</ele>
        <time>2021-03-06T13:18:33Z</time>
      </trkpt>
      <trkpt lat="48.77928" lon="2.16478">
        <ele>177.98</ele>
        <time>2021-03-06T13:18:34Z</time>
      </trkpt>
      <trkpt lat="48.77934" lon="2.16492">
        <ele>177.98</ele>
        <time>2021-03-06T13:18:45Z</time>
      </trkpt>
      <trkpt lat="48.77939" lon="2.16519">
        <ele>177.98</ele>
        <time>2021-03-06T13:19:00Z</time>
      </trkpt>
      <trkpt lat="48.77934" lon="2.1653">
        <ele>177.5</ele>
        <time>2021-03-06T13:19:06Z</time>
      </trkpt>
      <trkpt lat="48.77933" lon="2.16537">
        <ele>177.5</ele>
        <time>2021-03-06T13:19:10Z</time>
      </trkpt>
      <trkpt lat="48.77934" lon="2.16541">
        <ele>177.98</ele>
        <time>2021-03-06T13:19:12Z</time>
      </trkpt>
      <trkpt lat="48.77934" lon="2.16546">
        <ele>177.5</ele>
        <time>2021-03-06T13:19:17Z</time>
      </trkpt>
      <trkpt lat="48.77935" lon="2.16547">
        <ele>177.5</ele>
        <time>2021-03-06T13:19:18Z</time>
      </trkpt>
      <trkpt lat="48.77937" lon="2.16549">
        <ele>177.02</ele>
        <time>2021-03-06T13:19:20Z</time>
      </trkpt>
      <trkpt lat="48.7794" lon="2.16552">
        <ele>177.5</ele>
        <time>2021-03-06T13:19:23Z</time>
      </trkpt>
      <trkpt lat="48.77947" lon="2.16562">
        <ele>177.98</ele>
        <time>2021-03-06T13:19:31Z</time>
      </trkpt>
      <trkpt lat="48.77952" lon="2.16571">
        <ele>178.46</ele>
        <time>2021-03-06T13:19:38Z</time>
      </trkpt>
      <trkpt lat="48.77962" lon="2.16582">
        <ele>177.5</ele>
        <time>2021-03-06T13:19:50Z</time>
      </trkpt>
      <trkpt lat="48.77969" lon="2.16604">
        <ele>177.98</ele>
        <time>2021-03-06T13:20:03Z</time>
      </trkpt>
      <trkpt lat="48.77973" lon="2.16618">
        <ele>177.98</ele>
        <time>2021-03-06T13:20:12Z</time>
      </trkpt>
      <trkpt lat="48.77973" lon="2.16633">
        <ele>177.5</ele>
        <time>2021-03-06T13:20:24Z</time>
      </trkpt>
      <trkpt lat="48.77981" lon="2.16651">
        <ele>177.5</ele>
        <time>2021-03-06T13:20:36Z</time>
      </trkpt>
      <trkpt lat="48.77987" lon="2.1666">
        <ele>177.5</ele>
        <time>2021-03-06T13:20:45Z</time>
      </trkpt>
      <trkpt lat="48.77989" lon="2.16672">
        <ele>177.5</ele>
        <time>2021-03-06T13:20:54Z</time>
      </trkpt>
      <trkpt lat="48.77985" lon="2.16674">
        <ele>177.02</ele>
        <time>2021-03-06T13:20:59Z</time>
      </trkpt>
      <trkpt lat="48.77979" lon="2.16676">
        <ele>177.5</ele>
        <time>2021-03-06T13:21:04Z</time>
      </trkpt>
      <trkpt lat="48.77975" lon="2.16681">
        <ele>177.5</ele>
        <time>2021-03-06T13:21:10Z</time>
      </trkpt>
      <trkpt lat="48.77971" lon="2.16697">
        <ele>177.02</ele>
        <time>2021-03-06T13:21:22Z</time>
      </trkpt>
      <trkpt lat="48.77971" lon="2.167">
        <ele>177.02</ele>
        <time>2021-03-06T13:21:23Z</time>
      </trkpt>
      <trkpt lat="48.7797" lon="2.16702">
        <ele>177.02</ele>
        <time>2021-03-06T13:21:24Z</time>
      </trkpt>
      <trkpt lat="48.77969" lon="2.16712">
        <ele>177.5</ele>
        <time>2021-03-06T13:21:30Z</time>
      </trkpt>
      <trkpt lat="48.77969" lon="2.16714">
        <ele>177.5</ele>
        <time>2021-03-06T13:21:31Z</time>
      </trkpt>
      <trkpt lat="48.77969" lon="2.16717">
        <ele>177.02</ele>
        <time>2021-03-06T13:21:33Z</time>
      </trkpt>
      <trkpt lat="48.77969" lon="2.16719">
        <ele>177.5</ele>
        <time>2021-03-06T13:21:34Z</time>
      </trkpt>
      <trkpt lat="48.77971" lon="2.16748">
        <ele>177.02</ele>
        <time>2021-03-06T13:21:48Z</time>
      </trkpt>
      <trkpt lat="48.77969" lon="2.16755">
        <ele>176.54</ele>
        <time>2021-03-06T13:21:53Z</time>
      </trkpt>
      <trkpt lat="48.77968" lon="2.16757">
        <ele>176.54</ele>
        <time>2021-03-06T13:21:56Z</time>
      </trkpt>
      <trkpt lat="48.77968" lon="2.16771">
        <ele>176.54</ele>
        <time>2021-03-06T13:22:04Z</time>
      </trkpt>
      <trkpt lat="48.77969" lon="2.16777">
        <ele>176.54</ele>
        <time>2021-03-06T13:22:07Z</time>
      </trkpt>
      <trkpt lat="48.77976" lon="2.16798">
        <ele>176.54</ele>
        <time>2021-03-06T13:22:21Z</time>
      </trkpt>
      <trkpt lat="48.7798" lon="2.16809">
        <ele>176.54</ele>
        <time>2021-03-06T13:22:26Z</time>
      </trkpt>
      <trkpt lat="48.77985" lon="2.16817">
        <ele>177.02</ele>
        <time>2021-03-06T13:22:33Z</time>
      </trkpt>
      <trkpt lat="48.77996" lon="2.16836">
        <ele>176.54</ele>
        <time>2021-03-06T13:22:45Z</time>
      </trkpt>
      <trkpt lat="48.78001" lon="2.16851">
        <ele>177.02</ele>
        <time>2021-03-06T13:22:54Z</time>
      </trkpt>
      <trkpt lat="48.78004" lon="2.16852">
        <ele>177.5</ele>
        <time>2021-03-06T13:22:56Z</time>
      </trkpt>
      <trkpt lat="48.78014" lon="2.16869">
        <ele>177.02</ele>
        <time>2021-03-06T13:23:10Z</time>
      </trkpt>
      <trkpt lat="48.78017" lon="2.16891">
        <ele>177.98</ele>
        <time>2021-03-06T13:23:22Z</time>
      </trkpt>
      <trkpt lat="48.7802" lon="2.16909">
        <ele>177.02</ele>
        <time>2021-03-06T13:23:31Z</time>
      </trkpt>
      <trkpt lat="48.78027" lon="2.1692">
        <ele>177.5</ele>
        <time>2021-03-06T13:23:40Z</time>
      </trkpt>
      <trkpt lat="48.78039" lon="2.16938">
        <ele>177.5</ele>
        <time>2021-03-06T13:23:54Z</time>
      </trkpt>
      <trkpt lat="48.78042" lon="2.16966">
        <ele>178.94</ele>
        <time>2021-03-06T13:24:09Z</time>
      </trkpt>
      <trkpt lat="48.78042" lon="2.16976">
        <ele>177.5</ele>
        <time>2021-03-06T13:24:15Z</time>
      </trkpt>
      <trkpt lat="48.78042" lon="2.1698">
        <ele>179.42</ele>
        <time>2021-03-06T13:24:17Z</time>
      </trkpt>
      <trkpt lat="48.78036" lon="2.17006">
        <ele>179.9</ele>
        <time>2021-03-06T13:24:31Z</time>
      </trkpt>
      <trkpt lat="48.78036" lon="2.1701">
        <ele>177.5</ele>
        <time>2021-03-06T13:24:33Z</time>
      </trkpt>
      <trkpt lat="48.78035" lon="2.17015">
        <ele>180.38</ele>
        <time>2021-03-06T13:24:36Z</time>
      </trkpt>
      <trkpt lat="48.78026" lon="2.17042">
        <ele>177.5</ele>
        <time>2021-03-06T13:24:51Z</time>
      </trkpt>
      <trkpt lat="48.78017" lon="2.17068">
        <ele>177.5</ele>
        <time>2021-03-06T13:25:08Z</time>
      </trkpt>
      <trkpt lat="48.78008" lon="2.17084">
        <ele>178.46</ele>
        <time>2021-03-06T13:25:18Z</time>
      </trkpt>
      <trkpt lat="48.78007" lon="2.17086">
        <ele>178.46</ele>
        <time>2021-03-06T13:25:19Z</time>
      </trkpt>
      <trkpt lat="48.78006" lon="2.17087">
        <ele>177.98</ele>
        <time>2021-03-06T13:25:20Z</time>
      </trkpt>
      <trkpt lat="48.77991" lon="2.17105">
        <ele>177.5</ele>
        <time>2021-03-06T13:25:34Z</time>
      </trkpt>
      <trkpt lat="48.77977" lon="2.17116">
        <ele>176.54</ele>
        <time>2021-03-06T13:25:46Z</time>
      </trkpt>
      <trkpt lat="48.77965" lon="2.17122">
        <ele>176.06</ele>
        <time>2021-03-06T13:25:58Z</time>
      </trkpt>
      <trkpt lat="48.77963" lon="2.17123">
        <ele>175.58</ele>
        <time>2021-03-06T13:26:00Z</time>
      </trkpt>
      <trkpt lat="48.77961" lon="2.17126">
        <ele>175.58</ele>
        <time>2021-03-06T13:26:02Z</time>
      </trkpt>
      <trkpt lat="48.7796" lon="2.17126">
        <ele>176.06</ele>
        <time>2021-03-06T13:26:03Z</time>
      </trkpt>
      <trkpt lat="48.77959" lon="2.17127">
        <ele>175.58</ele>
        <time>2021-03-06T13:26:04Z</time>
      </trkpt>
      <trkpt lat="48.77942" lon="2.17144">
        <ele>176.06</ele>
        <time>2021-03-06T13:26:17Z</time>
      </trkpt>
      <trkpt lat="48.77935" lon="2.17149">
        <ele>176.06</ele>
        <time>2021-03-06T13:26:26Z</time>
      </trkpt>
      <trkpt lat="48.77923" lon="2.17169">
        <ele>176.06</ele>
        <time>2021-03-06T13:26:37Z</time>
      </trkpt>
      <trkpt lat="48.77922" lon="2.17175">
        <ele>176.54</ele>
        <time>2021-03-06T13:26:41Z</time>
      </trkpt>
      <trkpt lat="48.77915" lon="2.17195">
        <ele>176.06</ele>
        <time>2021-03-06T13:26:53Z</time>
      </trkpt>
      <trkpt lat="48.77911" lon="2.17196">
        <ele>176.06</ele>
        <time>2021-03-06T13:26:59Z</time>
      </trkpt>
      <trkpt lat="48.77903" lon="2.17193">
        <ele>176.06</ele>
        <time>2021-03-06T13:27:08Z</time>
      </trkpt>
      <trkpt lat="48.77892" lon="2.17191">
        <ele>175.58</ele>
        <time>2021-03-06T13:27:17Z</time>
      </trkpt>
      <trkpt lat="48.77887" lon="2.17192">
        <ele>175.58</ele>
        <time>2021-03-06T13:27:20Z</time>
      </trkpt>
      <trkpt lat="48.77885" lon="2.17192">
        <ele>175.58</ele>
        <time>2021-03-06T13:27:21Z</time>
      </trkpt>
      <trkpt lat="48.77884" lon="2.17192">
        <ele>175.58</ele>
        <time>2021-03-06T13:27:22Z</time>
      </trkpt>
      <trkpt lat="48.77881" lon="2.17193">
        <ele>176.06</ele>
        <time>2021-03-06T13:27:24Z</time>
      </trkpt>
      <trkpt lat="48.77878" lon="2.17194">
        <ele>175.58</ele>
        <time>2021-03-06T13:27:26Z</time>
      </trkpt>
      <trkpt lat="48.7787" lon="2.17193">
        <ele>175.58</ele>
        <time>2021-03-06T13:27:34Z</time>
      </trkpt>
      <trkpt lat="48.77868" lon="2.17193">
        <ele>175.58</ele>
        <time>2021-03-06T13:27:35Z</time>
      </trkpt>
      <trkpt lat="48.77862" lon="2.1719">
        <ele>174.62</ele>
        <time>2021-03-06T13:27:38Z</time>
      </trkpt>
      <trkpt lat="48.77853" lon="2.17182">
        <ele>173.66</ele>
        <time>2021-03-06T13:27:50Z</time>
      </trkpt>
      <trkpt lat="48.77846" lon="2.17185">
        <ele>173.17</ele>
        <time>2021-03-06T13:27:53Z</time>
      </trkpt>
      <trkpt lat="48.77838" lon="2.17182">
        <ele>174.14</ele>
        <time>2021-03-06T13:28:00Z</time>
      </trkpt>
      <trkpt lat="48.77821" lon="2.17189">
        <ele>175.1</ele>
        <time>2021-03-06T13:28:13Z</time>
      </trkpt>
      <trkpt lat="48.77818" lon="2.17191">
        <ele>174.62</ele>
        <time>2021-03-06T13:28:16Z</time>
      </trkpt>
      <trkpt lat="48.77813" lon="2.17196">
        <ele>175.1</ele>
        <time>2021-03-06T13:28:20Z</time>
      </trkpt>
      <trkpt lat="48.7781" lon="2.17196">
        <ele>175.1</ele>
        <time>2021-03-06T13:28:23Z</time>
      </trkpt>
      <trkpt lat="48.778" lon="2.17206">
        <ele>175.1</ele>
        <time>2021-03-06T13:28:33Z</time>
      </trkpt>
      <trkpt lat="48.77796" lon="2.1722">
        <ele>175.58</ele>
        <time>2021-03-06T13:28:43Z</time>
      </trkpt>
      <trkpt lat="48.77787" lon="2.17231">
        <ele>175.58</ele>
        <time>2021-03-06T13:28:52Z</time>
      </trkpt>
      <trkpt lat="48.77777" lon="2.17251">
        <ele>176.54</ele>
        <time>2021-03-06T13:29:05Z</time>
      </trkpt>
      <trkpt lat="48.77766" lon="2.17254">
        <ele>176.54</ele>
        <time>2021-03-06T13:29:18Z</time>
      </trkpt>
      <trkpt lat="48.77755" lon="2.17262">
        <ele>177.02</ele>
        <time>2021-03-06T13:29:28Z</time>
      </trkpt>
      <trkpt lat="48.77749" lon="2.17263">
        <ele>177.02</ele>
        <time>2021-03-06T13:29:33Z</time>
      </trkpt>
      <trkpt lat="48.77729" lon="2.17267">
        <ele>177.02</ele>
        <time>2021-03-06T13:29:45Z</time>
      </trkpt>
      <trkpt lat="48.77721" lon="2.17271">
        <ele>176.54</ele>
        <time>2021-03-06T13:29:56Z</time>
      </trkpt>
      <trkpt lat="48.77701" lon="2.17275">
        <ele>176.54</ele>
        <time>2021-03-06T13:30:10Z</time>
      </trkpt>
      <trkpt lat="48.77689" lon="2.17282">
        <ele>177.02</ele>
        <time>2021-03-06T13:30:21Z</time>
      </trkpt>
      <trkpt lat="48.77683" lon="2.17287">
        <ele>177.02</ele>
        <time>2021-03-06T13:30:30Z</time>
      </trkpt>
      <trkpt lat="48.77682" lon="2.17289">
        <ele>177.5</ele>
        <time>2021-03-06T13:30:31Z</time>
      </trkpt>
      <trkpt lat="48.7768" lon="2.17291">
        <ele>177.5</ele>
        <time>2021-03-06T13:30:33Z</time>
      </trkpt>
      <trkpt lat="48.77671" lon="2.17293">
        <ele>177.02</ele>
        <time>2021-03-06T13:30:44Z</time>
      </trkpt>
      <trkpt lat="48.77659" lon="2.17301">
        <ele>177.02</ele>
        <time>2021-03-06T13:30:55Z</time>
      </trkpt>
      <trkpt lat="48.77651" lon="2.17315">
        <ele>177.5</ele>
        <time>2021-03-06T13:31:04Z</time>
      </trkpt>
      <trkpt lat="48.77637" lon="2.17335">
        <ele>176.54</ele>
        <time>2021-03-06T13:31:18Z</time>
      </trkpt>
      <trkpt lat="48.77636" lon="2.1734">
        <ele>176.54</ele>
        <time>2021-03-06T13:31:21Z</time>
      </trkpt>
      <trkpt lat="48.77629" lon="2.17361">
        <ele>176.54</ele>
        <time>2021-03-06T13:31:32Z</time>
      </trkpt>
      <trkpt lat="48.77618" lon="2.17381">
        <ele>176.06</ele>
        <time>2021-03-06T13:31:43Z</time>
      </trkpt>
      <trkpt lat="48.77613" lon="2.17397">
        <ele>174.62</ele>
        <time>2021-03-06T13:31:53Z</time>
      </trkpt>
      <trkpt lat="48.77609" lon="2.17403">
        <ele>172.3</ele>
      </trkpt>
      <trkpt lat="48.77607" lon="2.17411">
        <ele>172.2</ele>
      </trkpt>
      <trkpt lat="48.77604" lon="2.1742">
        <ele>172.2</ele>
      </trkpt>
      <trkpt lat="48.77601" lon="2.17432">
        <ele>172.5</ele>
      </trkpt>
      <trkpt lat="48.77594" lon="2.17438">
        <ele>172.2</ele>
      </trkpt>
      <trkpt lat="48.77585" lon="2.17445">
        <ele>171.9</ele>
      </trkpt>
      <trkpt lat="48.77578" lon="2.17454">
        <ele>171.8</ele>
      </trkpt>
      <trkpt lat="48.77574" lon="2.17459">
        <ele>171.9</ele>
      </trkpt>
      <trkpt lat="48.77569" lon="2.17467">
        <ele>172</ele>
      </trkpt>
      <trkpt lat="48.77564" lon="2.17474">
        <ele>172.1</ele>
      </trkpt>
      <trkpt lat="48.77556" lon="2.17472">
        <ele>171.5</ele>
      </trkpt>
      <trkpt lat="48.77548" lon="2.17478">
        <ele>171.3</ele>
      </trkpt>
      <trkpt lat="48.77538" lon="2.17482">
        <ele>170.9</ele>
      </trkpt>
      <trkpt lat="48.77524" lon="2.17484">
        <ele>170.2</ele>
      </trkpt>
      <trkpt lat="48.77507" lon="2.17491">
        <ele>169.7</ele>
      </trkpt>
      <trkpt lat="48.77492" lon="2.17496">
        <ele>169.4</ele>
      </trkpt>
      <trkpt lat="48.77477" lon="2.17505">
        <ele>168.85</ele>
        <time>2021-03-06T13:34:30Z</time>
      </trkpt>
      <trkpt lat="48.77466" lon="2.17511">
        <ele>172.21</ele>
        <time>2021-03-06T13:34:45Z</time>
      </trkpt>
      <trkpt lat="48.77447" lon="2.17527">
        <ele>173.17</ele>
        <time>2021-03-06T13:34:59Z</time>
      </trkpt>
      <trkpt lat="48.77439" lon="2.17536">
        <ele>172.69</ele>
        <time>2021-03-06T13:35:10Z</time>
      </trkpt>
      <trkpt lat="48.77427" lon="2.1755">
        <ele>173.66</ele>
        <time>2021-03-06T13:35:23Z</time>
      </trkpt>
      <trkpt lat="48.77422" lon="2.17555">
        <ele>174.14</ele>
        <time>2021-03-06T13:35:28Z</time>
      </trkpt>
      <trkpt lat="48.7741" lon="2.17568">
        <ele>174.62</ele>
        <time>2021-03-06T13:35:40Z</time>
      </trkpt>
      <trkpt lat="48.77395" lon="2.17577">
        <ele>174.14</ele>
        <time>2021-03-06T13:35:53Z</time>
      </trkpt>
      <trkpt lat="48.77384" lon="2.17589">
        <ele>176.06</ele>
        <time>2021-03-06T13:36:05Z</time>
      </trkpt>
      <trkpt lat="48.77383" lon="2.1759">
        <ele>175.58</ele>
        <time>2021-03-06T13:36:06Z</time>
      </trkpt>
      <trkpt lat="48.77382" lon="2.17609">
        <ele>176.54</ele>
        <time>2021-03-06T13:36:16Z</time>
      </trkpt>
      <trkpt lat="48.77385" lon="2.17622">
        <ele>177.5</ele>
        <time>2021-03-06T13:36:24Z</time>
      </trkpt>
      <trkpt lat="48.77385" lon="2.17627">
        <ele>177.5</ele>
        <time>2021-03-06T13:36:28Z</time>
      </trkpt>
      <trkpt lat="48.77384" lon="2.17632">
        <ele>176.54</ele>
        <time>2021-03-06T13:36:31Z</time>
      </trkpt>
      <trkpt lat="48.77376" lon="2.17641">
        <ele>176.54</ele>
        <time>2021-03-06T13:36:39Z</time>
      </trkpt>
      <trkpt lat="48.77373" lon="2.17645">
        <ele>176.54</ele>
        <time>2021-03-06T13:36:41Z</time>
      </trkpt>
      <trkpt lat="48.77362" lon="2.17656">
        <ele>176.54</ele>
        <time>2021-03-06T13:36:54Z</time>
      </trkpt>
      <trkpt lat="48.7735" lon="2.17671">
        <ele>176.06</ele>
        <time>2021-03-06T13:37:07Z</time>
      </trkpt>
      <trkpt lat="48.77335" lon="2.17681">
        <ele>176.06</ele>
        <time>2021-03-06T13:37:22Z</time>
      </trkpt>
      <trkpt lat="48.77323" lon="2.17688">
        <ele>176.54</ele>
        <time>2021-03-06T13:37:32Z</time>
      </trkpt>
      <trkpt lat="48.77315" lon="2.17693">
        <ele>176.54</ele>
        <time>2021-03-06T13:37:37Z</time>
      </trkpt>
      <trkpt lat="48.77307" lon="2.17699">
        <ele>176.06</ele>
        <time>2021-03-06T13:37:43Z</time>
      </trkpt>
      <trkpt lat="48.77304" lon="2.17701">
        <ele>176.06</ele>
        <time>2021-03-06T13:37:45Z</time>
      </trkpt>
      <trkpt lat="48.773" lon="2.17701">
        <ele>176.54</ele>
        <time>2021-03-06T13:37:49Z</time>
      </trkpt>
      <trkpt lat="48.77286" lon="2.17705">
        <ele>176.06</ele>
        <time>2021-03-06T13:38:02Z</time>
      </trkpt>
      <trkpt lat="48.77282" lon="2.17709">
        <ele>176.06</ele>
        <time>2021-03-06T13:38:07Z</time>
      </trkpt>
      <trkpt lat="48.77276" lon="2.17715">
        <ele>176.06</ele>
        <time>2021-03-06T13:38:14Z</time>
      </trkpt>
      <trkpt lat="48.77269" lon="2.17726">
        <ele>176.54</ele>
        <time>2021-03-06T13:38:24Z</time>
      </trkpt>
      <trkpt lat="48.7726" lon="2.17745">
        <ele>176.06</ele>
        <time>2021-03-06T13:38:34Z</time>
      </trkpt>
      <trkpt lat="48.77252" lon="2.17761">
        <ele>175.1</ele>
        <time>2021-03-06T13:38:44Z</time>
      </trkpt>
      <trkpt lat="48.7725" lon="2.1777">
        <ele>175.1</ele>
        <time>2021-03-06T13:38:49Z</time>
      </trkpt>
      <trkpt lat="48.7724" lon="2.17779">
        <ele>176.54</ele>
        <time>2021-03-06T13:39:00Z</time>
      </trkpt>
      <trkpt lat="48.7723" lon="2.17786">
        <ele>176.06</ele>
        <time>2021-03-06T13:39:11Z</time>
      </trkpt>
      <trkpt lat="48.77215" lon="2.17792">
        <ele>176.54</ele>
        <time>2021-03-06T13:39:24Z</time>
      </trkpt>
      <trkpt lat="48.77213" lon="2.17794">
        <ele>176.54</ele>
        <time>2021-03-06T13:39:26Z</time>
      </trkpt>
      <trkpt lat="48.77211" lon="2.17798">
        <ele>176.06</ele>
        <time>2021-03-06T13:39:29Z</time>
      </trkpt>
      <trkpt lat="48.77202" lon="2.17805">
        <ele>176.54</ele>
        <time>2021-03-06T13:39:40Z</time>
      </trkpt>
      <trkpt lat="48.77193" lon="2.17813">
        <ele>176.06</ele>
        <time>2021-03-06T13:39:48Z</time>
      </trkpt>
      <trkpt lat="48.77191" lon="2.17817">
        <ele>176.06</ele>
        <time>2021-03-06T13:39:51Z</time>
      </trkpt>
      <trkpt lat="48.77179" lon="2.17835">
        <ele>175.1</ele>
        <time>2021-03-06T13:40:03Z</time>
      </trkpt>
      <trkpt lat="48.77175" lon="2.17843">
        <ele>175.1</ele>
        <time>2021-03-06T13:40:07Z</time>
      </trkpt>
      <trkpt lat="48.77165" lon="2.17858">
        <ele>174.62</ele>
        <time>2021-03-06T13:40:19Z</time>
      </trkpt>
      <trkpt lat="48.77153" lon="2.17877">
        <ele>174.14</ele>
        <time>2021-03-06T13:40:31Z</time>
      </trkpt>
      <trkpt lat="48.77143" lon="2.17892">
        <ele>173.66</ele>
        <time>2021-03-06T13:40:42Z</time>
      </trkpt>
      <trkpt lat="48.77141" lon="2.17897">
        <ele>173.17</ele>
        <time>2021-03-06T13:40:45Z</time>
      </trkpt>
      <trkpt lat="48.77129" lon="2.17912">
        <ele>171.73</ele>
        <time>2021-03-06T13:40:57Z</time>
      </trkpt>
      <trkpt lat="48.77118" lon="2.17931">
        <ele>171.25</ele>
        <time>2021-03-06T13:41:10Z</time>
      </trkpt>
      <trkpt lat="48.77116" lon="2.17963">
        <ele>167.89</ele>
        <time>2021-03-06T13:41:25Z</time>
      </trkpt>
      <trkpt lat="48.77116" lon="2.17982">
        <ele>165</ele>
        <time>2021-03-06T13:41:37Z</time>
      </trkpt>
      <trkpt lat="48.77118" lon="2.17988">
        <ele>163.08</ele>
        <time>2021-03-06T13:41:46Z</time>
      </trkpt>
      <trkpt lat="48.77119" lon="2.17989">
        <ele>163.56</ele>
        <time>2021-03-06T13:41:47Z</time>
      </trkpt>
      <trkpt lat="48.77124" lon="2.17995">
        <ele>163.56</ele>
        <time>2021-03-06T13:41:52Z</time>
      </trkpt>
      <trkpt lat="48.77124" lon="2.17997">
        <ele>163.08</ele>
        <time>2021-03-06T13:41:53Z</time>
      </trkpt>
      <trkpt lat="48.77128" lon="2.18004">
        <ele>163.56</ele>
        <time>2021-03-06T13:41:58Z</time>
      </trkpt>
      <trkpt lat="48.77132" lon="2.18014">
        <ele>163.56</ele>
        <time>2021-03-06T13:42:05Z</time>
      </trkpt>
      <trkpt lat="48.77141" lon="2.18032">
        <ele>163.08</ele>
        <time>2021-03-06T13:42:18Z</time>
      </trkpt>
      <trkpt lat="48.7715" lon="2.18045">
        <ele>164.52</ele>
        <time>2021-03-06T13:42:31Z</time>
      </trkpt>
      <trkpt lat="48.77162" lon="2.18054">
        <ele>165.48</ele>
        <time>2021-03-06T13:42:45Z</time>
      </trkpt>
      <trkpt lat="48.77164" lon="2.18058">
        <ele>165.96</ele>
        <time>2021-03-06T13:42:46Z</time>
      </trkpt>
      <trkpt lat="48.77167" lon="2.18078">
        <ele>165.48</ele>
        <time>2021-03-06T13:42:58Z</time>
      </trkpt>
      <trkpt lat="48.77165" lon="2.18079">
        <ele>165.96</ele>
        <time>2021-03-06T13:42:59Z</time>
      </trkpt>
      <trkpt lat="48.77159" lon="2.18098">
        <ele>165.96</ele>
        <time>2021-03-06T13:43:13Z</time>
      </trkpt>
      <trkpt lat="48.77157" lon="2.18103">
        <ele>165.96</ele>
        <time>2021-03-06T13:43:17Z</time>
      </trkpt>
      <trkpt lat="48.77158" lon="2.1812">
        <ele>165.48</ele>
        <time>2021-03-06T13:43:25Z</time>
      </trkpt>
      <trkpt lat="48.77158" lon="2.18133">
        <ele>165.48</ele>
        <time>2021-03-06T13:43:32Z</time>
      </trkpt>
      <trkpt lat="48.77158" lon="2.1815">
        <ele>165.96</ele>
        <time>2021-03-06T13:43:41Z</time>
      </trkpt>
      <trkpt lat="48.77161" lon="2.18164">
        <ele>165.96</ele>
        <time>2021-03-06T13:43:52Z</time>
      </trkpt>
      <trkpt lat="48.7715" lon="2.18175">
        <ele>166.45</ele>
        <time>2021-03-06T13:44:03Z</time>
      </trkpt>
      <trkpt lat="48.77148" lon="2.18176">
        <ele>166.45</ele>
        <time>2021-03-06T13:44:04Z</time>
      </trkpt>
      <trkpt lat="48.77141" lon="2.18185">
        <ele>167.41</ele>
        <time>2021-03-06T13:44:11Z</time>
      </trkpt>
      <trkpt lat="48.77138" lon="2.1819">
        <ele>167.41</ele>
        <time>2021-03-06T13:44:15Z</time>
      </trkpt>
      <trkpt lat="48.77137" lon="2.18192">
        <ele>167.41</ele>
        <time>2021-03-06T13:44:16Z</time>
      </trkpt>
      <trkpt lat="48.7714" lon="2.18213">
        <ele>168.37</ele>
        <time>2021-03-06T13:44:26Z</time>
      </trkpt>
      <trkpt lat="48.77144" lon="2.18222">
        <ele>169.33</ele>
        <time>2021-03-06T13:44:33Z</time>
      </trkpt>
      <trkpt lat="48.77145" lon="2.18226">
        <ele>170.29</ele>
        <time>2021-03-06T13:44:37Z</time>
      </trkpt>
      <trkpt lat="48.77146" lon="2.18229">
        <ele>171.73</ele>
        <time>2021-03-06T13:44:42Z</time>
      </trkpt>
      <trkpt lat="48.77147" lon="2.1823">
        <ele>172.21</ele>
        <time>2021-03-06T13:44:43Z</time>
      </trkpt>
      <trkpt lat="48.7715" lon="2.18236">
        <ele>173.66</ele>
        <time>2021-03-06T13:44:48Z</time>
      </trkpt>
      <trkpt lat="48.7715" lon="2.18238">
        <ele>174.14</ele>
        <time>2021-03-06T13:44:49Z</time>
      </trkpt>
      <trkpt lat="48.77152" lon="2.18243">
        <ele>174.14</ele>
        <time>2021-03-06T13:44:53Z</time>
      </trkpt>
      <trkpt lat="48.77154" lon="2.18244">
        <ele>174.62</ele>
        <time>2021-03-06T13:44:54Z</time>
      </trkpt>
      <trkpt lat="48.77155" lon="2.18245">
        <ele>174.14</ele>
        <time>2021-03-06T13:44:55Z</time>
      </trkpt>
      <trkpt lat="48.77164" lon="2.18254">
        <ele>174.14</ele>
        <time>2021-03-06T13:45:04Z</time>
      </trkpt>
      <trkpt lat="48.77165" lon="2.18256">
        <ele>174.62</ele>
        <time>2021-03-06T13:45:05Z</time>
      </trkpt>
      <trkpt lat="48.77175" lon="2.18271">
        <ele>175.1</ele>
        <time>2021-03-06T13:45:17Z</time>
      </trkpt>
      <trkpt lat="48.77177" lon="2.18274">
        <ele>174.62</ele>
        <time>2021-03-06T13:45:19Z</time>
      </trkpt>
      <trkpt lat="48.77178" lon="2.18283">
        <ele>175.1</ele>
        <time>2021-03-06T13:45:25Z</time>
      </trkpt>
      <trkpt lat="48.77179" lon="2.18285">
        <ele>175.1</ele>
        <time>2021-03-06T13:45:26Z</time>
      </trkpt>
      <trkpt lat="48.77179" lon="2.18288">
        <ele>175.58</ele>
        <time>2021-03-06T13:45:27Z</time>
      </trkpt>
      <trkpt lat="48.77179" lon="2.1829">
        <ele>175.1</ele>
        <time>2021-03-06T13:45:28Z</time>
      </trkpt>
      <trkpt lat="48.7718" lon="2.18295">
        <ele>175.1</ele>
        <time>2021-03-06T13:45:32Z</time>
      </trkpt>
      <trkpt lat="48.77181" lon="2.18297">
        <ele>175.1</ele>
        <time>2021-03-06T13:45:33Z</time>
      </trkpt>
      <trkpt lat="48.77181" lon="2.18299">
        <ele>175.1</ele>
        <time>2021-03-06T13:45:34Z</time>
      </trkpt>
      <trkpt lat="48.77182" lon="2.18301">
        <ele>175.1</ele>
        <time>2021-03-06T13:45:35Z</time>
      </trkpt>
      <trkpt lat="48.77184" lon="2.18308">
        <ele>175.1</ele>
        <time>2021-03-06T13:45:40Z</time>
      </trkpt>
      <trkpt lat="48.77192" lon="2.18323">
        <ele>175.58</ele>
        <time>2021-03-06T13:45:52Z</time>
      </trkpt>
      <trkpt lat="48.77193" lon="2.18325">
        <ele>175.58</ele>
        <time>2021-03-06T13:45:53Z</time>
      </trkpt>
      <trkpt lat="48.77194" lon="2.18327">
        <ele>176.06</ele>
        <time>2021-03-06T13:45:54Z</time>
      </trkpt>
      <trkpt lat="48.77196" lon="2.18335">
        <ele>176.06</ele>
        <time>2021-03-06T13:45:59Z</time>
      </trkpt>
      <trkpt lat="48.77195" lon="2.18342">
        <ele>175.58</ele>
        <time>2021-03-06T13:46:04Z</time>
      </trkpt>
      <trkpt lat="48.77193" lon="2.18347">
        <ele>176.06</ele>
        <time>2021-03-06T13:46:12Z</time>
      </trkpt>
      <trkpt lat="48.77192" lon="2.18349">
        <ele>176.06</ele>
        <time>2021-03-06T13:46:15Z</time>
      </trkpt>
      <trkpt lat="48.77191" lon="2.18351">
        <ele>176.06</ele>
        <time>2021-03-06T13:46:16Z</time>
      </trkpt>
      <trkpt lat="48.77191" lon="2.18351">
        <ele>175.58</ele>
        <time>2021-03-06T13:46:17Z</time>
      </trkpt>
      <trkpt lat="48.7719" lon="2.18351">
        <ele>176.06</ele>
        <time>2021-03-06T13:46:18Z</time>
      </trkpt>
      <trkpt lat="48.77186" lon="2.18352">
        <ele>174.62</ele>
        <time>2021-03-06T13:46:23Z</time>
      </trkpt>
      <trkpt lat="48.77173" lon="2.18358">
        <ele>174.14</ele>
        <time>2021-03-06T13:46:34Z</time>
      </trkpt>
      <trkpt lat="48.77172" lon="2.18361">
        <ele>174.62</ele>
        <time>2021-03-06T13:46:36Z</time>
      </trkpt>
      <trkpt lat="48.7717" lon="2.18363">
        <ele>174.14</ele>
        <time>2021-03-06T13:46:38Z</time>
      </trkpt>
      <trkpt lat="48.77169" lon="2.18365">
        <ele>174.14</ele>
        <time>2021-03-06T13:46:39Z</time>
      </trkpt>
      <trkpt lat="48.77168" lon="2.18366">
        <ele>174.62</ele>
        <time>2021-03-06T13:46:40Z</time>
      </trkpt>
      <trkpt lat="48.77161" lon="2.18369">
        <ele>173.66</ele>
        <time>2021-03-06T13:46:53Z</time>
      </trkpt>
      <trkpt lat="48.77152" lon="2.18382">
        <ele>174.14</ele>
        <time>2021-03-06T13:47:07Z</time>
      </trkpt>
      <trkpt lat="48.77142" lon="2.18397">
        <ele>174.14</ele>
        <time>2021-03-06T13:47:15Z</time>
      </trkpt>
      <trkpt lat="48.77141" lon="2.18399">
        <ele>174.14</ele>
        <time>2021-03-06T13:47:16Z</time>
      </trkpt>
      <trkpt lat="48.77132" lon="2.18409">
        <ele>174.62</ele>
        <time>2021-03-06T13:47:31Z</time>
      </trkpt>
      <trkpt lat="48.77129" lon="2.18414">
        <ele>175.1</ele>
        <time>2021-03-06T13:47:36Z</time>
      </trkpt>
      <trkpt lat="48.77114" lon="2.18426">
        <ele>175.1</ele>
        <time>2021-03-06T13:47:52Z</time>
      </trkpt>
      <trkpt lat="48.77101" lon="2.18438">
        <ele>175.1</ele>
        <time>2021-03-06T13:48:04Z</time>
      </trkpt>
      <trkpt lat="48.771" lon="2.18439">
        <ele>174.62</ele>
        <time>2021-03-06T13:48:05Z</time>
      </trkpt>
      <trkpt lat="48.77099" lon="2.18441">
        <ele>174.62</ele>
        <time>2021-03-06T13:48:06Z</time>
      </trkpt>
      <trkpt lat="48.77095" lon="2.18452">
        <ele>175.1</ele>
        <time>2021-03-06T13:48:14Z</time>
      </trkpt>
      <trkpt lat="48.77095" lon="2.18454">
        <ele>175.1</ele>
        <time>2021-03-06T13:48:15Z</time>
      </trkpt>
      <trkpt lat="48.77095" lon="2.18456">
        <ele>175.1</ele>
        <time>2021-03-06T13:48:16Z</time>
      </trkpt>
      <trkpt lat="48.77094" lon="2.1846">
        <ele>175.58</ele>
        <time>2021-03-06T13:48:21Z</time>
      </trkpt>
      <trkpt lat="48.77095" lon="2.18462">
        <ele>176.06</ele>
        <time>2021-03-06T13:48:22Z</time>
      </trkpt>
      <trkpt lat="48.77095" lon="2.18463">
        <ele>175.58</ele>
        <time>2021-03-06T13:48:23Z</time>
      </trkpt>
      <trkpt lat="48.77095" lon="2.18465">
        <ele>175.58</ele>
        <time>2021-03-06T13:48:24Z</time>
      </trkpt>
      <trkpt lat="48.77093" lon="2.18483">
        <ele>177.02</ele>
        <time>2021-03-06T13:48:36Z</time>
      </trkpt>
      <trkpt lat="48.77093" lon="2.18486">
        <ele>177.02</ele>
        <time>2021-03-06T13:48:38Z</time>
      </trkpt>
      <trkpt lat="48.77093" lon="2.18489">
        <ele>177.02</ele>
        <time>2021-03-06T13:48:39Z</time>
      </trkpt>
      <trkpt lat="48.77093" lon="2.18492">
        <ele>177.5</ele>
        <time>2021-03-06T13:48:40Z</time>
      </trkpt>
      <trkpt lat="48.77096" lon="2.18526">
        <ele>177.5</ele>
        <time>2021-03-06T13:48:54Z</time>
      </trkpt>
      <trkpt lat="48.77099" lon="2.18552">
        <ele>177.5</ele>
        <time>2021-03-06T13:49:04Z</time>
      </trkpt>
      <trkpt lat="48.771" lon="2.18553">
        <ele>177.5</ele>
        <time>2021-03-06T13:49:05Z</time>
      </trkpt>
      <trkpt lat="48.77102" lon="2.1857">
        <ele>177.98</ele>
        <time>2021-03-06T13:49:16Z</time>
      </trkpt>
      <trkpt lat="48.77103" lon="2.18572">
        <ele>177.5</ele>
        <time>2021-03-06T13:49:17Z</time>
      </trkpt>
      <trkpt lat="48.77103" lon="2.18575">
        <ele>177.5</ele>
        <time>2021-03-06T13:49:19Z</time>
      </trkpt>
      <trkpt lat="48.771" lon="2.18589">
        <ele>177.98</ele>
        <time>2021-03-06T13:49:29Z</time>
      </trkpt>
      <trkpt lat="48.77094" lon="2.18609">
        <ele>177.98</ele>
        <time>2021-03-06T13:49:41Z</time>
      </trkpt>
      <trkpt lat="48.77089" lon="2.1863">
        <ele>177.5</ele>
        <time>2021-03-06T13:49:54Z</time>
      </trkpt>
      <trkpt lat="48.77084" lon="2.18656">
        <ele>177.98</ele>
        <time>2021-03-06T13:50:09Z</time>
      </trkpt>
      <trkpt lat="48.77083" lon="2.18662">
        <ele>177.98</ele>
        <time>2021-03-06T13:50:12Z</time>
      </trkpt>
      <trkpt lat="48.77082" lon="2.18664">
        <ele>177.5</ele>
        <time>2021-03-06T13:50:13Z</time>
      </trkpt>
      <trkpt lat="48.77081" lon="2.18666">
        <ele>177.98</ele>
        <time>2021-03-06T13:50:14Z</time>
      </trkpt>
      <trkpt lat="48.77079" lon="2.18673">
        <ele>177.98</ele>
        <time>2021-03-06T13:50:21Z</time>
      </trkpt>
      <trkpt lat="48.77078" lon="2.18675">
        <ele>178.46</ele>
        <time>2021-03-06T13:50:22Z</time>
      </trkpt>
      <trkpt lat="48.77075" lon="2.18682">
        <ele>177.98</ele>
        <time>2021-03-06T13:50:26Z</time>
      </trkpt>
      <trkpt lat="48.77072" lon="2.18692">
        <ele>178.46</ele>
        <time>2021-03-06T13:50:32Z</time>
      </trkpt>
      <trkpt lat="48.7707" lon="2.18717">
        <ele>177.5</ele>
        <time>2021-03-06T13:50:46Z</time>
      </trkpt>
      <trkpt lat="48.77065" lon="2.18738">
        <ele>177.98</ele>
        <time>2021-03-06T13:50:57Z</time>
      </trkpt>
      <trkpt lat="48.77064" lon="2.18741">
        <ele>177.98</ele>
        <time>2021-03-06T13:51:00Z</time>
      </trkpt>
      <trkpt lat="48.77064" lon="2.18745">
        <ele>177.98</ele>
        <time>2021-03-06T13:51:02Z</time>
      </trkpt>
      <trkpt lat="48.77058" lon="2.18762">
        <ele>178.46</ele>
        <time>2021-03-06T13:51:11Z</time>
      </trkpt>
      <trkpt lat="48.77057" lon="2.1877">
        <ele>178.46</ele>
        <time>2021-03-06T13:51:16Z</time>
      </trkpt>
      <trkpt lat="48.77057" lon="2.18772">
        <ele>177.98</ele>
        <time>2021-03-06T13:51:17Z</time>
      </trkpt>
      <trkpt lat="48.77057" lon="2.18774">
        <ele>178.46</ele>
        <time>2021-03-06T13:51:18Z</time>
      </trkpt>
      <trkpt lat="48.77051" lon="2.18794">
        <ele>178.46</ele>
        <time>2021-03-06T13:51:31Z</time>
      </trkpt>
      <trkpt lat="48.77049" lon="2.18804">
        <ele>177.98</ele>
        <time>2021-03-06T13:51:38Z</time>
      </trkpt>
      <trkpt lat="48.77049" lon="2.18813">
        <ele>178.46</ele>
        <time>2021-03-06T13:51:42Z</time>
      </trkpt>
      <trkpt lat="48.77044" lon="2.18826">
        <ele>178.46</ele>
        <time>2021-03-06T13:51:51Z</time>
      </trkpt>
      <trkpt lat="48.77044" lon="2.18828">
        <ele>178.46</ele>
        <time>2021-03-06T13:51:52Z</time>
      </trkpt>
      <trkpt lat="48.77041" lon="2.18836">
        <ele>178.46</ele>
        <time>2021-03-06T13:51:56Z</time>
      </trkpt>
      <trkpt lat="48.77041" lon="2.18838">
        <ele>178.94</ele>
        <time>2021-03-06T13:51:57Z</time>
      </trkpt>
      <trkpt lat="48.7704" lon="2.1884">
        <ele>178.94</ele>
        <time>2021-03-06T13:51:58Z</time>
      </trkpt>
      <trkpt lat="48.77039" lon="2.18848">
        <ele>178.46</ele>
        <time>2021-03-06T13:52:05Z</time>
      </trkpt>
      <trkpt lat="48.77039" lon="2.18851">
        <ele>178.94</ele>
        <time>2021-03-06T13:52:06Z</time>
      </trkpt>
      <trkpt lat="48.77038" lon="2.18855">
        <ele>178.46</ele>
        <time>2021-03-06T13:52:07Z</time>
      </trkpt>
      <trkpt lat="48.77038" lon="2.18861">
        <ele>177.98</ele>
        <time>2021-03-06T13:52:08Z</time>
      </trkpt>
      <trkpt lat="48.7703" lon="2.18891">
        <ele>178.46</ele>
        <time>2021-03-06T13:52:21Z</time>
      </trkpt>
      <trkpt lat="48.7703" lon="2.18893">
        <ele>178.94</ele>
        <time>2021-03-06T13:52:22Z</time>
      </trkpt>
      <trkpt lat="48.77025" lon="2.18914">
        <ele>178.94</ele>
        <time>2021-03-06T13:52:36Z</time>
      </trkpt>
      <trkpt lat="48.77021" lon="2.18931">
        <ele>178.94</ele>
        <time>2021-03-06T13:52:48Z</time>
      </trkpt>
      <trkpt lat="48.77021" lon="2.18933">
        <ele>179.42</ele>
        <time>2021-03-06T13:52:49Z</time>
      </trkpt>
      <trkpt lat="48.7702" lon="2.18935">
        <ele>178.94</ele>
        <time>2021-03-06T13:52:50Z</time>
      </trkpt>
      <trkpt lat="48.7702" lon="2.18937">
        <ele>178.94</ele>
        <time>2021-03-06T13:52:51Z</time>
      </trkpt>
      <trkpt lat="48.77019" lon="2.18941">
        <ele>178.94</ele>
        <time>2021-03-06T13:52:55Z</time>
      </trkpt>
      <trkpt lat="48.77018" lon="2.18947">
        <ele>179.42</ele>
        <time>2021-03-06T13:52:59Z</time>
      </trkpt>
      <trkpt lat="48.7701" lon="2.18974">
        <ele>178.94</ele>
        <time>2021-03-06T13:53:13Z</time>
      </trkpt>
      <trkpt lat="48.77007" lon="2.18996">
        <ele>179.9</ele>
        <time>2021-03-06T13:53:23Z</time>
      </trkpt>
      <trkpt lat="48.77007" lon="2.18998">
        <ele>179.9</ele>
        <time>2021-03-06T13:53:24Z</time>
      </trkpt>
      <trkpt lat="48.77006" lon="2.19001">
        <ele>178.94</ele>
        <time>2021-03-06T13:53:25Z</time>
      </trkpt>
      <trkpt lat="48.77005" lon="2.19003">
        <ele>178.94</ele>
        <time>2021-03-06T13:53:26Z</time>
      </trkpt>
      <trkpt lat="48.77004" lon="2.19005">
        <ele>178.94</ele>
        <time>2021-03-06T13:53:27Z</time>
      </trkpt>
      <trkpt lat="48.77004" lon="2.19006">
        <ele>178.94</ele>
        <time>2021-03-06T13:53:28Z</time>
      </trkpt>
      <trkpt lat="48.76998" lon="2.19039">
        <ele>178.94</ele>
        <time>2021-03-06T13:53:43Z</time>
      </trkpt>
      <trkpt lat="48.76993" lon="2.19057">
        <ele>178.94</ele>
        <time>2021-03-06T13:53:53Z</time>
      </trkpt>
      <trkpt lat="48.76989" lon="2.19063">
        <ele>178.46</ele>
        <time>2021-03-06T13:53:59Z</time>
      </trkpt>
      <trkpt lat="48.76988" lon="2.19066">
        <ele>178.46</ele>
        <time>2021-03-06T13:54:00Z</time>
      </trkpt>
      <trkpt lat="48.76986" lon="2.19068">
        <ele>178.46</ele>
        <time>2021-03-06T13:54:01Z</time>
      </trkpt>
      <trkpt lat="48.76974" lon="2.19079">
        <ele>178.94</ele>
        <time>2021-03-06T13:54:11Z</time>
      </trkpt>
      <trkpt lat="48.76962" lon="2.19084">
        <ele>177.98</ele>
        <time>2021-03-06T13:54:23Z</time>
      </trkpt>
      <trkpt lat="48.76955" lon="2.19089">
        <ele>177.5</ele>
        <time>2021-03-06T13:54:28Z</time>
      </trkpt>
      <trkpt lat="48.76941" lon="2.19097">
        <ele>177.5</ele>
        <time>2021-03-06T13:54:40Z</time>
      </trkpt>
      <trkpt lat="48.76925" lon="2.19104">
        <ele>177.02</ele>
        <time>2021-03-06T13:54:53Z</time>
      </trkpt>
      <trkpt lat="48.76921" lon="2.19105">
        <ele>177.02</ele>
        <time>2021-03-06T13:54:56Z</time>
      </trkpt>
      <trkpt lat="48.7691" lon="2.19098">
        <ele>175.58</ele>
        <time>2021-03-06T13:55:09Z</time>
      </trkpt>
      <trkpt lat="48.76891" lon="2.19101">
        <ele>176.06</ele>
        <time>2021-03-06T13:55:20Z</time>
      </trkpt>
      <trkpt lat="48.76876" lon="2.19101">
        <ele>175.1</ele>
        <time>2021-03-06T13:55:33Z</time>
      </trkpt>
      <trkpt lat="48.76861" lon="2.19106">
        <ele>175.1</ele>
        <time>2021-03-06T13:55:45Z</time>
      </trkpt>
      <trkpt lat="48.76847" lon="2.1911">
        <ele>175.58</ele>
        <time>2021-03-06T13:55:56Z</time>
      </trkpt>
      <trkpt lat="48.76846" lon="2.19111">
        <ele>175.1</ele>
        <time>2021-03-06T13:55:57Z</time>
      </trkpt>
      <trkpt lat="48.76837" lon="2.19108">
        <ele>175.58</ele>
        <time>2021-03-06T13:56:06Z</time>
      </trkpt>
      <trkpt lat="48.76828" lon="2.19094">
        <ele>174.62</ele>
        <time>2021-03-06T13:56:13Z</time>
      </trkpt>
      <trkpt lat="48.76824" lon="2.19089">
        <ele>174.62</ele>
        <time>2021-03-06T13:56:20Z</time>
      </trkpt>
      <trkpt lat="48.76817" lon="2.19089">
        <ele>174.14</ele>
        <time>2021-03-06T13:56:24Z</time>
      </trkpt>
      <trkpt lat="48.76805" lon="2.19089">
        <ele>174.62</ele>
        <time>2021-03-06T13:56:37Z</time>
      </trkpt>
      <trkpt lat="48.7679" lon="2.19089">
        <ele>175.1</ele>
        <time>2021-03-06T13:56:50Z</time>
      </trkpt>
      <trkpt lat="48.76776" lon="2.19094">
        <ele>175.1</ele>
        <time>2021-03-06T13:57:03Z</time>
      </trkpt>
      <trkpt lat="48.7676" lon="2.19093">
        <ele>174.62</ele>
        <time>2021-03-06T13:57:15Z</time>
      </trkpt>
      <trkpt lat="48.76746" lon="2.19092">
        <ele>175.1</ele>
        <time>2021-03-06T13:57:26Z</time>
      </trkpt>
      <trkpt lat="48.76742" lon="2.19095">
        <ele>174.62</ele>
        <time>2021-03-06T13:57:29Z</time>
      </trkpt>
      <trkpt lat="48.7674" lon="2.19112">
        <ele>175.1</ele>
        <time>2021-03-06T13:57:41Z</time>
      </trkpt>
      <trkpt lat="48.76738" lon="2.19122">
        <ele>175.58</ele>
        <time>2021-03-06T13:57:47Z</time>
      </trkpt>
      <trkpt lat="48.76737" lon="2.1915">
        <ele>176.54</ele>
        <time>2021-03-06T13:57:58Z</time>
      </trkpt>
      <trkpt lat="48.76734" lon="2.19156">
        <ele>176.54</ele>
        <time>2021-03-06T13:58:05Z</time>
      </trkpt>
      <trkpt lat="48.76722" lon="2.19154">
        <ele>176.54</ele>
        <time>2021-03-06T13:58:15Z</time>
      </trkpt>
      <trkpt lat="48.76702" lon="2.19155">
        <ele>176.54</ele>
        <time>2021-03-06T13:58:30Z</time>
      </trkpt>
      <trkpt lat="48.76701" lon="2.19155">
        <ele>176.54</ele>
        <time>2021-03-06T13:58:31Z</time>
      </trkpt>
      <trkpt lat="48.76688" lon="2.19156">
        <ele>176.54</ele>
        <time>2021-03-06T13:58:43Z</time>
      </trkpt>
      <trkpt lat="48.76687" lon="2.19155">
        <ele>177.02</ele>
        <time>2021-03-06T13:58:44Z</time>
      </trkpt>
      <trkpt lat="48.76679" lon="2.19158">
        <ele>177.02</ele>
        <time>2021-03-06T13:58:52Z</time>
      </trkpt>
      <trkpt lat="48.76677" lon="2.19159">
        <ele>176.54</ele>
        <time>2021-03-06T13:58:54Z</time>
      </trkpt>
      <trkpt lat="48.76664" lon="2.1916">
        <ele>176.06</ele>
        <time>2021-03-06T13:59:05Z</time>
      </trkpt>
      <trkpt lat="48.76654" lon="2.19161">
        <ele>177.02</ele>
        <time>2021-03-06T13:59:14Z</time>
      </trkpt>
      <trkpt lat="48.76651" lon="2.19162">
        <ele>176.06</ele>
        <time>2021-03-06T13:59:17Z</time>
      </trkpt>
      <trkpt lat="48.76637" lon="2.19172">
        <ele>176.54</ele>
        <time>2021-03-06T13:59:30Z</time>
      </trkpt>
      <trkpt lat="48.76622" lon="2.19179">
        <ele>175.58</ele>
        <time>2021-03-06T13:59:42Z</time>
      </trkpt>
      <trkpt lat="48.7661" lon="2.19188">
        <ele>175.58</ele>
        <time>2021-03-06T13:59:54Z</time>
      </trkpt>
      <trkpt lat="48.76593" lon="2.19203">
        <ele>176.54</ele>
        <time>2021-03-06T14:00:09Z</time>
      </trkpt>
      <trkpt lat="48.7659" lon="2.19205">
        <ele>175.58</ele>
        <time>2021-03-06T14:00:12Z</time>
      </trkpt>
      <trkpt lat="48.76583" lon="2.19211">
        <ele>175.1</ele>
        <time>2021-03-06T14:00:20Z</time>
      </trkpt>
      <trkpt lat="48.76573" lon="2.19215">
        <ele>174.62</ele>
        <time>2021-03-06T14:00:29Z</time>
      </trkpt>
      <trkpt lat="48.76569" lon="2.19219">
        <ele>174.14</ele>
        <time>2021-03-06T14:00:32Z</time>
      </trkpt>
      <trkpt lat="48.76558" lon="2.19223">
        <ele>173.17</ele>
        <time>2021-03-06T14:00:44Z</time>
      </trkpt>
      <trkpt lat="48.76557" lon="2.1923">
        <ele>172.21</ele>
        <time>2021-03-06T14:00:48Z</time>
      </trkpt>
      <trkpt lat="48.76546" lon="2.19241">
        <ele>170.77</ele>
        <time>2021-03-06T14:00:57Z</time>
      </trkpt>
      <trkpt lat="48.76544" lon="2.19243">
        <ele>170.29</ele>
        <time>2021-03-06T14:00:59Z</time>
      </trkpt>
      <trkpt lat="48.7654" lon="2.19253">
        <ele>167.41</ele>
        <time>2021-03-06T14:01:11Z</time>
      </trkpt>
      <trkpt lat="48.76539" lon="2.19254">
        <ele>166.45</ele>
        <time>2021-03-06T14:01:14Z</time>
      </trkpt>
      <trkpt lat="48.76534" lon="2.19257">
        <ele>166.45</ele>
        <time>2021-03-06T14:01:16Z</time>
      </trkpt>
      <trkpt lat="48.7652" lon="2.19269">
        <ele>164.04</ele>
        <time>2021-03-06T14:01:29Z</time>
      </trkpt>
      <trkpt lat="48.76516" lon="2.19271">
        <ele>162.12</ele>
        <time>2021-03-06T14:01:32Z</time>
      </trkpt>
      <trkpt lat="48.76511" lon="2.19278">
        <ele>162.6</ele>
        <time>2021-03-06T14:01:42Z</time>
      </trkpt>
      <trkpt lat="48.76511" lon="2.19279">
        <ele>162.12</ele>
        <time>2021-03-06T14:01:43Z</time>
      </trkpt>
      <trkpt lat="48.76507" lon="2.19295">
        <ele>163.56</ele>
        <time>2021-03-06T14:01:54Z</time>
      </trkpt>
      <trkpt lat="48.76508" lon="2.19308">
        <ele>165.96</ele>
        <time>2021-03-06T14:02:07Z</time>
      </trkpt>
      <trkpt lat="48.7651" lon="2.19313">
        <ele>165.48</ele>
        <time>2021-03-06T14:02:32Z</time>
      </trkpt>
      <trkpt lat="48.76508" lon="2.19325">
        <ele>165.96</ele>
        <time>2021-03-06T14:03:00Z</time>
      </trkpt>
      <trkpt lat="48.76507" lon="2.19318">
        <ele>165.96</ele>
        <time>2021-03-06T14:03:32Z</time>
      </trkpt>
      <trkpt lat="48.76511" lon="2.19314">
        <ele>165.48</ele>
        <time>2021-03-06T14:04:03Z</time>
      </trkpt>
      <trkpt lat="48.76509" lon="2.19308">
        <ele>165</ele>
        <time>2021-03-06T14:04:26Z</time>
      </trkpt>
      <trkpt lat="48.76503" lon="2.19313">
        <ele>165.96</ele>
        <time>2021-03-06T14:04:54Z</time>
      </trkpt>
      <trkpt lat="48.76508" lon="2.19319">
        <ele>166.45</ele>
        <time>2021-03-06T14:05:09Z</time>
      </trkpt>
      <trkpt lat="48.7651" lon="2.19319">
        <ele>166.93</ele>
        <time>2021-03-06T14:05:19Z</time>
      </trkpt>
      <trkpt lat="48.76508" lon="2.19321">
        <ele>166.45</ele>
        <time>2021-03-06T14:05:31Z</time>
      </trkpt>
      <trkpt lat="48.76506" lon="2.19326">
        <ele>166.93</ele>
        <time>2021-03-06T14:05:45Z</time>
      </trkpt>
      <trkpt lat="48.76505" lon="2.19326">
        <ele>167.41</ele>
        <time>2021-03-06T14:05:52Z</time>
      </trkpt>
      <trkpt lat="48.76505" lon="2.1934">
        <ele>167.41</ele>
        <time>2021-03-06T14:05:59Z</time>
      </trkpt>
      <trkpt lat="48.76505" lon="2.19345">
        <ele>167.41</ele>
        <time>2021-03-06T14:06:01Z</time>
      </trkpt>
      <trkpt lat="48.76505" lon="2.19353">
        <ele>167.41</ele>
        <time>2021-03-06T14:06:07Z</time>
      </trkpt>
      <trkpt lat="48.76505" lon="2.19364">
        <ele>167.41</ele>
        <time>2021-03-06T14:06:13Z</time>
      </trkpt>
      <trkpt lat="48.76511" lon="2.19377">
        <ele>168.37</ele>
        <time>2021-03-06T14:06:23Z</time>
      </trkpt>
      <trkpt lat="48.76512" lon="2.19386">
        <ele>167.41</ele>
        <time>2021-03-06T14:06:28Z</time>
      </trkpt>
      <trkpt lat="48.76516" lon="2.19399">
        <ele>166.93</ele>
        <time>2021-03-06T14:06:36Z</time>
      </trkpt>
      <trkpt lat="48.76517" lon="2.19414">
        <ele>165</ele>
        <time>2021-03-06T14:06:42Z</time>
      </trkpt>
      <trkpt lat="48.76521" lon="2.1943">
        <ele>164.04</ele>
        <time>2021-03-06T14:06:56Z</time>
      </trkpt>
      <trkpt lat="48.76521" lon="2.19446">
        <ele>165.48</ele>
        <time>2021-03-06T14:07:11Z</time>
      </trkpt>
      <trkpt lat="48.76528" lon="2.19464">
        <ele>167.41</ele>
        <time>2021-03-06T14:07:21Z</time>
      </trkpt>
      <trkpt lat="48.76527" lon="2.1947">
        <ele>167.41</ele>
        <time>2021-03-06T14:07:31Z</time>
      </trkpt>
      <trkpt lat="48.76522" lon="2.19475">
        <ele>165.96</ele>
        <time>2021-03-06T14:07:36Z</time>
      </trkpt>
      <trkpt lat="48.76518" lon="2.19489">
        <ele>167.41</ele>
        <time>2021-03-06T14:07:48Z</time>
      </trkpt>
      <trkpt lat="48.76511" lon="2.19505">
        <ele>170.29</ele>
        <time>2021-03-06T14:08:01Z</time>
      </trkpt>
      <trkpt lat="48.76508" lon="2.19513">
        <ele>170.77</ele>
        <time>2021-03-06T14:08:09Z</time>
      </trkpt>
      <trkpt lat="48.765" lon="2.19535">
        <ele>173.66</ele>
        <time>2021-03-06T14:08:24Z</time>
      </trkpt>
      <trkpt lat="48.76499" lon="2.19538">
        <ele>172.21</ele>
        <time>2021-03-06T14:08:26Z</time>
      </trkpt>
      <trkpt lat="48.76495" lon="2.19554">
        <ele>173.17</ele>
        <time>2021-03-06T14:08:41Z</time>
      </trkpt>
      <trkpt lat="48.76488" lon="2.19561">
        <ele>173.17</ele>
        <time>2021-03-06T14:08:50Z</time>
      </trkpt>
      <trkpt lat="48.7648" lon="2.19566">
        <ele>173.66</ele>
        <time>2021-03-06T14:09:02Z</time>
      </trkpt>
      <trkpt lat="48.76473" lon="2.19569">
        <ele>174.14</ele>
        <time>2021-03-06T14:09:09Z</time>
      </trkpt>
      <trkpt lat="48.76461" lon="2.19583">
        <ele>173.66</ele>
        <time>2021-03-06T14:09:23Z</time>
      </trkpt>
      <trkpt lat="48.7646" lon="2.19592">
        <ele>174.14</ele>
        <time>2021-03-06T14:09:38Z</time>
      </trkpt>
      <trkpt lat="48.76459" lon="2.19599">
        <ele>174.14</ele>
        <time>2021-03-06T14:09:59Z</time>
      </trkpt>
      <trkpt lat="48.76455" lon="2.19609">
        <ele>174.62</ele>
        <time>2021-03-06T14:10:20Z</time>
      </trkpt>
      <trkpt lat="48.76448" lon="2.19611">
        <ele>174.14</ele>
        <time>2021-03-06T14:10:32Z</time>
      </trkpt>
      <trkpt lat="48.76448" lon="2.19612">
        <ele>174.62</ele>
        <time>2021-03-06T14:10:46Z</time>
      </trkpt>
      <trkpt lat="48.76449" lon="2.19615">
        <ele>174.62</ele>
        <time>2021-03-06T14:10:48Z</time>
      </trkpt>
      <trkpt lat="48.76456" lon="2.19629">
        <ele>176.06</ele>
        <time>2021-03-06T14:11:03Z</time>
      </trkpt>
      <trkpt lat="48.76457" lon="2.19632">
        <ele>175.58</ele>
        <time>2021-03-06T14:11:06Z</time>
      </trkpt>
      <trkpt lat="48.76457" lon="2.19653">
        <ele>175.1</ele>
        <time>2021-03-06T14:11:18Z</time>
      </trkpt>
      <trkpt lat="48.76458" lon="2.19664">
        <ele>175.58</ele>
        <time>2021-03-06T14:11:25Z</time>
      </trkpt>
      <trkpt lat="48.76458" lon="2.19668">
        <ele>175.58</ele>
        <time>2021-03-06T14:11:27Z</time>
      </trkpt>
      <trkpt lat="48.76461" lon="2.19686">
        <ele>175.58</ele>
        <time>2021-03-06T14:11:41Z</time>
      </trkpt>
      <trkpt lat="48.76465" lon="2.19693">
        <ele>176.06</ele>
        <time>2021-03-06T14:11:52Z</time>
      </trkpt>
      <trkpt lat="48.76467" lon="2.19699">
        <ele>175.58</ele>
        <time>2021-03-06T14:12:01Z</time>
      </trkpt>
      <trkpt lat="48.76468" lon="2.19711">
        <ele>175.1</ele>
        <time>2021-03-06T14:12:08Z</time>
      </trkpt>
      <trkpt lat="48.76465" lon="2.19722">
        <ele>174.62</ele>
        <time>2021-03-06T14:12:20Z</time>
      </trkpt>
      <trkpt lat="48.76467" lon="2.1973">
        <ele>175.1</ele>
        <time>2021-03-06T14:12:26Z</time>
      </trkpt>
      <trkpt lat="48.76469" lon="2.19745">
        <ele>174.14</ele>
        <time>2021-03-06T14:12:34Z</time>
      </trkpt>
      <trkpt lat="48.7647" lon="2.1975">
        <ele>174.14</ele>
        <time>2021-03-06T14:12:36Z</time>
      </trkpt>
      <trkpt lat="48.76471" lon="2.19752">
        <ele>173.66</ele>
        <time>2021-03-06T14:12:37Z</time>
      </trkpt>
      <trkpt lat="48.76472" lon="2.19754">
        <ele>174.14</ele>
        <time>2021-03-06T14:12:38Z</time>
      </trkpt>
      <trkpt lat="48.76477" lon="2.19765">
        <ele>172.21</ele>
        <time>2021-03-06T14:12:48Z</time>
      </trkpt>
      <trkpt lat="48.76477" lon="2.19766">
        <ele>172.21</ele>
        <time>2021-03-06T14:12:51Z</time>
      </trkpt>
      <trkpt lat="48.76477" lon="2.19768">
        <ele>172.21</ele>
        <time>2021-03-06T14:12:52Z</time>
      </trkpt>
      <trkpt lat="48.76477" lon="2.19771">
        <ele>172.21</ele>
        <time>2021-03-06T14:12:54Z</time>
      </trkpt>
      <trkpt lat="48.76478" lon="2.19774">
        <ele>172.21</ele>
        <time>2021-03-06T14:12:55Z</time>
      </trkpt>
      <trkpt lat="48.76481" lon="2.19789">
        <ele>170.29</ele>
        <time>2021-03-06T14:13:07Z</time>
      </trkpt>
      <trkpt lat="48.76483" lon="2.19796">
        <ele>169.81</ele>
        <time>2021-03-06T14:13:11Z</time>
      </trkpt>
      <trkpt lat="48.76485" lon="2.19805">
        <ele>168.85</ele>
        <time>2021-03-06T14:13:15Z</time>
      </trkpt>
      <trkpt lat="48.76487" lon="2.19813">
        <ele>169.33</ele>
        <time>2021-03-06T14:13:18Z</time>
      </trkpt>
      <trkpt lat="48.76487" lon="2.19816">
        <ele>168.37</ele>
        <time>2021-03-06T14:13:19Z</time>
      </trkpt>
      <trkpt lat="48.76487" lon="2.1982">
        <ele>168.37</ele>
        <time>2021-03-06T14:13:21Z</time>
      </trkpt>
      <trkpt lat="48.7649" lon="2.19842">
        <ele>167.89</ele>
        <time>2021-03-06T14:13:35Z</time>
      </trkpt>
      <trkpt lat="48.76496" lon="2.19867">
        <ele>167.41</ele>
        <time>2021-03-06T14:13:48Z</time>
      </trkpt>
      <trkpt lat="48.76499" lon="2.19878">
        <ele>166.93</ele>
        <time>2021-03-06T14:13:53Z</time>
      </trkpt>
      <trkpt lat="48.76499" lon="2.19881">
        <ele>167.41</ele>
        <time>2021-03-06T14:13:54Z</time>
      </trkpt>
      <trkpt lat="48.76499" lon="2.19883">
        <ele>167.41</ele>
        <time>2021-03-06T14:13:55Z</time>
      </trkpt>
      <trkpt lat="48.76498" lon="2.19885">
        <ele>167.41</ele>
        <time>2021-03-06T14:13:56Z</time>
      </trkpt>
      <trkpt lat="48.76494" lon="2.19898">
        <ele>167.41</ele>
        <time>2021-03-06T14:14:07Z</time>
      </trkpt>
      <trkpt lat="48.76487" lon="2.1991">
        <ele>167.41</ele>
        <time>2021-03-06T14:14:18Z</time>
      </trkpt>
      <trkpt lat="48.76475" lon="2.19917">
        <ele>168.37</ele>
        <time>2021-03-06T14:14:31Z</time>
      </trkpt>
      <trkpt lat="48.7646" lon="2.19925">
        <ele>168.85</ele>
        <time>2021-03-06T14:14:44Z</time>
      </trkpt>
      <trkpt lat="48.76446" lon="2.19932">
        <ele>168.37</ele>
        <time>2021-03-06T14:14:58Z</time>
      </trkpt>
      <trkpt lat="48.76444" lon="2.19933">
        <ele>168.85</ele>
        <time>2021-03-06T14:14:59Z</time>
      </trkpt>
      <trkpt lat="48.76431" lon="2.19946">
        <ele>167.89</ele>
        <time>2021-03-06T14:15:11Z</time>
      </trkpt>
      <trkpt lat="48.7642" lon="2.19955">
        <ele>167.41</ele>
        <time>2021-03-06T14:15:21Z</time>
      </trkpt>
      <trkpt lat="48.76417" lon="2.19957">
        <ele>166.93</ele>
        <time>2021-03-06T14:15:25Z</time>
      </trkpt>
      <trkpt lat="48.76415" lon="2.19959">
        <ele>167.41</ele>
        <time>2021-03-06T14:15:26Z</time>
      </trkpt>
      <trkpt lat="48.76413" lon="2.19959">
        <ele>166.93</ele>
        <time>2021-03-06T14:15:27Z</time>
      </trkpt>
      <trkpt lat="48.76408" lon="2.19961">
        <ele>165.96</ele>
        <time>2021-03-06T14:15:33Z</time>
      </trkpt>
      <trkpt lat="48.76397" lon="2.19978">
        <ele>165.96</ele>
        <time>2021-03-06T14:15:46Z</time>
      </trkpt>
      <trkpt lat="48.76391" lon="2.19982">
        <ele>165.48</ele>
        <time>2021-03-06T14:15:53Z</time>
      </trkpt>
      <trkpt lat="48.76389" lon="2.19984">
        <ele>165</ele>
        <time>2021-03-06T14:15:54Z</time>
      </trkpt>
      <trkpt lat="48.76387" lon="2.19984">
        <ele>164.52</ele>
        <time>2021-03-06T14:15:55Z</time>
      </trkpt>
      <trkpt lat="48.76376" lon="2.19987">
        <ele>164.04</ele>
        <time>2021-03-06T14:16:03Z</time>
      </trkpt>
      <trkpt lat="48.76364" lon="2.20004">
        <ele>163.08</ele>
        <time>2021-03-06T14:16:16Z</time>
      </trkpt>
      <trkpt lat="48.76363" lon="2.20005">
        <ele>163.08</ele>
        <time>2021-03-06T14:16:17Z</time>
      </trkpt>
      <trkpt lat="48.76361" lon="2.20006">
        <ele>163.08</ele>
        <time>2021-03-06T14:16:18Z</time>
      </trkpt>
      <trkpt lat="48.7636" lon="2.20008">
        <ele>163.08</ele>
        <time>2021-03-06T14:16:19Z</time>
      </trkpt>
      <trkpt lat="48.7636" lon="2.20009">
        <ele>162.6</ele>
        <time>2021-03-06T14:16:20Z</time>
      </trkpt>
      <trkpt lat="48.76354" lon="2.20013">
        <ele>162.6</ele>
        <time>2021-03-06T14:16:27Z</time>
      </trkpt>
      <trkpt lat="48.76352" lon="2.20014">
        <ele>162.6</ele>
        <time>2021-03-06T14:16:28Z</time>
      </trkpt>
      <trkpt lat="48.76351" lon="2.20015">
        <ele>162.6</ele>
        <time>2021-03-06T14:16:29Z</time>
      </trkpt>
      <trkpt lat="48.7635" lon="2.20016">
        <ele>162.12</ele>
        <time>2021-03-06T14:16:30Z</time>
      </trkpt>
      <trkpt lat="48.76344" lon="2.2002">
        <ele>162.6</ele>
        <time>2021-03-06T14:16:37Z</time>
      </trkpt>
      <trkpt lat="48.76335" lon="2.20032">
        <ele>161.64</ele>
        <time>2021-03-06T14:16:48Z</time>
      </trkpt>
      <trkpt lat="48.76335" lon="2.20038">
        <ele>162.12</ele>
        <time>2021-03-06T14:16:51Z</time>
      </trkpt>
      <trkpt lat="48.76335" lon="2.20049">
        <ele>163.08</ele>
        <time>2021-03-06T14:16:58Z</time>
      </trkpt>
      <trkpt lat="48.76332" lon="2.20064">
        <ele>164.04</ele>
        <time>2021-03-06T14:17:07Z</time>
      </trkpt>
      <trkpt lat="48.76333" lon="2.20081">
        <ele>164.52</ele>
        <time>2021-03-06T14:17:13Z</time>
      </trkpt>
      <trkpt lat="48.76336" lon="2.20103">
        <ele>166.45</ele>
        <time>2021-03-06T14:17:25Z</time>
      </trkpt>
      <trkpt lat="48.76339" lon="2.20126">
        <ele>166.45</ele>
        <time>2021-03-06T14:17:38Z</time>
      </trkpt>
      <trkpt lat="48.7634" lon="2.20137">
        <ele>167.89</ele>
        <time>2021-03-06T14:17:45Z</time>
      </trkpt>
      <trkpt lat="48.76344" lon="2.20158">
        <ele>168.85</ele>
        <time>2021-03-06T14:18:00Z</time>
      </trkpt>
      <trkpt lat="48.76347" lon="2.20169">
        <ele>169.33</ele>
        <time>2021-03-06T14:18:06Z</time>
      </trkpt>
      <trkpt lat="48.7635" lon="2.2019">
        <ele>169.33</ele>
        <time>2021-03-06T14:18:19Z</time>
      </trkpt>
      <trkpt lat="48.76348" lon="2.20195">
        <ele>168.37</ele>
        <time>2021-03-06T14:18:32Z</time>
      </trkpt>
      <trkpt lat="48.76347" lon="2.20196">
        <ele>168.37</ele>
        <time>2021-03-06T14:18:33Z</time>
      </trkpt>
      <trkpt lat="48.7633" lon="2.20202">
        <ele>167.89</ele>
        <time>2021-03-06T14:18:49Z</time>
      </trkpt>
      <trkpt lat="48.76326" lon="2.20203">
        <ele>167.89</ele>
        <time>2021-03-06T14:18:54Z</time>
      </trkpt>
      <trkpt lat="48.7632" lon="2.20217">
        <ele>166.93</ele>
        <time>2021-03-06T14:19:05Z</time>
      </trkpt>
      <trkpt lat="48.76318" lon="2.20224">
        <ele>166.93</ele>
        <time>2021-03-06T14:19:18Z</time>
      </trkpt>
      <trkpt lat="48.76319" lon="2.20229">
        <ele>168.85</ele>
        <time>2021-03-06T14:19:23Z</time>
      </trkpt>
      <trkpt lat="48.76319" lon="2.20242">
        <ele>170.77</ele>
        <time>2021-03-06T14:19:28Z</time>
      </trkpt>
      <trkpt lat="48.7632" lon="2.20251">
        <ele>170.77</ele>
        <time>2021-03-06T14:19:34Z</time>
      </trkpt>
      <trkpt lat="48.76321" lon="2.20254">
        <ele>170.29</ele>
        <time>2021-03-06T14:19:36Z</time>
      </trkpt>
      <trkpt lat="48.7632" lon="2.20263">
        <ele>171.73</ele>
        <time>2021-03-06T14:19:47Z</time>
      </trkpt>
      <trkpt lat="48.76321" lon="2.20263">
        <ele>171.25</ele>
        <time>2021-03-06T14:19:48Z</time>
      </trkpt>
      <trkpt lat="48.76316" lon="2.20268">
        <ele>173.17</ele>
        <time>2021-03-06T14:19:59Z</time>
      </trkpt>
      <trkpt lat="48.76316" lon="2.20271">
        <ele>173.17</ele>
        <time>2021-03-06T14:20:04Z</time>
      </trkpt>
      <trkpt lat="48.76304" lon="2.20282">
        <ele>172.69</ele>
        <time>2021-03-06T14:20:19Z</time>
      </trkpt>
      <trkpt lat="48.76293" lon="2.20284">
        <ele>171.73</ele>
        <time>2021-03-06T14:20:31Z</time>
      </trkpt>
      <trkpt lat="48.76291" lon="2.20283">
        <ele>171.73</ele>
        <time>2021-03-06T14:20:34Z</time>
      </trkpt>
      <trkpt lat="48.76274" lon="2.20285">
        <ele>172.69</ele>
        <time>2021-03-06T14:20:48Z</time>
      </trkpt>
      <trkpt lat="48.76262" lon="2.20291">
        <ele>172.21</ele>
        <time>2021-03-06T14:20:59Z</time>
      </trkpt>
      <trkpt lat="48.76248" lon="2.20296">
        <ele>171.73</ele>
        <time>2021-03-06T14:21:13Z</time>
      </trkpt>
      <trkpt lat="48.76234" lon="2.20296">
        <ele>170.77</ele>
        <time>2021-03-06T14:21:26Z</time>
      </trkpt>
      <trkpt lat="48.76219" lon="2.20299">
        <ele>171.25</ele>
        <time>2021-03-06T14:21:39Z</time>
      </trkpt>
      <trkpt lat="48.76204" lon="2.20304">
        <ele>171.73</ele>
        <time>2021-03-06T14:21:50Z</time>
      </trkpt>
      <trkpt lat="48.76193" lon="2.2031">
        <ele>172.21</ele>
        <time>2021-03-06T14:22:03Z</time>
      </trkpt>
      <trkpt lat="48.76186" lon="2.20312">
        <ele>172.69</ele>
        <time>2021-03-06T14:22:14Z</time>
      </trkpt>
      <trkpt lat="48.76187" lon="2.20308">
        <ele>172.69</ele>
        <time>2021-03-06T14:22:17Z</time>
      </trkpt>
      <trkpt lat="48.76196" lon="2.20285">
        <ele>171.73</ele>
        <time>2021-03-06T14:22:32Z</time>
      </trkpt>
      <trkpt lat="48.76197" lon="2.20267">
        <ele>170.77</ele>
        <time>2021-03-06T14:22:51Z</time>
      </trkpt>
      <trkpt lat="48.76199" lon="2.20265">
        <ele>170.77</ele>
        <time>2021-03-06T14:22:58Z</time>
      </trkpt>
      <trkpt lat="48.76192" lon="2.20246">
        <ele>171.25</ele>
        <time>2021-03-06T14:23:12Z</time>
      </trkpt>
      <trkpt lat="48.76191" lon="2.20245">
        <ele>171.25</ele>
        <time>2021-03-06T14:23:14Z</time>
      </trkpt>
      <trkpt lat="48.76181" lon="2.20233">
        <ele>169.81</ele>
        <time>2021-03-06T14:23:26Z</time>
      </trkpt>
      <trkpt lat="48.7618" lon="2.20231">
        <ele>169.81</ele>
        <time>2021-03-06T14:23:28Z</time>
      </trkpt>
      <trkpt lat="48.76175" lon="2.20225">
        <ele>169.81</ele>
        <time>2021-03-06T14:23:33Z</time>
      </trkpt>
      <trkpt lat="48.76159" lon="2.2021">
        <ele>169.33</ele>
        <time>2021-03-06T14:23:46Z</time>
      </trkpt>
      <trkpt lat="48.76151" lon="2.202">
        <ele>170.77</ele>
        <time>2021-03-06T14:23:57Z</time>
      </trkpt>
      <trkpt lat="48.76138" lon="2.20189">
        <ele>169.81</ele>
        <time>2021-03-06T14:24:12Z</time>
      </trkpt>
      <trkpt lat="48.76116" lon="2.2018">
        <ele>169.33</ele>
        <time>2021-03-06T14:24:26Z</time>
      </trkpt>
      <trkpt lat="48.76099" lon="2.20172">
        <ele>168.85</ele>
        <time>2021-03-06T14:24:38Z</time>
      </trkpt>
      <trkpt lat="48.76088" lon="2.20169">
        <ele>168.85</ele>
        <time>2021-03-06T14:24:48Z</time>
      </trkpt>
      <trkpt lat="48.76069" lon="2.20164">
        <ele>168.37</ele>
        <time>2021-03-06T14:25:03Z</time>
      </trkpt>
      <trkpt lat="48.76055" lon="2.20165">
        <ele>168.85</ele>
        <time>2021-03-06T14:25:15Z</time>
      </trkpt>
      <trkpt lat="48.76041" lon="2.20168">
        <ele>168.37</ele>
        <time>2021-03-06T14:25:27Z</time>
      </trkpt>
      <trkpt lat="48.76024" lon="2.20165">
        <ele>166.93</ele>
        <time>2021-03-06T14:25:40Z</time>
      </trkpt>
      <trkpt lat="48.76017" lon="2.20169">
        <ele>166.93</ele>
        <time>2021-03-06T14:25:48Z</time>
      </trkpt>
      <trkpt lat="48.76007" lon="2.20177">
        <ele>165.96</ele>
        <time>2021-03-06T14:25:58Z</time>
      </trkpt>
      <trkpt lat="48.75996" lon="2.20183">
        <ele>165.48</ele>
        <time>2021-03-06T14:26:10Z</time>
      </trkpt>
      <trkpt lat="48.75994" lon="2.20186">
        <ele>165.48</ele>
        <time>2021-03-06T14:26:12Z</time>
      </trkpt>
      <trkpt lat="48.75988" lon="2.20196">
        <ele>165</ele>
        <time>2021-03-06T14:26:23Z</time>
      </trkpt>
      <trkpt lat="48.75983" lon="2.20214">
        <ele>166.45</ele>
        <time>2021-03-06T14:26:35Z</time>
      </trkpt>
      <trkpt lat="48.75977" lon="2.20217">
        <ele>165.96</ele>
        <time>2021-03-06T14:26:40Z</time>
      </trkpt>
      <trkpt lat="48.75975" lon="2.20219">
        <ele>165.48</ele>
        <time>2021-03-06T14:26:42Z</time>
      </trkpt>
      <trkpt lat="48.75973" lon="2.20228">
        <ele>165</ele>
        <time>2021-03-06T14:26:48Z</time>
      </trkpt>
      <trkpt lat="48.75974" lon="2.20235">
        <ele>165.48</ele>
        <time>2021-03-06T14:26:51Z</time>
      </trkpt>
      <trkpt lat="48.75973" lon="2.20244">
        <ele>165</ele>
        <time>2021-03-06T14:26:55Z</time>
      </trkpt>
      <trkpt lat="48.75971" lon="2.20251">
        <ele>165.48</ele>
        <time>2021-03-06T14:26:59Z</time>
      </trkpt>
      <trkpt lat="48.7597" lon="2.20254">
        <ele>165</ele>
        <time>2021-03-06T14:27:01Z</time>
      </trkpt>
      <trkpt lat="48.75966" lon="2.20267">
        <ele>165</ele>
        <time>2021-03-06T14:27:09Z</time>
      </trkpt>
      <trkpt lat="48.75962" lon="2.20286">
        <ele>165</ele>
        <time>2021-03-06T14:27:21Z</time>
      </trkpt>
      <trkpt lat="48.75962" lon="2.20287">
        <ele>165</ele>
        <time>2021-03-06T14:27:22Z</time>
      </trkpt>
      <trkpt lat="48.75956" lon="2.20306">
        <ele>165</ele>
        <time>2021-03-06T14:27:35Z</time>
      </trkpt>
      <trkpt lat="48.75951" lon="2.20325">
        <ele>165</ele>
        <time>2021-03-06T14:27:53Z</time>
      </trkpt>
      <trkpt lat="48.75953" lon="2.20331">
        <ele>165</ele>
        <time>2021-03-06T14:28:01Z</time>
      </trkpt>
      <trkpt lat="48.75956" lon="2.20346">
        <ele>165.96</ele>
        <time>2021-03-06T14:28:11Z</time>
      </trkpt>
      <trkpt lat="48.75963" lon="2.20368">
        <ele>165.96</ele>
        <time>2021-03-06T14:28:26Z</time>
      </trkpt>
      <trkpt lat="48.75963" lon="2.20381">
        <ele>168.85</ele>
        <time>2021-03-06T14:28:38Z</time>
      </trkpt>
      <trkpt lat="48.7596" lon="2.20401">
        <ele>168.85</ele>
        <time>2021-03-06T14:28:49Z</time>
      </trkpt>
      <trkpt lat="48.75964" lon="2.20425">
        <ele>167.89</ele>
        <time>2021-03-06T14:29:00Z</time>
      </trkpt>
      <trkpt lat="48.75965" lon="2.20428">
        <ele>167.89</ele>
        <time>2021-03-06T14:29:02Z</time>
      </trkpt>
      <trkpt lat="48.75964" lon="2.20438">
        <ele>167.89</ele>
        <time>2021-03-06T14:29:05Z</time>
      </trkpt>
      <trkpt lat="48.75959" lon="2.20453">
        <ele>170.29</ele>
        <time>2021-03-06T14:29:17Z</time>
      </trkpt>
      <trkpt lat="48.75959" lon="2.20473">
        <ele>172.69</ele>
        <time>2021-03-06T14:29:30Z</time>
      </trkpt>
      <trkpt lat="48.7596" lon="2.20477">
        <ele>172.69</ele>
        <time>2021-03-06T14:29:32Z</time>
      </trkpt>
      <trkpt lat="48.7596" lon="2.2048">
        <ele>172.69</ele>
        <time>2021-03-06T14:29:33Z</time>
      </trkpt>
      <trkpt lat="48.75958" lon="2.20492">
        <ele>172.21</ele>
        <time>2021-03-06T14:29:42Z</time>
      </trkpt>
      <trkpt lat="48.75955" lon="2.20499">
        <ele>171.73</ele>
        <time>2021-03-06T14:29:48Z</time>
      </trkpt>
      <trkpt lat="48.75955" lon="2.20501">
        <ele>171.73</ele>
        <time>2021-03-06T14:29:49Z</time>
      </trkpt>
      <trkpt lat="48.75954" lon="2.20503">
        <ele>171.25</ele>
        <time>2021-03-06T14:29:50Z</time>
      </trkpt>
      <trkpt lat="48.75953" lon="2.20505">
        <ele>171.25</ele>
        <time>2021-03-06T14:29:51Z</time>
      </trkpt>
      <trkpt lat="48.75952" lon="2.20506">
        <ele>171.73</ele>
        <time>2021-03-06T14:29:52Z</time>
      </trkpt>
      <trkpt lat="48.75951" lon="2.20508">
        <ele>171.25</ele>
        <time>2021-03-06T14:29:53Z</time>
      </trkpt>
      <trkpt lat="48.7595" lon="2.20509">
        <ele>171.25</ele>
        <time>2021-03-06T14:29:54Z</time>
      </trkpt>
      <trkpt lat="48.75947" lon="2.2052">
        <ele>169.81</ele>
        <time>2021-03-06T14:30:03Z</time>
      </trkpt>
      <trkpt lat="48.75946" lon="2.20523">
        <ele>169.81</ele>
        <time>2021-03-06T14:30:04Z</time>
      </trkpt>
      <trkpt lat="48.75945" lon="2.20526">
        <ele>169.81</ele>
        <time>2021-03-06T14:30:05Z</time>
      </trkpt>
      <trkpt lat="48.75944" lon="2.20528">
        <ele>170.29</ele>
        <time>2021-03-06T14:30:06Z</time>
      </trkpt>
      <trkpt lat="48.75939" lon="2.20538">
        <ele>168.85</ele>
        <time>2021-03-06T14:30:16Z</time>
      </trkpt>
      <trkpt lat="48.75933" lon="2.20559">
        <ele>167.41</ele>
        <time>2021-03-06T14:30:25Z</time>
      </trkpt>
      <trkpt lat="48.75924" lon="2.20575">
        <ele>166.45</ele>
        <time>2021-03-06T14:30:39Z</time>
      </trkpt>
      <trkpt lat="48.75919" lon="2.20596">
        <ele>165</ele>
        <time>2021-03-06T14:30:52Z</time>
      </trkpt>
      <trkpt lat="48.75918" lon="2.20609">
        <ele>165.48</ele>
        <time>2021-03-06T14:31:03Z</time>
      </trkpt>
      <trkpt lat="48.75918" lon="2.20613">
        <ele>165</ele>
        <time>2021-03-06T14:31:12Z</time>
      </trkpt>
      <trkpt lat="48.7591" lon="2.20633">
        <ele>164.52</ele>
        <time>2021-03-06T14:31:25Z</time>
      </trkpt>
      <trkpt lat="48.75907" lon="2.20644">
        <ele>165.48</ele>
        <time>2021-03-06T14:31:35Z</time>
      </trkpt>
      <trkpt lat="48.75906" lon="2.20646">
        <ele>165</ele>
        <time>2021-03-06T14:31:36Z</time>
      </trkpt>
      <trkpt lat="48.75903" lon="2.20662">
        <ele>165</ele>
        <time>2021-03-06T14:31:46Z</time>
      </trkpt>
      <trkpt lat="48.75902" lon="2.20681">
        <ele>164.52</ele>
        <time>2021-03-06T14:31:58Z</time>
      </trkpt>
      <trkpt lat="48.759" lon="2.20692">
        <ele>163.08</ele>
        <time>2021-03-06T14:32:05Z</time>
      </trkpt>
      <trkpt lat="48.75899" lon="2.20694">
        <ele>163.08</ele>
        <time>2021-03-06T14:32:06Z</time>
      </trkpt>
      <trkpt lat="48.75899" lon="2.20696">
        <ele>163.56</ele>
        <time>2021-03-06T14:32:07Z</time>
      </trkpt>
      <trkpt lat="48.75898" lon="2.20699">
        <ele>163.56</ele>
        <time>2021-03-06T14:32:08Z</time>
      </trkpt>
      <trkpt lat="48.75897" lon="2.207">
        <ele>163.08</ele>
        <time>2021-03-06T14:32:09Z</time>
      </trkpt>
      <trkpt lat="48.75896" lon="2.20702">
        <ele>163.08</ele>
        <time>2021-03-06T14:32:10Z</time>
      </trkpt>
      <trkpt lat="48.75895" lon="2.20704">
        <ele>163.08</ele>
        <time>2021-03-06T14:32:11Z</time>
      </trkpt>
      <trkpt lat="48.75894" lon="2.20706">
        <ele>163.08</ele>
        <time>2021-03-06T14:32:12Z</time>
      </trkpt>
      <trkpt lat="48.75887" lon="2.20724">
        <ele>162.12</ele>
        <time>2021-03-06T14:32:23Z</time>
      </trkpt>
      <trkpt lat="48.75887" lon="2.20726">
        <ele>162.12</ele>
        <time>2021-03-06T14:32:24Z</time>
      </trkpt>
      <trkpt lat="48.75886" lon="2.20729">
        <ele>161.64</ele>
        <time>2021-03-06T14:32:25Z</time>
      </trkpt>
      <trkpt lat="48.75886" lon="2.20731">
        <ele>161.64</ele>
        <time>2021-03-06T14:32:26Z</time>
      </trkpt>
      <trkpt lat="48.75885" lon="2.20743">
        <ele>162.12</ele>
        <time>2021-03-06T14:32:31Z</time>
      </trkpt>
      <trkpt lat="48.75885" lon="2.20745">
        <ele>162.6</ele>
        <time>2021-03-06T14:32:32Z</time>
      </trkpt>
      <trkpt lat="48.75885" lon="2.20747">
        <ele>162.12</ele>
        <time>2021-03-06T14:32:33Z</time>
      </trkpt>
      <trkpt lat="48.75885" lon="2.20768">
        <ele>163.08</ele>
        <time>2021-03-06T14:32:45Z</time>
      </trkpt>
      <trkpt lat="48.75886" lon="2.20787">
        <ele>162.6</ele>
        <time>2021-03-06T14:32:58Z</time>
      </trkpt>
      <trkpt lat="48.7588" lon="2.20799">
        <ele>162.12</ele>
        <time>2021-03-06T14:33:10Z</time>
      </trkpt>
      <trkpt lat="48.7588" lon="2.208">
        <ele>161.64</ele>
        <time>2021-03-06T14:33:11Z</time>
      </trkpt>
      <trkpt lat="48.75879" lon="2.20802">
        <ele>161.64</ele>
        <time>2021-03-06T14:33:12Z</time>
      </trkpt>
      <trkpt lat="48.75878" lon="2.20805">
        <ele>162.12</ele>
        <time>2021-03-06T14:33:13Z</time>
      </trkpt>
      <trkpt lat="48.75873" lon="2.20829">
        <ele>162.12</ele>
        <time>2021-03-06T14:33:26Z</time>
      </trkpt>
      <trkpt lat="48.75866" lon="2.20851">
        <ele>161.16</ele>
        <time>2021-03-06T14:33:38Z</time>
      </trkpt>
      <trkpt lat="48.75866" lon="2.20853">
        <ele>161.16</ele>
        <time>2021-03-06T14:33:39Z</time>
      </trkpt>
      <trkpt lat="48.75863" lon="2.20871">
        <ele>160.2</ele>
        <time>2021-03-06T14:33:51Z</time>
      </trkpt>
      <trkpt lat="48.75863" lon="2.20885">
        <ele>160.68</ele>
        <time>2021-03-06T14:34:13Z</time>
      </trkpt>
      <trkpt lat="48.75863" lon="2.20886">
        <ele>160.2</ele>
        <time>2021-03-06T14:34:15Z</time>
      </trkpt>
      <trkpt lat="48.75869" lon="2.20899">
        <ele>160.68</ele>
        <time>2021-03-06T14:34:26Z</time>
      </trkpt>
      <trkpt lat="48.75876" lon="2.20917">
        <ele>160.2</ele>
        <time>2021-03-06T14:34:39Z</time>
      </trkpt>
      <trkpt lat="48.75876" lon="2.20923">
        <ele>161.16</ele>
        <time>2021-03-06T14:34:44Z</time>
      </trkpt>
      <trkpt lat="48.75873" lon="2.20936">
        <ele>161.64</ele>
        <time>2021-03-06T14:34:52Z</time>
      </trkpt>
      <trkpt lat="48.75873" lon="2.20939">
        <ele>162.12</ele>
        <time>2021-03-06T14:34:53Z</time>
      </trkpt>
      <trkpt lat="48.75872" lon="2.20942">
        <ele>162.12</ele>
        <time>2021-03-06T14:34:54Z</time>
      </trkpt>
      <trkpt lat="48.75872" lon="2.20945">
        <ele>161.64</ele>
        <time>2021-03-06T14:34:55Z</time>
      </trkpt>
      <trkpt lat="48.75871" lon="2.20962">
        <ele>160.2</ele>
        <time>2021-03-06T14:35:05Z</time>
      </trkpt>
      <trkpt lat="48.7587" lon="2.20973">
        <ele>159.24</ele>
        <time>2021-03-06T14:35:10Z</time>
      </trkpt>
      <trkpt lat="48.75868" lon="2.20975">
        <ele>159.24</ele>
        <time>2021-03-06T14:35:11Z</time>
      </trkpt>
      <trkpt lat="48.75867" lon="2.20978">
        <ele>158.75</ele>
        <time>2021-03-06T14:35:12Z</time>
      </trkpt>
      <trkpt lat="48.75864" lon="2.20995">
        <ele>158.27</ele>
        <time>2021-03-06T14:35:20Z</time>
      </trkpt>
      <trkpt lat="48.75864" lon="2.20997">
        <ele>158.75</ele>
        <time>2021-03-06T14:35:21Z</time>
      </trkpt>
      <trkpt lat="48.75864" lon="2.20999">
        <ele>157.79</ele>
        <time>2021-03-06T14:35:22Z</time>
      </trkpt>
      <trkpt lat="48.75863" lon="2.21005">
        <ele>157.79</ele>
        <time>2021-03-06T14:35:28Z</time>
      </trkpt>
      <trkpt lat="48.75864" lon="2.21008">
        <ele>158.27</ele>
        <time>2021-03-06T14:35:30Z</time>
      </trkpt>
      <trkpt lat="48.75864" lon="2.2101">
        <ele>157.31</ele>
        <time>2021-03-06T14:35:31Z</time>
      </trkpt>
      <trkpt lat="48.75863" lon="2.21012">
        <ele>157.79</ele>
        <time>2021-03-06T14:35:32Z</time>
      </trkpt>
      <trkpt lat="48.75863" lon="2.21015">
        <ele>157.31</ele>
        <time>2021-03-06T14:35:33Z</time>
      </trkpt>
      <trkpt lat="48.75863" lon="2.21017">
        <ele>157.31</ele>
        <time>2021-03-06T14:35:34Z</time>
      </trkpt>
      <trkpt lat="48.75861" lon="2.21036">
        <ele>157.79</ele>
        <time>2021-03-06T14:35:45Z</time>
      </trkpt>
      <trkpt lat="48.7586" lon="2.21038">
        <ele>157.31</ele>
        <time>2021-03-06T14:35:46Z</time>
      </trkpt>
      <trkpt lat="48.75859" lon="2.2104">
        <ele>157.79</ele>
        <time>2021-03-06T14:35:47Z</time>
      </trkpt>
      <trkpt lat="48.75853" lon="2.2106">
        <ele>157.79</ele>
        <time>2021-03-06T14:36:01Z</time>
      </trkpt>
      <trkpt lat="48.75852" lon="2.2108">
        <ele>157.31</ele>
        <time>2021-03-06T14:36:14Z</time>
      </trkpt>
      <trkpt lat="48.75852" lon="2.21083">
        <ele>156.83</ele>
        <time>2021-03-06T14:36:15Z</time>
      </trkpt>
      <trkpt lat="48.75852" lon="2.21086">
        <ele>157.31</ele>
        <time>2021-03-06T14:36:16Z</time>
      </trkpt>
      <trkpt lat="48.7585" lon="2.21105">
        <ele>157.79</ele>
        <time>2021-03-06T14:36:27Z</time>
      </trkpt>
      <trkpt lat="48.75848" lon="2.21114">
        <ele>157.79</ele>
        <time>2021-03-06T14:36:32Z</time>
      </trkpt>
      <trkpt lat="48.75843" lon="2.21133">
        <ele>158.75</ele>
        <time>2021-03-06T14:36:44Z</time>
      </trkpt>
      <trkpt lat="48.75839" lon="2.21151">
        <ele>156.83</ele>
        <time>2021-03-06T14:36:55Z</time>
      </trkpt>
      <trkpt lat="48.75835" lon="2.21164">
        <ele>156.35</ele>
        <time>2021-03-06T14:37:03Z</time>
      </trkpt>
      <trkpt lat="48.75831" lon="2.21182">
        <ele>157.31</ele>
        <time>2021-03-06T14:37:14Z</time>
      </trkpt>
      <trkpt lat="48.7583" lon="2.21187">
        <ele>157.31</ele>
        <time>2021-03-06T14:37:16Z</time>
      </trkpt>
      <trkpt lat="48.75825" lon="2.21198">
        <ele>157.79</ele>
        <time>2021-03-06T14:37:25Z</time>
      </trkpt>
      <trkpt lat="48.75818" lon="2.21218">
        <ele>158.27</ele>
        <time>2021-03-06T14:37:38Z</time>
      </trkpt>
      <trkpt lat="48.75815" lon="2.2123">
        <ele>159.72</ele>
        <time>2021-03-06T14:37:46Z</time>
      </trkpt>
      <trkpt lat="48.75813" lon="2.21243">
        <ele>158.75</ele>
        <time>2021-03-06T14:37:54Z</time>
      </trkpt>
      <trkpt lat="48.75812" lon="2.21252">
        <ele>158.75</ele>
        <time>2021-03-06T14:38:00Z</time>
      </trkpt>
      <trkpt lat="48.75814" lon="2.21271">
        <ele>160.68</ele>
        <time>2021-03-06T14:38:13Z</time>
      </trkpt>
      <trkpt lat="48.75818" lon="2.21286">
        <ele>163.08</ele>
        <time>2021-03-06T14:38:24Z</time>
      </trkpt>
      <trkpt lat="48.75822" lon="2.21302">
        <ele>164.52</ele>
        <time>2021-03-06T14:38:36Z</time>
      </trkpt>
      <trkpt lat="48.75831" lon="2.21321">
        <ele>165.48</ele>
        <time>2021-03-06T14:38:49Z</time>
      </trkpt>
      <trkpt lat="48.75835" lon="2.21333">
        <ele>166.45</ele>
        <time>2021-03-06T14:39:01Z</time>
      </trkpt>
      <trkpt lat="48.75852" lon="2.21345">
        <ele>166.93</ele>
        <time>2021-03-06T14:39:16Z</time>
      </trkpt>
      <trkpt lat="48.75862" lon="2.21357">
        <ele>165.96</ele>
        <time>2021-03-06T14:39:27Z</time>
      </trkpt>
      <trkpt lat="48.7587" lon="2.21369">
        <ele>166.45</ele>
        <time>2021-03-06T14:39:40Z</time>
      </trkpt>
      <trkpt lat="48.75873" lon="2.21381">
        <ele>165.48</ele>
        <time>2021-03-06T14:39:54Z</time>
      </trkpt>
      <trkpt lat="48.75873" lon="2.2139">
        <ele>164.52</ele>
        <time>2021-03-06T14:40:00Z</time>
      </trkpt>
      <trkpt lat="48.75872" lon="2.21404">
        <ele>164.04</ele>
        <time>2021-03-06T14:40:10Z</time>
      </trkpt>
      <trkpt lat="48.75873" lon="2.21407">
        <ele>165</ele>
        <time>2021-03-06T14:40:12Z</time>
      </trkpt>
      <trkpt lat="48.75873" lon="2.21415">
        <ele>163.08</ele>
        <time>2021-03-06T14:40:16Z</time>
      </trkpt>
      <trkpt lat="48.7587" lon="2.21433">
        <ele>162.12</ele>
        <time>2021-03-06T14:40:28Z</time>
      </trkpt>
      <trkpt lat="48.75869" lon="2.21439">
        <ele>162.12</ele>
        <time>2021-03-06T14:40:32Z</time>
      </trkpt>
      <trkpt lat="48.75868" lon="2.21451">
        <ele>160.68</ele>
        <time>2021-03-06T14:40:40Z</time>
      </trkpt>
      <trkpt lat="48.75867" lon="2.21451">
        <ele>160.68</ele>
        <time>2021-03-06T14:40:41Z</time>
      </trkpt>
      <trkpt lat="48.75863" lon="2.21455">
        <ele>159.24</ele>
        <time>2021-03-06T14:40:54Z</time>
      </trkpt>
      <trkpt lat="48.75865" lon="2.21454">
        <ele>159.24</ele>
        <time>2021-03-06T14:41:18Z</time>
      </trkpt>
      <trkpt lat="48.75859" lon="2.21451">
        <ele>157.79</ele>
        <time>2021-03-06T14:41:36Z</time>
      </trkpt>
      <trkpt lat="48.75848" lon="2.21455">
        <ele>154.91</ele>
        <time>2021-03-06T14:41:49Z</time>
      </trkpt>
      <trkpt lat="48.75847" lon="2.21455">
        <ele>154.43</ele>
        <time>2021-03-06T14:41:50Z</time>
      </trkpt>
      <trkpt lat="48.75844" lon="2.21455">
        <ele>153.47</ele>
        <time>2021-03-06T14:41:53Z</time>
      </trkpt>
      <trkpt lat="48.75831" lon="2.21454">
        <ele>150.1</ele>
        <time>2021-03-06T14:42:04Z</time>
      </trkpt>
      <trkpt lat="48.75831" lon="2.21454">
        <ele>150.1</ele>
        <time>2021-03-06T14:42:05Z</time>
      </trkpt>
      <trkpt lat="48.75827" lon="2.21458">
        <ele>148.18</ele>
        <time>2021-03-06T14:42:17Z</time>
      </trkpt>
      <trkpt lat="48.75818" lon="2.2146">
        <ele>145.78</ele>
        <time>2021-03-06T14:42:25Z</time>
      </trkpt>
      <trkpt lat="48.75815" lon="2.21463">
        <ele>145.3</ele>
        <time>2021-03-06T14:42:38Z</time>
      </trkpt>
      <trkpt lat="48.75811" lon="2.21458">
        <ele>144.82</ele>
        <time>2021-03-06T14:42:45Z</time>
      </trkpt>
      <trkpt lat="48.75796" lon="2.21447">
        <ele>143.37</ele>
        <time>2021-03-06T14:42:59Z</time>
      </trkpt>
      <trkpt lat="48.75784" lon="2.21437">
        <ele>141.93</ele>
        <time>2021-03-06T14:43:13Z</time>
      </trkpt>
      <trkpt lat="48.75769" lon="2.21432">
        <ele>140.49</ele>
        <time>2021-03-06T14:43:26Z</time>
      </trkpt>
      <trkpt lat="48.75754" lon="2.21426">
        <ele>139.05</ele>
        <time>2021-03-06T14:43:38Z</time>
      </trkpt>
      <trkpt lat="48.75741" lon="2.21421">
        <ele>137.13</ele>
        <time>2021-03-06T14:43:52Z</time>
      </trkpt>
      <trkpt lat="48.75739" lon="2.2142">
        <ele>136.64</ele>
        <time>2021-03-06T14:43:58Z</time>
      </trkpt>
      <trkpt lat="48.75739" lon="2.21407">
        <ele>133.76</ele>
        <time>2021-03-06T14:44:07Z</time>
      </trkpt>
      <trkpt lat="48.75737" lon="2.2139">
        <ele>130.88</ele>
        <time>2021-03-06T14:44:21Z</time>
      </trkpt>
      <trkpt lat="48.75729" lon="2.21371">
        <ele>127.99</ele>
        <time>2021-03-06T14:44:37Z</time>
      </trkpt>
      <trkpt lat="48.75718" lon="2.21367">
        <ele>124.63</ele>
        <time>2021-03-06T14:44:53Z</time>
      </trkpt>
      <trkpt lat="48.75718" lon="2.21367">
        <ele>125.59</ele>
        <time>2021-03-06T14:44:54Z</time>
      </trkpt>
      <trkpt lat="48.75715" lon="2.21368">
        <ele>124.63</ele>
        <time>2021-03-06T14:45:07Z</time>
      </trkpt>
      <trkpt lat="48.75716" lon="2.21366">
        <ele>124.63</ele>
        <time>2021-03-06T14:45:24Z</time>
      </trkpt>
      <trkpt lat="48.75708" lon="2.21355">
        <ele>124.15</ele>
        <time>2021-03-06T14:45:32Z</time>
      </trkpt>
      <trkpt lat="48.75704" lon="2.21346">
        <ele>122.22</ele>
        <time>2021-03-06T14:45:45Z</time>
      </trkpt>
      <trkpt lat="48.75704" lon="2.21346">
        <ele>121.74</ele>
        <time>2021-03-06T14:45:46Z</time>
      </trkpt>
      <trkpt lat="48.75695" lon="2.21343">
        <ele>121.26</ele>
        <time>2021-03-06T14:46:00Z</time>
      </trkpt>
      <trkpt lat="48.75693" lon="2.2134">
        <ele>120.3</ele>
        <time>2021-03-06T14:46:03Z</time>
      </trkpt>
      <trkpt lat="48.75681" lon="2.21325">
        <ele>118.38</ele>
        <time>2021-03-06T14:46:16Z</time>
      </trkpt>
      <trkpt lat="48.75677" lon="2.21316">
        <ele>117.42</ele>
        <time>2021-03-06T14:46:28Z</time>
      </trkpt>
      <trkpt lat="48.7568" lon="2.21308">
        <ele>115.01</ele>
        <time>2021-03-06T14:46:33Z</time>
      </trkpt>
      <trkpt lat="48.75683" lon="2.213">
        <ele>114.05</ele>
        <time>2021-03-06T14:46:45Z</time>
      </trkpt>
      <trkpt lat="48.75684" lon="2.21295">
        <ele>113.57</ele>
        <time>2021-03-06T14:46:49Z</time>
      </trkpt>
      <trkpt lat="48.7568" lon="2.21289">
        <ele>113.09</ele>
        <time>2021-03-06T14:46:55Z</time>
      </trkpt>
      <trkpt lat="48.75668" lon="2.2128">
        <ele>109.73</ele>
        <time>2021-03-06T14:47:07Z</time>
      </trkpt>
      <trkpt lat="48.75666" lon="2.21272">
        <ele>109.25</ele>
        <time>2021-03-06T14:47:11Z</time>
      </trkpt>
      <trkpt lat="48.75663" lon="2.21264">
        <ele>108.29</ele>
        <time>2021-03-06T14:47:15Z</time>
      </trkpt>
      <trkpt lat="48.75655" lon="2.2126">
        <ele>107.32</ele>
        <time>2021-03-06T14:47:20Z</time>
      </trkpt>
      <trkpt lat="48.75638" lon="2.21233">
        <ele>104.92</ele>
        <time>2021-03-06T14:47:33Z</time>
      </trkpt>
      <trkpt lat="48.75636" lon="2.21219">
        <ele>103.48</ele>
        <time>2021-03-06T14:47:43Z</time>
      </trkpt>
      <trkpt lat="48.75634" lon="2.2122">
        <ele>102.52</ele>
        <time>2021-03-06T14:47:56Z</time>
      </trkpt>
      <trkpt lat="48.75634" lon="2.21218">
        <ele>103</ele>
        <time>2021-03-06T14:48:07Z</time>
      </trkpt>
      <trkpt lat="48.75636" lon="2.21216">
        <ele>103.48</ele>
        <time>2021-03-06T14:48:18Z</time>
      </trkpt>
      <trkpt lat="48.75636" lon="2.21208">
        <ele>103</ele>
        <time>2021-03-06T14:48:30Z</time>
      </trkpt>
      <trkpt lat="48.75635" lon="2.21195">
        <ele>103</ele>
        <time>2021-03-06T14:48:55Z</time>
      </trkpt>
      <trkpt lat="48.75633" lon="2.21199">
        <ele>102.52</ele>
        <time>2021-03-06T14:49:22Z</time>
      </trkpt>
      <trkpt lat="48.75631" lon="2.212">
        <ele>103</ele>
        <time>2021-03-06T14:49:45Z</time>
      </trkpt>
      <trkpt lat="48.7563" lon="2.21199">
        <ele>103</ele>
        <time>2021-03-06T14:50:02Z</time>
      </trkpt>
      <trkpt lat="48.75629" lon="2.21198">
        <ele>102.52</ele>
        <time>2021-03-06T14:50:18Z</time>
      </trkpt>
      <trkpt lat="48.75629" lon="2.21195">
        <ele>100.6</ele>
        <time>2021-03-06T14:50:22Z</time>
      </trkpt>
      <trkpt lat="48.75639" lon="2.2119">
        <ele>101.08</ele>
        <time>2021-03-06T14:50:36Z</time>
      </trkpt>
      <trkpt lat="48.75639" lon="2.21188">
        <ele>101.08</ele>
        <time>2021-03-06T14:50:38Z</time>
      </trkpt>
      <trkpt lat="48.75654" lon="2.21168">
        <ele>102.52</ele>
        <time>2021-03-06T14:50:55Z</time>
      </trkpt>
      <trkpt lat="48.75657" lon="2.21162">
        <ele>102.04</ele>
        <time>2021-03-06T14:51:00Z</time>
      </trkpt>
      <trkpt lat="48.75665" lon="2.21138">
        <ele>103.48</ele>
        <time>2021-03-06T14:51:14Z</time>
      </trkpt>
      <trkpt lat="48.75669" lon="2.21118">
        <ele>103</ele>
        <time>2021-03-06T14:51:27Z</time>
      </trkpt>
      <trkpt lat="48.75677" lon="2.21095">
        <ele>102.04</ele>
        <time>2021-03-06T14:51:43Z</time>
      </trkpt>
      <trkpt lat="48.75683" lon="2.21074">
        <ele>102.52</ele>
        <time>2021-03-06T14:51:57Z</time>
      </trkpt>
      <trkpt lat="48.75684" lon="2.21066">
        <ele>101.56</ele>
        <time>2021-03-06T14:52:04Z</time>
      </trkpt>
      <trkpt lat="48.75686" lon="2.21033">
        <ele>101.08</ele>
        <time>2021-03-06T14:52:15Z</time>
      </trkpt>
      <trkpt lat="48.75671" lon="2.21011">
        <ele>98.19</ele>
        <time>2021-03-06T14:52:28Z</time>
      </trkpt>
      <trkpt lat="48.7567" lon="2.21009">
        <ele>98.19</ele>
        <time>2021-03-06T14:52:29Z</time>
      </trkpt>
      <trkpt lat="48.75668" lon="2.21002">
        <ele>97.71</ele>
        <time>2021-03-06T14:52:33Z</time>
      </trkpt>
      <trkpt lat="48.75659" lon="2.20991">
        <ele>96.75</ele>
        <time>2021-03-06T14:52:45Z</time>
      </trkpt>
      <trkpt lat="48.75655" lon="2.20987">
        <ele>96.75</ele>
        <time>2021-03-06T14:52:47Z</time>
      </trkpt>
      <trkpt lat="48.75652" lon="2.20986">
        <ele>96.75</ele>
        <time>2021-03-06T14:52:48Z</time>
      </trkpt>
      <trkpt lat="48.75651" lon="2.20984">
        <ele>96.27</ele>
        <time>2021-03-06T14:52:49Z</time>
      </trkpt>
      <trkpt lat="48.75649" lon="2.20982">
        <ele>96.27</ele>
        <time>2021-03-06T14:52:50Z</time>
      </trkpt>
      <trkpt lat="48.75648" lon="2.20981">
        <ele>96.27</ele>
        <time>2021-03-06T14:52:51Z</time>
      </trkpt>
      <trkpt lat="48.75638" lon="2.20973">
        <ele>95.79</ele>
        <time>2021-03-06T14:53:02Z</time>
      </trkpt>
      <trkpt lat="48.75632" lon="2.20973">
        <ele>94.35</ele>
        <time>2021-03-06T14:53:11Z</time>
      </trkpt>
      <trkpt lat="48.7563" lon="2.20971">
        <ele>93.87</ele>
        <time>2021-03-06T14:53:12Z</time>
      </trkpt>
      <trkpt lat="48.75629" lon="2.20974">
        <ele>93.87</ele>
        <time>2021-03-06T14:53:14Z</time>
      </trkpt>
      <trkpt lat="48.7563" lon="2.20976">
        <ele>94.35</ele>
        <time>2021-03-06T14:53:15Z</time>
      </trkpt>
      <trkpt lat="48.75631" lon="2.20978">
        <ele>93.87</ele>
        <time>2021-03-06T14:53:16Z</time>
      </trkpt>
      <trkpt lat="48.75632" lon="2.20979">
        <ele>93.87</ele>
        <time>2021-03-06T14:53:17Z</time>
      </trkpt>
      <trkpt lat="48.75632" lon="2.20982">
        <ele>93.87</ele>
        <time>2021-03-06T14:53:18Z</time>
      </trkpt>
      <trkpt lat="48.75632" lon="2.20984">
        <ele>94.35</ele>
        <time>2021-03-06T14:53:19Z</time>
      </trkpt>
      <trkpt lat="48.7563" lon="2.20989">
        <ele>93.87</ele>
        <time>2021-03-06T14:53:25Z</time>
      </trkpt>
      <trkpt lat="48.7563" lon="2.20991">
        <ele>93.87</ele>
        <time>2021-03-06T14:53:26Z</time>
      </trkpt>
      <trkpt lat="48.75629" lon="2.20994">
        <ele>93.87</ele>
        <time>2021-03-06T14:53:27Z</time>
      </trkpt>
      <trkpt lat="48.75622" lon="2.21004">
        <ele>92.42</ele>
        <time>2021-03-06T14:53:36Z</time>
      </trkpt>
      <trkpt lat="48.75621" lon="2.21006">
        <ele>92.42</ele>
        <time>2021-03-06T14:53:38Z</time>
      </trkpt>
      <trkpt lat="48.7562" lon="2.21008">
        <ele>92.42</ele>
        <time>2021-03-06T14:53:39Z</time>
      </trkpt>
      <trkpt lat="48.75619" lon="2.21011">
        <ele>92.42</ele>
        <time>2021-03-06T14:53:40Z</time>
      </trkpt>
      <trkpt lat="48.75615" lon="2.21019">
        <ele>91.94</ele>
        <time>2021-03-06T14:53:45Z</time>
      </trkpt>
      <trkpt lat="48.75614" lon="2.21019">
        <ele>91.46</ele>
        <time>2021-03-06T14:53:46Z</time>
      </trkpt>
      <trkpt lat="48.75605" lon="2.21018">
        <ele>89.54</ele>
        <time>2021-03-06T14:53:59Z</time>
      </trkpt>
      <trkpt lat="48.75601" lon="2.21013">
        <ele>89.06</ele>
        <time>2021-03-06T14:54:07Z</time>
      </trkpt>
      <trkpt lat="48.75589" lon="2.21003">
        <ele>85.69</ele>
        <time>2021-03-06T14:54:21Z</time>
      </trkpt>
      <trkpt lat="48.75562" lon="2.20988">
        <ele>84.73</ele>
        <time>2021-03-06T14:54:39Z</time>
      </trkpt>
      <trkpt lat="48.75552" lon="2.20979">
        <ele>84.25</ele>
        <time>2021-03-06T14:54:49Z</time>
      </trkpt>
      <trkpt lat="48.7555" lon="2.20977">
        <ele>83.77</ele>
        <time>2021-03-06T14:54:50Z</time>
      </trkpt>
      <trkpt lat="48.75549" lon="2.20976">
        <ele>83.77</ele>
        <time>2021-03-06T14:54:51Z</time>
      </trkpt>
      <trkpt lat="48.75547" lon="2.20975">
        <ele>83.77</ele>
        <time>2021-03-06T14:54:52Z</time>
      </trkpt>
      <trkpt lat="48.75544" lon="2.20973">
        <ele>83.29</ele>
        <time>2021-03-06T14:54:53Z</time>
      </trkpt>
      <trkpt lat="48.75542" lon="2.20971">
        <ele>83.29</ele>
        <time>2021-03-06T14:54:54Z</time>
      </trkpt>
      <trkpt lat="48.75524" lon="2.20959">
        <ele>82.33</ele>
        <time>2021-03-06T14:55:11Z</time>
      </trkpt>
      <trkpt lat="48.75515" lon="2.20958">
        <ele>82.33</ele>
        <time>2021-03-06T14:55:22Z</time>
      </trkpt>
      <trkpt lat="48.75504" lon="2.20966">
        <ele>81.85</ele>
        <time>2021-03-06T14:55:35Z</time>
      </trkpt>
      <trkpt lat="48.75499" lon="2.20985">
        <ele>82.33</ele>
        <time>2021-03-06T14:55:46Z</time>
      </trkpt>
      <trkpt lat="48.75498" lon="2.20989">
        <ele>82.81</ele>
        <time>2021-03-06T14:55:49Z</time>
      </trkpt>
      <trkpt lat="48.75498" lon="2.20991">
        <ele>82.33</ele>
        <time>2021-03-06T14:55:50Z</time>
      </trkpt>
      <trkpt lat="48.75497" lon="2.20993">
        <ele>82.33</ele>
        <time>2021-03-06T14:55:51Z</time>
      </trkpt>
      <trkpt lat="48.75486" lon="2.21012">
        <ele>82.81</ele>
        <time>2021-03-06T14:56:07Z</time>
      </trkpt>
      <trkpt lat="48.75478" lon="2.2103">
        <ele>82.81</ele>
        <time>2021-03-06T14:56:21Z</time>
      </trkpt>
      <trkpt lat="48.75471" lon="2.21049">
        <ele>81.85</ele>
        <time>2021-03-06T14:56:34Z</time>
      </trkpt>
      <trkpt lat="48.75459" lon="2.21047">
        <ele>81.85</ele>
        <time>2021-03-06T14:56:50Z</time>
      </trkpt>
      <trkpt lat="48.75454" lon="2.21038">
        <ele>81.85</ele>
        <time>2021-03-06T14:56:57Z</time>
      </trkpt>
      <trkpt lat="48.75464" lon="2.21016">
        <ele>80.89</ele>
        <time>2021-03-06T14:57:13Z</time>
      </trkpt>
      <trkpt lat="48.75474" lon="2.21">
        <ele>80.89</ele>
        <time>2021-03-06T14:57:27Z</time>
      </trkpt>
      <trkpt lat="48.75478" lon="2.20977">
        <ele>80.89</ele>
        <time>2021-03-06T14:57:40Z</time>
      </trkpt>
      <trkpt lat="48.75488" lon="2.20959">
        <ele>81.85</ele>
        <time>2021-03-06T14:57:54Z</time>
      </trkpt>
      <trkpt lat="48.75497" lon="2.20941">
        <ele>81.37</ele>
        <time>2021-03-06T14:58:07Z</time>
      </trkpt>
      <trkpt lat="48.75497" lon="2.2094">
        <ele>81.37</ele>
        <time>2021-03-06T14:58:08Z</time>
      </trkpt>
      <trkpt lat="48.755" lon="2.2093">
        <ele>81.85</ele>
        <time>2021-03-06T14:58:13Z</time>
      </trkpt>
      <trkpt lat="48.75501" lon="2.20924">
        <ele>81.37</ele>
        <time>2021-03-06T14:58:15Z</time>
      </trkpt>
      <trkpt lat="48.755" lon="2.20921">
        <ele>81.37</ele>
        <time>2021-03-06T14:58:16Z</time>
      </trkpt>
      <trkpt lat="48.75494" lon="2.2091">
        <ele>80.41</ele>
        <time>2021-03-06T14:58:23Z</time>
      </trkpt>
      <trkpt lat="48.7549" lon="2.20903">
        <ele>78.97</ele>
        <time>2021-03-06T14:58:36Z</time>
      </trkpt>
      <trkpt lat="48.75488" lon="2.20898">
        <ele>79.45</ele>
        <time>2021-03-06T14:58:48Z</time>
      </trkpt>
      <trkpt lat="48.75485" lon="2.20896">
        <ele>79.45</ele>
        <time>2021-03-06T14:58:51Z</time>
      </trkpt>
      <trkpt lat="48.75471" lon="2.20879">
        <ele>79.45</ele>
        <time>2021-03-06T14:59:05Z</time>
      </trkpt>
      <trkpt lat="48.7547" lon="2.20873">
        <ele>78.97</ele>
        <time>2021-03-06T14:59:10Z</time>
      </trkpt>
      <trkpt lat="48.75467" lon="2.20871">
        <ele>78.97</ele>
        <time>2021-03-06T14:59:12Z</time>
      </trkpt>
      <trkpt lat="48.75454" lon="2.20852">
        <ele>78.48</ele>
        <time>2021-03-06T14:59:25Z</time>
      </trkpt>
      <trkpt lat="48.75444" lon="2.20839">
        <ele>78.48</ele>
        <time>2021-03-06T14:59:37Z</time>
      </trkpt>
      <trkpt lat="48.7543" lon="2.20818">
        <ele>79.93</ele>
        <time>2021-03-06T14:59:54Z</time>
      </trkpt>
      <trkpt lat="48.7542" lon="2.20805">
        <ele>80.41</ele>
        <time>2021-03-06T15:00:09Z</time>
      </trkpt>
      <trkpt lat="48.7542" lon="2.20803">
        <ele>79.93</ele>
        <time>2021-03-06T15:00:21Z</time>
      </trkpt>
      <trkpt lat="48.75423" lon="2.208">
        <ele>79.45</ele>
        <time>2021-03-06T15:00:33Z</time>
      </trkpt>
      <trkpt lat="48.75428" lon="2.20775">
        <ele>78.97</ele>
        <time>2021-03-06T15:00:48Z</time>
      </trkpt>
      <trkpt lat="48.75429" lon="2.20762">
        <ele>78.97</ele>
        <time>2021-03-06T15:01:02Z</time>
      </trkpt>
      <trkpt lat="48.75433" lon="2.20752">
        <ele>79.45</ele>
        <time>2021-03-06T15:01:16Z</time>
      </trkpt>
      <trkpt lat="48.75441" lon="2.20723">
        <ele>78.97</ele>
        <time>2021-03-06T15:01:31Z</time>
      </trkpt>
      <trkpt lat="48.75444" lon="2.20711">
        <ele>78.97</ele>
        <time>2021-03-06T15:01:39Z</time>
      </trkpt>
      <trkpt lat="48.75448" lon="2.20701">
        <ele>79.93</ele>
        <time>2021-03-06T15:01:43Z</time>
      </trkpt>
      <trkpt lat="48.75454" lon="2.20675">
        <ele>79.45</ele>
        <time>2021-03-06T15:01:59Z</time>
      </trkpt>
      <trkpt lat="48.75458" lon="2.20649">
        <ele>79.93</ele>
        <time>2021-03-06T15:02:14Z</time>
      </trkpt>
      <trkpt lat="48.75464" lon="2.20631">
        <ele>79.45</ele>
        <time>2021-03-06T15:02:26Z</time>
      </trkpt>
      <trkpt lat="48.75464" lon="2.2063">
        <ele>79.93</ele>
        <time>2021-03-06T15:02:27Z</time>
      </trkpt>
      <trkpt lat="48.75467" lon="2.20608">
        <ele>79.45</ele>
        <time>2021-03-06T15:02:40Z</time>
      </trkpt>
      <trkpt lat="48.75465" lon="2.2059">
        <ele>79.45</ele>
        <time>2021-03-06T15:02:54Z</time>
      </trkpt>
      <trkpt lat="48.75469" lon="2.20573">
        <ele>79.93</ele>
        <time>2021-03-06T15:03:07Z</time>
      </trkpt>
      <trkpt lat="48.75472" lon="2.20552">
        <ele>79.93</ele>
        <time>2021-03-06T15:03:21Z</time>
      </trkpt>
      <trkpt lat="48.75474" lon="2.20532">
        <ele>79.93</ele>
        <time>2021-03-06T15:03:33Z</time>
      </trkpt>
      <trkpt lat="48.75474" lon="2.20513">
        <ele>79.93</ele>
        <time>2021-03-06T15:03:46Z</time>
      </trkpt>
      <trkpt lat="48.75475" lon="2.20496">
        <ele>79.93</ele>
        <time>2021-03-06T15:03:58Z</time>
      </trkpt>
      <trkpt lat="48.75479" lon="2.20489">
        <ele>79.45</ele>
        <time>2021-03-06T15:04:10Z</time>
      </trkpt>
      <trkpt lat="48.75478" lon="2.20489">
        <ele>79.93</ele>
        <time>2021-03-06T15:04:29Z</time>
      </trkpt>
      <trkpt lat="48.75479" lon="2.20482">
        <ele>79.93</ele>
        <time>2021-03-06T15:04:45Z</time>
      </trkpt>
      <trkpt lat="48.75478" lon="2.20481">
        <ele>79.93</ele>
        <time>2021-03-06T15:04:46Z</time>
      </trkpt>
      <trkpt lat="48.75477" lon="2.20476">
        <ele>79.93</ele>
        <time>2021-03-06T15:04:50Z</time>
      </trkpt>
      <trkpt lat="48.7548" lon="2.20463">
        <ele>79.93</ele>
        <time>2021-03-06T15:05:02Z</time>
      </trkpt>
      <trkpt lat="48.7548" lon="2.20463">
        <ele>80.41</ele>
        <time>2021-03-06T15:05:03Z</time>
      </trkpt>
      <trkpt lat="48.75481" lon="2.20449">
        <ele>80.41</ele>
        <time>2021-03-06T15:05:12Z</time>
      </trkpt>
      <trkpt lat="48.75483" lon="2.2044">
        <ele>80.41</ele>
        <time>2021-03-06T15:05:15Z</time>
      </trkpt>
      <trkpt lat="48.75485" lon="2.20421">
        <ele>79.93</ele>
        <time>2021-03-06T15:05:27Z</time>
      </trkpt>
      <trkpt lat="48.75484" lon="2.20413">
        <ele>79.45</ele>
        <time>2021-03-06T15:05:40Z</time>
      </trkpt>
      <trkpt lat="48.75484" lon="2.2041">
        <ele>79.45</ele>
        <time>2021-03-06T15:05:55Z</time>
      </trkpt>
      <trkpt lat="48.75486" lon="2.20405">
        <ele>79.93</ele>
        <time>2021-03-06T15:06:04Z</time>
      </trkpt>
      <trkpt lat="48.7549" lon="2.20396">
        <ele>79.45</ele>
        <time>2021-03-06T15:06:14Z</time>
      </trkpt>
      <trkpt lat="48.75493" lon="2.2038">
        <ele>79.45</ele>
        <time>2021-03-06T15:06:25Z</time>
      </trkpt>
      <trkpt lat="48.75493" lon="2.20357">
        <ele>80.41</ele>
        <time>2021-03-06T15:06:38Z</time>
      </trkpt>
      <trkpt lat="48.75496" lon="2.20334">
        <ele>79.93</ele>
        <time>2021-03-06T15:06:49Z</time>
      </trkpt>
      <trkpt lat="48.755" lon="2.20307">
        <ele>79.45</ele>
        <time>2021-03-06T15:07:05Z</time>
      </trkpt>
      <trkpt lat="48.75502" lon="2.20275">
        <ele>79.93</ele>
        <time>2021-03-06T15:07:22Z</time>
      </trkpt>
      <trkpt lat="48.75502" lon="2.20264">
        <ele>79.93</ele>
        <time>2021-03-06T15:07:28Z</time>
      </trkpt>
      <trkpt lat="48.75502" lon="2.20261">
        <ele>79.93</ele>
        <time>2021-03-06T15:07:29Z</time>
      </trkpt>
      <trkpt lat="48.75501" lon="2.20258">
        <ele>79.93</ele>
        <time>2021-03-06T15:07:30Z</time>
      </trkpt>
      <trkpt lat="48.75508" lon="2.2023">
        <ele>80.41</ele>
        <time>2021-03-06T15:07:43Z</time>
      </trkpt>
      <trkpt lat="48.75512" lon="2.20219">
        <ele>79.93</ele>
        <time>2021-03-06T15:07:50Z</time>
      </trkpt>
      <trkpt lat="48.75513" lon="2.20217">
        <ele>80.41</ele>
        <time>2021-03-06T15:07:51Z</time>
      </trkpt>
      <trkpt lat="48.75517" lon="2.20194">
        <ele>79.93</ele>
        <time>2021-03-06T15:08:02Z</time>
      </trkpt>
      <trkpt lat="48.75522" lon="2.20174">
        <ele>79.93</ele>
        <time>2021-03-06T15:08:16Z</time>
      </trkpt>
      <trkpt lat="48.75529" lon="2.20153">
        <ele>79.93</ele>
        <time>2021-03-06T15:08:27Z</time>
      </trkpt>
      <trkpt lat="48.75534" lon="2.20125">
        <ele>79.93</ele>
        <time>2021-03-06T15:08:44Z</time>
      </trkpt>
      <trkpt lat="48.7554" lon="2.20098">
        <ele>80.89</ele>
        <time>2021-03-06T15:08:57Z</time>
      </trkpt>
      <trkpt lat="48.75541" lon="2.20091">
        <ele>80.89</ele>
        <time>2021-03-06T15:09:04Z</time>
      </trkpt>
      <trkpt lat="48.75541" lon="2.20089">
        <ele>80.89</ele>
        <time>2021-03-06T15:09:05Z</time>
      </trkpt>
      <trkpt lat="48.75544" lon="2.20067">
        <ele>81.85</ele>
        <time>2021-03-06T15:09:18Z</time>
      </trkpt>
      <trkpt lat="48.75549" lon="2.20041">
        <ele>82.33</ele>
        <time>2021-03-06T15:09:31Z</time>
      </trkpt>
      <trkpt lat="48.75551" lon="2.20034">
        <ele>82.81</ele>
        <time>2021-03-06T15:09:36Z</time>
      </trkpt>
      <trkpt lat="48.75551" lon="2.20032">
        <ele>82.81</ele>
        <time>2021-03-06T15:09:37Z</time>
      </trkpt>
      <trkpt lat="48.75555" lon="2.20011">
        <ele>82.81</ele>
        <time>2021-03-06T15:09:48Z</time>
      </trkpt>
      <trkpt lat="48.75556" lon="2.19995">
        <ele>82.33</ele>
        <time>2021-03-06T15:09:58Z</time>
      </trkpt>
      <trkpt lat="48.75561" lon="2.19975">
        <ele>83.29</ele>
        <time>2021-03-06T15:10:09Z</time>
      </trkpt>
      <trkpt lat="48.75566" lon="2.19951">
        <ele>84.25</ele>
        <time>2021-03-06T15:10:23Z</time>
      </trkpt>
      <trkpt lat="48.75571" lon="2.19934">
        <ele>83.77</ele>
        <time>2021-03-06T15:10:34Z</time>
      </trkpt>
      <trkpt lat="48.75579" lon="2.19916">
        <ele>82.81</ele>
        <time>2021-03-06T15:10:47Z</time>
      </trkpt>
      <trkpt lat="48.75586" lon="2.19895">
        <ele>83.29</ele>
        <time>2021-03-06T15:11:00Z</time>
      </trkpt>
      <trkpt lat="48.7559" lon="2.19879">
        <ele>83.77</ele>
        <time>2021-03-06T15:11:10Z</time>
      </trkpt>
      <trkpt lat="48.75601" lon="2.1986">
        <ele>83.77</ele>
        <time>2021-03-06T15:11:23Z</time>
      </trkpt>
      <trkpt lat="48.7561" lon="2.19838">
        <ele>84.25</ele>
        <time>2021-03-06T15:11:37Z</time>
      </trkpt>
      <trkpt lat="48.75618" lon="2.19818">
        <ele>85.21</ele>
        <time>2021-03-06T15:11:50Z</time>
      </trkpt>
      <trkpt lat="48.75631" lon="2.19794">
        <ele>85.21</ele>
        <time>2021-03-06T15:12:03Z</time>
      </trkpt>
      <trkpt lat="48.75638" lon="2.19776">
        <ele>84.73</ele>
        <time>2021-03-06T15:12:17Z</time>
      </trkpt>
      <trkpt lat="48.75643" lon="2.19764">
        <ele>85.21</ele>
        <time>2021-03-06T15:12:23Z</time>
      </trkpt>
      <trkpt lat="48.75643" lon="2.19762">
        <ele>84.73</ele>
        <time>2021-03-06T15:12:24Z</time>
      </trkpt>
      <trkpt lat="48.75644" lon="2.19759">
        <ele>85.21</ele>
        <time>2021-03-06T15:12:25Z</time>
      </trkpt>
      <trkpt lat="48.75651" lon="2.19749">
        <ele>85.21</ele>
        <time>2021-03-06T15:12:35Z</time>
      </trkpt>
      <trkpt lat="48.75663" lon="2.19727">
        <ele>86.18</ele>
        <time>2021-03-06T15:12:48Z</time>
      </trkpt>
      <trkpt lat="48.75675" lon="2.19703">
        <ele>86.18</ele>
        <time>2021-03-06T15:13:03Z</time>
      </trkpt>
      <trkpt lat="48.75687" lon="2.19684">
        <ele>87.62</ele>
        <time>2021-03-06T15:13:16Z</time>
      </trkpt>
      <trkpt lat="48.75691" lon="2.19679">
        <ele>86.66</ele>
        <time>2021-03-06T15:13:22Z</time>
      </trkpt>
      <trkpt lat="48.75697" lon="2.19671">
        <ele>86.66</ele>
        <time>2021-03-06T15:13:29Z</time>
      </trkpt>
      <trkpt lat="48.75698" lon="2.19668">
        <ele>85.21</ele>
        <time>2021-03-06T15:13:30Z</time>
      </trkpt>
      <trkpt lat="48.75699" lon="2.19666">
        <ele>85.69</ele>
        <time>2021-03-06T15:13:31Z</time>
      </trkpt>
      <trkpt lat="48.75699" lon="2.19664">
        <ele>85.69</ele>
        <time>2021-03-06T15:13:32Z</time>
      </trkpt>
      <trkpt lat="48.757" lon="2.19662">
        <ele>85.69</ele>
        <time>2021-03-06T15:13:33Z</time>
      </trkpt>
      <trkpt lat="48.75701" lon="2.19659">
        <ele>85.21</ele>
        <time>2021-03-06T15:13:34Z</time>
      </trkpt>
      <trkpt lat="48.75702" lon="2.19657">
        <ele>85.69</ele>
        <time>2021-03-06T15:13:35Z</time>
      </trkpt>
      <trkpt lat="48.75715" lon="2.19637">
        <ele>84.73</ele>
        <time>2021-03-06T15:13:49Z</time>
      </trkpt>
      <trkpt lat="48.75727" lon="2.19617">
        <ele>84.25</ele>
        <time>2021-03-06T15:14:04Z</time>
      </trkpt>
      <trkpt lat="48.7574" lon="2.19594">
        <ele>84.25</ele>
        <time>2021-03-06T15:14:19Z</time>
      </trkpt>
      <trkpt lat="48.75749" lon="2.19581">
        <ele>84.73</ele>
        <time>2021-03-06T15:14:30Z</time>
      </trkpt>
      <trkpt lat="48.75761" lon="2.19558">
        <ele>85.69</ele>
        <time>2021-03-06T15:14:47Z</time>
      </trkpt>
      <trkpt lat="48.75773" lon="2.19539">
        <ele>84.73</ele>
        <time>2021-03-06T15:15:02Z</time>
      </trkpt>
      <trkpt lat="48.75785" lon="2.19515">
        <ele>84.73</ele>
        <time>2021-03-06T15:15:19Z</time>
      </trkpt>
      <trkpt lat="48.75796" lon="2.19497">
        <ele>83.77</ele>
        <time>2021-03-06T15:15:32Z</time>
      </trkpt>
      <trkpt lat="48.75797" lon="2.19496">
        <ele>84.25</ele>
        <time>2021-03-06T15:15:33Z</time>
      </trkpt>
      <trkpt lat="48.75798" lon="2.19494">
        <ele>84.25</ele>
        <time>2021-03-06T15:15:34Z</time>
      </trkpt>
      <trkpt lat="48.75799" lon="2.19492">
        <ele>84.25</ele>
        <time>2021-03-06T15:15:35Z</time>
      </trkpt>
      <trkpt lat="48.758" lon="2.1949">
        <ele>84.25</ele>
        <time>2021-03-06T15:15:36Z</time>
      </trkpt>
      <trkpt lat="48.75802" lon="2.19487">
        <ele>84.73</ele>
        <time>2021-03-06T15:15:37Z</time>
      </trkpt>
      <trkpt lat="48.75812" lon="2.19471">
        <ele>85.21</ele>
        <time>2021-03-06T15:15:52Z</time>
      </trkpt>
      <trkpt lat="48.75813" lon="2.19468">
        <ele>85.21</ele>
        <time>2021-03-06T15:15:54Z</time>
      </trkpt>
      <trkpt lat="48.75814" lon="2.19467">
        <ele>84.73</ele>
        <time>2021-03-06T15:15:55Z</time>
      </trkpt>
      <trkpt lat="48.75815" lon="2.19465">
        <ele>85.21</ele>
        <time>2021-03-06T15:15:56Z</time>
      </trkpt>
      <trkpt lat="48.75816" lon="2.19463">
        <ele>85.21</ele>
        <time>2021-03-06T15:15:57Z</time>
      </trkpt>
      <trkpt lat="48.75817" lon="2.1946">
        <ele>84.73</ele>
        <time>2021-03-06T15:15:58Z</time>
      </trkpt>
      <trkpt lat="48.75818" lon="2.19458">
        <ele>84.73</ele>
        <time>2021-03-06T15:15:59Z</time>
      </trkpt>
      <trkpt lat="48.7582" lon="2.19456">
        <ele>84.73</ele>
        <time>2021-03-06T15:16:00Z</time>
      </trkpt>
      <trkpt lat="48.75834" lon="2.19435">
        <ele>84.25</ele>
        <time>2021-03-06T15:16:16Z</time>
      </trkpt>
      <trkpt lat="48.75843" lon="2.19414">
        <ele>84.25</ele>
        <time>2021-03-06T15:16:26Z</time>
      </trkpt>
      <trkpt lat="48.75843" lon="2.19412">
        <ele>84.73</ele>
        <time>2021-03-06T15:16:27Z</time>
      </trkpt>
      <trkpt lat="48.75844" lon="2.1941">
        <ele>85.21</ele>
        <time>2021-03-06T15:16:28Z</time>
      </trkpt>
      <trkpt lat="48.75846" lon="2.19408">
        <ele>84.73</ele>
        <time>2021-03-06T15:16:29Z</time>
      </trkpt>
      <trkpt lat="48.75847" lon="2.19406">
        <ele>84.73</ele>
        <time>2021-03-06T15:16:30Z</time>
      </trkpt>
      <trkpt lat="48.75848" lon="2.19405">
        <ele>85.21</ele>
        <time>2021-03-06T15:16:31Z</time>
      </trkpt>
      <trkpt lat="48.7585" lon="2.19403">
        <ele>84.73</ele>
        <time>2021-03-06T15:16:32Z</time>
      </trkpt>
      <trkpt lat="48.75858" lon="2.19393">
        <ele>84.73</ele>
        <time>2021-03-06T15:16:44Z</time>
      </trkpt>
      <trkpt lat="48.75869" lon="2.1937">
        <ele>84.73</ele>
        <time>2021-03-06T15:16:59Z</time>
      </trkpt>
      <trkpt lat="48.75877" lon="2.19352">
        <ele>85.21</ele>
        <time>2021-03-06T15:17:10Z</time>
      </trkpt>
      <trkpt lat="48.75881" lon="2.19342">
        <ele>86.18</ele>
        <time>2021-03-06T15:17:24Z</time>
      </trkpt>
      <trkpt lat="48.75884" lon="2.19337">
        <ele>85.69</ele>
        <time>2021-03-06T15:17:36Z</time>
      </trkpt>
      <trkpt lat="48.7589" lon="2.19323">
        <ele>85.69</ele>
        <time>2021-03-06T15:17:47Z</time>
      </trkpt>
      <trkpt lat="48.7589" lon="2.19321">
        <ele>85.69</ele>
        <time>2021-03-06T15:17:48Z</time>
      </trkpt>
      <trkpt lat="48.75893" lon="2.19316">
        <ele>85.21</ele>
        <time>2021-03-06T15:18:00Z</time>
      </trkpt>
      <trkpt lat="48.759" lon="2.19299">
        <ele>85.69</ele>
        <time>2021-03-06T15:18:12Z</time>
      </trkpt>
      <trkpt lat="48.75912" lon="2.19273">
        <ele>85.21</ele>
        <time>2021-03-06T15:18:26Z</time>
      </trkpt>
      <trkpt lat="48.75917" lon="2.19267">
        <ele>85.21</ele>
        <time>2021-03-06T15:18:36Z</time>
      </trkpt>
      <trkpt lat="48.75917" lon="2.19265">
        <ele>84.73</ele>
        <time>2021-03-06T15:18:37Z</time>
      </trkpt>
      <trkpt lat="48.75924" lon="2.19251">
        <ele>85.21</ele>
        <time>2021-03-06T15:18:44Z</time>
      </trkpt>
      <trkpt lat="48.75929" lon="2.19251">
        <ele>84.73</ele>
        <time>2021-03-06T15:18:49Z</time>
      </trkpt>
      <trkpt lat="48.7593" lon="2.1925">
        <ele>84.73</ele>
        <time>2021-03-06T15:18:50Z</time>
      </trkpt>
      <trkpt lat="48.75932" lon="2.19249">
        <ele>85.21</ele>
        <time>2021-03-06T15:18:51Z</time>
      </trkpt>
      <trkpt lat="48.75934" lon="2.19247">
        <ele>84.73</ele>
        <time>2021-03-06T15:18:53Z</time>
      </trkpt>
      <trkpt lat="48.75936" lon="2.19248">
        <ele>84.25</ele>
        <time>2021-03-06T15:18:54Z</time>
      </trkpt>
      <trkpt lat="48.75945" lon="2.19251">
        <ele>83.77</ele>
        <time>2021-03-06T15:19:04Z</time>
      </trkpt>
      <trkpt lat="48.75956" lon="2.19245">
        <ele>82.81</ele>
        <time>2021-03-06T15:19:14Z</time>
      </trkpt>
      <trkpt lat="48.75956" lon="2.19243">
        <ele>82.81</ele>
        <time>2021-03-06T15:19:15Z</time>
      </trkpt>
      <trkpt lat="48.75957" lon="2.1924">
        <ele>82.81</ele>
        <time>2021-03-06T15:19:16Z</time>
      </trkpt>
      <trkpt lat="48.75957" lon="2.19238">
        <ele>83.29</ele>
        <time>2021-03-06T15:19:17Z</time>
      </trkpt>
      <trkpt lat="48.75961" lon="2.19219">
        <ele>82.33</ele>
        <time>2021-03-06T15:19:30Z</time>
      </trkpt>
      <trkpt lat="48.75963" lon="2.19201">
        <ele>82.81</ele>
        <time>2021-03-06T15:19:37Z</time>
      </trkpt>
      <trkpt lat="48.75964" lon="2.19198">
        <ele>82.81</ele>
        <time>2021-03-06T15:19:38Z</time>
      </trkpt>
      <trkpt lat="48.7597" lon="2.19179">
        <ele>83.29</ele>
        <time>2021-03-06T15:19:48Z</time>
      </trkpt>
      <trkpt lat="48.7597" lon="2.19177">
        <ele>83.29</ele>
        <time>2021-03-06T15:19:49Z</time>
      </trkpt>
      <trkpt lat="48.7597" lon="2.19174">
        <ele>82.81</ele>
        <time>2021-03-06T15:19:50Z</time>
      </trkpt>
      <trkpt lat="48.75971" lon="2.19171">
        <ele>83.29</ele>
        <time>2021-03-06T15:19:51Z</time>
      </trkpt>
      <trkpt lat="48.75971" lon="2.19168">
        <ele>83.29</ele>
        <time>2021-03-06T15:19:52Z</time>
      </trkpt>
      <trkpt lat="48.75972" lon="2.19166">
        <ele>83.29</ele>
        <time>2021-03-06T15:19:53Z</time>
      </trkpt>
      <trkpt lat="48.75975" lon="2.19147">
        <ele>83.29</ele>
        <time>2021-03-06T15:20:04Z</time>
      </trkpt>
      <trkpt lat="48.75978" lon="2.19127">
        <ele>83.77</ele>
        <time>2021-03-06T15:20:16Z</time>
      </trkpt>
      <trkpt lat="48.75982" lon="2.19103">
        <ele>84.73</ele>
        <time>2021-03-06T15:20:30Z</time>
      </trkpt>
      <trkpt lat="48.75981" lon="2.19094">
        <ele>85.21</ele>
        <time>2021-03-06T15:20:42Z</time>
      </trkpt>
      <trkpt lat="48.75979" lon="2.19089">
        <ele>84.25</ele>
        <time>2021-03-06T15:20:52Z</time>
      </trkpt>
      <trkpt lat="48.75981" lon="2.19086">
        <ele>84.25</ele>
        <time>2021-03-06T15:21:10Z</time>
      </trkpt>
      <trkpt lat="48.75983" lon="2.19073">
        <ele>84.73</ele>
        <time>2021-03-06T15:21:21Z</time>
      </trkpt>
      <trkpt lat="48.75988" lon="2.19051">
        <ele>84.73</ele>
        <time>2021-03-06T15:21:35Z</time>
      </trkpt>
      <trkpt lat="48.75993" lon="2.19034">
        <ele>85.69</ele>
        <time>2021-03-06T15:21:45Z</time>
      </trkpt>
      <trkpt lat="48.76001" lon="2.19007">
        <ele>85.21</ele>
        <time>2021-03-06T15:22:02Z</time>
      </trkpt>
      <trkpt lat="48.76002" lon="2.19003">
        <ele>85.69</ele>
        <time>2021-03-06T15:22:05Z</time>
      </trkpt>
      <trkpt lat="48.76003" lon="2.19">
        <ele>86.18</ele>
        <time>2021-03-06T15:22:06Z</time>
      </trkpt>
      <trkpt lat="48.76003" lon="2.18998">
        <ele>85.69</ele>
        <time>2021-03-06T15:22:07Z</time>
      </trkpt>
      <trkpt lat="48.76006" lon="2.18987">
        <ele>85.69</ele>
        <time>2021-03-06T15:22:14Z</time>
      </trkpt>
      <trkpt lat="48.76007" lon="2.18984">
        <ele>85.69</ele>
        <time>2021-03-06T15:22:16Z</time>
      </trkpt>
      <trkpt lat="48.76008" lon="2.18981">
        <ele>85.21</ele>
        <time>2021-03-06T15:22:17Z</time>
      </trkpt>
      <trkpt lat="48.76009" lon="2.18979">
        <ele>85.21</ele>
        <time>2021-03-06T15:22:18Z</time>
      </trkpt>
      <trkpt lat="48.76009" lon="2.18977">
        <ele>85.69</ele>
        <time>2021-03-06T15:22:19Z</time>
      </trkpt>
      <trkpt lat="48.7601" lon="2.18975">
        <ele>85.21</ele>
        <time>2021-03-06T15:22:20Z</time>
      </trkpt>
      <trkpt lat="48.76011" lon="2.18974">
        <ele>85.21</ele>
        <time>2021-03-06T15:22:21Z</time>
      </trkpt>
      <trkpt lat="48.76011" lon="2.18972">
        <ele>85.21</ele>
        <time>2021-03-06T15:22:22Z</time>
      </trkpt>
      <trkpt lat="48.76012" lon="2.18971">
        <ele>85.21</ele>
        <time>2021-03-06T15:22:23Z</time>
      </trkpt>
      <trkpt lat="48.76012" lon="2.18969">
        <ele>85.21</ele>
        <time>2021-03-06T15:22:24Z</time>
      </trkpt>
      <trkpt lat="48.76019" lon="2.18949">
        <ele>84.73</ele>
        <time>2021-03-06T15:22:37Z</time>
      </trkpt>
      <trkpt lat="48.76025" lon="2.18929">
        <ele>84.73</ele>
        <time>2021-03-06T15:22:48Z</time>
      </trkpt>
      <trkpt lat="48.76032" lon="2.18907">
        <ele>84.25</ele>
        <time>2021-03-06T15:23:00Z</time>
      </trkpt>
      <trkpt lat="48.76034" lon="2.18899">
        <ele>83.77</ele>
        <time>2021-03-06T15:23:07Z</time>
      </trkpt>
      <trkpt lat="48.76035" lon="2.18897">
        <ele>83.77</ele>
        <time>2021-03-06T15:23:08Z</time>
      </trkpt>
      <trkpt lat="48.76035" lon="2.18894">
        <ele>83.77</ele>
        <time>2021-03-06T15:23:09Z</time>
      </trkpt>
      <trkpt lat="48.76042" lon="2.18871">
        <ele>84.73</ele>
        <time>2021-03-06T15:23:22Z</time>
      </trkpt>
      <trkpt lat="48.76049" lon="2.18849">
        <ele>84.73</ele>
        <time>2021-03-06T15:23:34Z</time>
      </trkpt>
      <trkpt lat="48.76052" lon="2.1884">
        <ele>84.73</ele>
        <time>2021-03-06T15:23:39Z</time>
      </trkpt>
      <trkpt lat="48.76052" lon="2.18839">
        <ele>84.73</ele>
        <time>2021-03-06T15:23:40Z</time>
      </trkpt>
      <trkpt lat="48.76059" lon="2.18815">
        <ele>84.73</ele>
        <time>2021-03-06T15:23:52Z</time>
      </trkpt>
      <trkpt lat="48.76061" lon="2.18811">
        <ele>85.21</ele>
        <time>2021-03-06T15:23:56Z</time>
      </trkpt>
      <trkpt lat="48.76061" lon="2.1881">
        <ele>85.21</ele>
        <time>2021-03-06T15:23:57Z</time>
      </trkpt>
      <trkpt lat="48.76068" lon="2.18786">
        <ele>85.21</ele>
        <time>2021-03-06T15:24:11Z</time>
      </trkpt>
      <trkpt lat="48.76074" lon="2.18769">
        <ele>84.25</ele>
        <time>2021-03-06T15:24:22Z</time>
      </trkpt>
      <trkpt lat="48.76075" lon="2.18767">
        <ele>84.73</ele>
        <time>2021-03-06T15:24:23Z</time>
      </trkpt>
      <trkpt lat="48.76081" lon="2.18745">
        <ele>84.25</ele>
        <time>2021-03-06T15:24:37Z</time>
      </trkpt>
      <trkpt lat="48.76089" lon="2.18723">
        <ele>84.73</ele>
        <time>2021-03-06T15:24:50Z</time>
      </trkpt>
      <trkpt lat="48.76097" lon="2.18695">
        <ele>85.69</ele>
        <time>2021-03-06T15:25:03Z</time>
      </trkpt>
      <trkpt lat="48.76106" lon="2.18663">
        <ele>84.25</ele>
        <time>2021-03-06T15:25:21Z</time>
      </trkpt>
      <trkpt lat="48.76114" lon="2.18638">
        <ele>83.77</ele>
        <time>2021-03-06T15:25:36Z</time>
      </trkpt>
      <trkpt lat="48.76121" lon="2.1861">
        <ele>85.21</ele>
        <time>2021-03-06T15:25:51Z</time>
      </trkpt>
      <trkpt lat="48.76127" lon="2.18586">
        <ele>84.73</ele>
        <time>2021-03-06T15:26:04Z</time>
      </trkpt>
      <trkpt lat="48.76135" lon="2.18561">
        <ele>86.66</ele>
        <time>2021-03-06T15:26:20Z</time>
      </trkpt>
      <trkpt lat="48.7614" lon="2.18541">
        <ele>87.14</ele>
        <time>2021-03-06T15:26:31Z</time>
      </trkpt>
      <trkpt lat="48.76142" lon="2.18538">
        <ele>87.14</ele>
        <time>2021-03-06T15:26:33Z</time>
      </trkpt>
      <trkpt lat="48.76149" lon="2.18516">
        <ele>87.62</ele>
        <time>2021-03-06T15:26:46Z</time>
      </trkpt>
      <trkpt lat="48.76149" lon="2.18515">
        <ele>86.66</ele>
        <time>2021-03-06T15:26:47Z</time>
      </trkpt>
      <trkpt lat="48.7615" lon="2.18513">
        <ele>87.62</ele>
        <time>2021-03-06T15:26:48Z</time>
      </trkpt>
      <trkpt lat="48.7615" lon="2.1851">
        <ele>87.62</ele>
        <time>2021-03-06T15:26:49Z</time>
      </trkpt>
      <trkpt lat="48.7615" lon="2.18507">
        <ele>87.14</ele>
        <time>2021-03-06T15:26:50Z</time>
      </trkpt>
      <trkpt lat="48.76158" lon="2.18485">
        <ele>87.62</ele>
        <time>2021-03-06T15:27:04Z</time>
      </trkpt>
      <trkpt lat="48.76158" lon="2.18482">
        <ele>88.1</ele>
        <time>2021-03-06T15:27:05Z</time>
      </trkpt>
      <trkpt lat="48.76165" lon="2.18454">
        <ele>88.1</ele>
        <time>2021-03-06T15:27:17Z</time>
      </trkpt>
      <trkpt lat="48.7617" lon="2.18441">
        <ele>88.1</ele>
        <time>2021-03-06T15:27:29Z</time>
      </trkpt>
      <trkpt lat="48.76176" lon="2.18418">
        <ele>88.1</ele>
        <time>2021-03-06T15:27:40Z</time>
      </trkpt>
      <trkpt lat="48.76177" lon="2.18415">
        <ele>88.1</ele>
        <time>2021-03-06T15:27:42Z</time>
      </trkpt>
      <trkpt lat="48.76177" lon="2.18412">
        <ele>88.1</ele>
        <time>2021-03-06T15:27:43Z</time>
      </trkpt>
      <trkpt lat="48.76178" lon="2.1841">
        <ele>88.1</ele>
        <time>2021-03-06T15:27:44Z</time>
      </trkpt>
      <trkpt lat="48.76178" lon="2.18408">
        <ele>88.58</ele>
        <time>2021-03-06T15:27:45Z</time>
      </trkpt>
      <trkpt lat="48.76179" lon="2.18405">
        <ele>88.1</ele>
        <time>2021-03-06T15:27:46Z</time>
      </trkpt>
      <trkpt lat="48.7618" lon="2.18402">
        <ele>88.1</ele>
        <time>2021-03-06T15:27:47Z</time>
      </trkpt>
      <trkpt lat="48.76181" lon="2.184">
        <ele>88.1</ele>
        <time>2021-03-06T15:27:48Z</time>
      </trkpt>
      <trkpt lat="48.76187" lon="2.18381">
        <ele>89.06</ele>
        <time>2021-03-06T15:28:00Z</time>
      </trkpt>
      <trkpt lat="48.76193" lon="2.18359">
        <ele>88.58</ele>
        <time>2021-03-06T15:28:11Z</time>
      </trkpt>
      <trkpt lat="48.762" lon="2.18337">
        <ele>88.58</ele>
        <time>2021-03-06T15:28:23Z</time>
      </trkpt>
      <trkpt lat="48.76209" lon="2.18308">
        <ele>89.06</ele>
        <time>2021-03-06T15:28:39Z</time>
      </trkpt>
      <trkpt lat="48.76214" lon="2.18298">
        <ele>89.06</ele>
        <time>2021-03-06T15:28:47Z</time>
      </trkpt>
      <trkpt lat="48.76215" lon="2.18291">
        <ele>88.58</ele>
        <time>2021-03-06T15:28:51Z</time>
      </trkpt>
      <trkpt lat="48.76216" lon="2.18289">
        <ele>89.06</ele>
        <time>2021-03-06T15:28:52Z</time>
      </trkpt>
      <trkpt lat="48.76216" lon="2.18287">
        <ele>89.06</ele>
        <time>2021-03-06T15:28:53Z</time>
      </trkpt>
      <trkpt lat="48.76219" lon="2.18276">
        <ele>89.54</ele>
        <time>2021-03-06T15:28:58Z</time>
      </trkpt>
      <trkpt lat="48.7622" lon="2.18275">
        <ele>89.06</ele>
        <time>2021-03-06T15:28:59Z</time>
      </trkpt>
      <trkpt lat="48.76227" lon="2.18254">
        <ele>89.54</ele>
        <time>2021-03-06T15:29:12Z</time>
      </trkpt>
      <trkpt lat="48.7623" lon="2.18232">
        <ele>89.06</ele>
        <time>2021-03-06T15:29:23Z</time>
      </trkpt>
      <trkpt lat="48.76231" lon="2.18229">
        <ele>89.06</ele>
        <time>2021-03-06T15:29:25Z</time>
      </trkpt>
      <trkpt lat="48.76232" lon="2.18227">
        <ele>89.06</ele>
        <time>2021-03-06T15:29:26Z</time>
      </trkpt>
      <trkpt lat="48.76232" lon="2.18226">
        <ele>89.54</ele>
        <time>2021-03-06T15:29:27Z</time>
      </trkpt>
      <trkpt lat="48.76232" lon="2.18224">
        <ele>89.06</ele>
        <time>2021-03-06T15:29:28Z</time>
      </trkpt>
      <trkpt lat="48.76233" lon="2.18222">
        <ele>89.54</ele>
        <time>2021-03-06T15:29:29Z</time>
      </trkpt>
      <trkpt lat="48.76233" lon="2.1822">
        <ele>89.54</ele>
        <time>2021-03-06T15:29:30Z</time>
      </trkpt>
      <trkpt lat="48.76239" lon="2.18193">
        <ele>89.54</ele>
        <time>2021-03-06T15:29:44Z</time>
      </trkpt>
      <trkpt lat="48.76243" lon="2.18176">
        <ele>90.02</ele>
        <time>2021-03-06T15:29:58Z</time>
      </trkpt>
      <trkpt lat="48.76244" lon="2.18173">
        <ele>90.02</ele>
        <time>2021-03-06T15:30:01Z</time>
      </trkpt>
      <trkpt lat="48.76244" lon="2.18171">
        <ele>90.02</ele>
        <time>2021-03-06T15:30:02Z</time>
      </trkpt>
      <trkpt lat="48.76245" lon="2.18165">
        <ele>89.54</ele>
        <time>2021-03-06T15:30:10Z</time>
      </trkpt>
      <trkpt lat="48.76245" lon="2.18162">
        <ele>90.02</ele>
        <time>2021-03-06T15:30:11Z</time>
      </trkpt>
      <trkpt lat="48.76246" lon="2.1816">
        <ele>90.02</ele>
        <time>2021-03-06T15:30:12Z</time>
      </trkpt>
      <trkpt lat="48.76251" lon="2.18135">
        <ele>90.02</ele>
        <time>2021-03-06T15:30:26Z</time>
      </trkpt>
      <trkpt lat="48.76254" lon="2.18115">
        <ele>90.5</ele>
        <time>2021-03-06T15:30:37Z</time>
      </trkpt>
      <trkpt lat="48.76255" lon="2.1811">
        <ele>90.02</ele>
        <time>2021-03-06T15:30:41Z</time>
      </trkpt>
      <trkpt lat="48.76256" lon="2.18107">
        <ele>90.02</ele>
        <time>2021-03-06T15:30:42Z</time>
      </trkpt>
      <trkpt lat="48.76257" lon="2.18104">
        <ele>90.02</ele>
        <time>2021-03-06T15:30:43Z</time>
      </trkpt>
      <trkpt lat="48.76258" lon="2.18101">
        <ele>90.02</ele>
        <time>2021-03-06T15:30:44Z</time>
      </trkpt>
      <trkpt lat="48.76258" lon="2.18098">
        <ele>90.02</ele>
        <time>2021-03-06T15:30:45Z</time>
      </trkpt>
      <trkpt lat="48.76259" lon="2.18095">
        <ele>90.02</ele>
        <time>2021-03-06T15:30:46Z</time>
      </trkpt>
      <trkpt lat="48.76261" lon="2.18074">
        <ele>90.02</ele>
        <time>2021-03-06T15:30:58Z</time>
      </trkpt>
      <trkpt lat="48.76268" lon="2.18047">
        <ele>89.54</ele>
        <time>2021-03-06T15:31:11Z</time>
      </trkpt>
      <trkpt lat="48.7627" lon="2.18022">
        <ele>89.06</ele>
        <time>2021-03-06T15:31:24Z</time>
      </trkpt>
      <trkpt lat="48.76274" lon="2.18007">
        <ele>88.1</ele>
        <time>2021-03-06T15:31:37Z</time>
      </trkpt>
      <trkpt lat="48.7628" lon="2.17987">
        <ele>88.58</ele>
        <time>2021-03-06T15:31:47Z</time>
      </trkpt>
      <trkpt lat="48.76285" lon="2.17965">
        <ele>88.1</ele>
        <time>2021-03-06T15:31:59Z</time>
      </trkpt>
      <trkpt lat="48.76289" lon="2.17956">
        <ele>88.58</ele>
        <time>2021-03-06T15:32:07Z</time>
      </trkpt>
      <trkpt lat="48.76289" lon="2.17953">
        <ele>88.1</ele>
        <time>2021-03-06T15:32:09Z</time>
      </trkpt>
      <trkpt lat="48.76289" lon="2.17951">
        <ele>88.1</ele>
        <time>2021-03-06T15:32:10Z</time>
      </trkpt>
      <trkpt lat="48.76295" lon="2.17914">
        <ele>88.58</ele>
        <time>2021-03-06T15:32:27Z</time>
      </trkpt>
      <trkpt lat="48.76298" lon="2.17903">
        <ele>88.58</ele>
        <time>2021-03-06T15:32:33Z</time>
      </trkpt>
      <trkpt lat="48.763" lon="2.17897">
        <ele>88.1</ele>
        <time>2021-03-06T15:32:38Z</time>
      </trkpt>
      <trkpt lat="48.76302" lon="2.17892">
        <ele>88.1</ele>
        <time>2021-03-06T15:32:41Z</time>
      </trkpt>
      <trkpt lat="48.76302" lon="2.17889">
        <ele>88.1</ele>
        <time>2021-03-06T15:32:42Z</time>
      </trkpt>
      <trkpt lat="48.76303" lon="2.17852">
        <ele>87.62</ele>
        <time>2021-03-06T15:32:56Z</time>
      </trkpt>
      <trkpt lat="48.76305" lon="2.17849">
        <ele>88.58</ele>
        <time>2021-03-06T15:32:59Z</time>
      </trkpt>
      <trkpt lat="48.76312" lon="2.17821">
        <ele>88.1</ele>
        <time>2021-03-06T15:33:16Z</time>
      </trkpt>
      <trkpt lat="48.76316" lon="2.17789">
        <ele>88.1</ele>
        <time>2021-03-06T15:33:33Z</time>
      </trkpt>
      <trkpt lat="48.76322" lon="2.17762">
        <ele>88.1</ele>
        <time>2021-03-06T15:33:50Z</time>
      </trkpt>
      <trkpt lat="48.76325" lon="2.17728">
        <ele>89.06</ele>
        <time>2021-03-06T15:34:05Z</time>
      </trkpt>
      <trkpt lat="48.76327" lon="2.17699">
        <ele>89.06</ele>
        <time>2021-03-06T15:34:20Z</time>
      </trkpt>
      <trkpt lat="48.76328" lon="2.17698">
        <ele>89.54</ele>
        <time>2021-03-06T15:34:21Z</time>
      </trkpt>
      <trkpt lat="48.76328" lon="2.17697">
        <ele>89.54</ele>
        <time>2021-03-06T15:34:22Z</time>
      </trkpt>
      <trkpt lat="48.76328" lon="2.17695">
        <ele>89.54</ele>
        <time>2021-03-06T15:34:23Z</time>
      </trkpt>
      <trkpt lat="48.76329" lon="2.17693">
        <ele>89.06</ele>
        <time>2021-03-06T15:34:24Z</time>
      </trkpt>
      <trkpt lat="48.76329" lon="2.17692">
        <ele>89.06</ele>
        <time>2021-03-06T15:34:25Z</time>
      </trkpt>
      <trkpt lat="48.76332" lon="2.17671">
        <ele>88.58</ele>
        <time>2021-03-06T15:34:39Z</time>
      </trkpt>
      <trkpt lat="48.76336" lon="2.17643">
        <ele>89.54</ele>
        <time>2021-03-06T15:34:51Z</time>
      </trkpt>
      <trkpt lat="48.76341" lon="2.17616">
        <ele>89.54</ele>
        <time>2021-03-06T15:35:06Z</time>
      </trkpt>
      <trkpt lat="48.76341" lon="2.17614">
        <ele>89.54</ele>
        <time>2021-03-06T15:35:07Z</time>
      </trkpt>
      <trkpt lat="48.76342" lon="2.17613">
        <ele>89.54</ele>
        <time>2021-03-06T15:35:08Z</time>
      </trkpt>
      <trkpt lat="48.76342" lon="2.17611">
        <ele>89.06</ele>
        <time>2021-03-06T15:35:09Z</time>
      </trkpt>
      <trkpt lat="48.76343" lon="2.17609">
        <ele>88.58</ele>
        <time>2021-03-06T15:35:10Z</time>
      </trkpt>
      <trkpt lat="48.76343" lon="2.17607">
        <ele>88.58</ele>
        <time>2021-03-06T15:35:11Z</time>
      </trkpt>
      <trkpt lat="48.76343" lon="2.17605">
        <ele>89.06</ele>
        <time>2021-03-06T15:35:12Z</time>
      </trkpt>
      <trkpt lat="48.76343" lon="2.17602">
        <ele>88.1</ele>
        <time>2021-03-06T15:35:13Z</time>
      </trkpt>
      <trkpt lat="48.76344" lon="2.176">
        <ele>89.06</ele>
        <time>2021-03-06T15:35:14Z</time>
      </trkpt>
      <trkpt lat="48.76344" lon="2.17598">
        <ele>89.06</ele>
        <time>2021-03-06T15:35:15Z</time>
      </trkpt>
      <trkpt lat="48.7635" lon="2.17582">
        <ele>88.1</ele>
        <time>2021-03-06T15:35:28Z</time>
      </trkpt>
      <trkpt lat="48.76351" lon="2.17576">
        <ele>88.58</ele>
        <time>2021-03-06T15:35:33Z</time>
      </trkpt>
      <trkpt lat="48.76351" lon="2.17573">
        <ele>88.58</ele>
        <time>2021-03-06T15:35:35Z</time>
      </trkpt>
      <trkpt lat="48.76355" lon="2.17557">
        <ele>88.1</ele>
        <time>2021-03-06T15:35:43Z</time>
      </trkpt>
      <trkpt lat="48.76358" lon="2.17535">
        <ele>87.62</ele>
        <time>2021-03-06T15:35:54Z</time>
      </trkpt>
      <trkpt lat="48.76366" lon="2.17506">
        <ele>87.14</ele>
        <time>2021-03-06T15:36:06Z</time>
      </trkpt>
      <trkpt lat="48.76375" lon="2.17482">
        <ele>86.66</ele>
        <time>2021-03-06T15:36:18Z</time>
      </trkpt>
      <trkpt lat="48.76384" lon="2.17446">
        <ele>87.14</ele>
        <time>2021-03-06T15:36:32Z</time>
      </trkpt>
      <trkpt lat="48.76389" lon="2.17427">
        <ele>87.14</ele>
        <time>2021-03-06T15:36:45Z</time>
      </trkpt>
      <trkpt lat="48.76397" lon="2.17395">
        <ele>88.1</ele>
        <time>2021-03-06T15:36:58Z</time>
      </trkpt>
      <trkpt lat="48.764" lon="2.1737">
        <ele>88.1</ele>
        <time>2021-03-06T15:37:13Z</time>
      </trkpt>
      <trkpt lat="48.76397" lon="2.17364">
        <ele>88.58</ele>
        <time>2021-03-06T15:37:19Z</time>
      </trkpt>
      <trkpt lat="48.76395" lon="2.17362">
        <ele>88.1</ele>
        <time>2021-03-06T15:37:30Z</time>
      </trkpt>
      <trkpt lat="48.76396" lon="2.17361">
        <ele>88.1</ele>
        <time>2021-03-06T15:37:31Z</time>
      </trkpt>
      <trkpt lat="48.76394" lon="2.17357">
        <ele>89.06</ele>
        <time>2021-03-06T15:37:33Z</time>
      </trkpt>
      <trkpt lat="48.76394" lon="2.17354">
        <ele>88.1</ele>
        <time>2021-03-06T15:37:34Z</time>
      </trkpt>
      <trkpt lat="48.76394" lon="2.1735">
        <ele>88.1</ele>
        <time>2021-03-06T15:37:36Z</time>
      </trkpt>
      <trkpt lat="48.76395" lon="2.17348">
        <ele>88.1</ele>
        <time>2021-03-06T15:37:37Z</time>
      </trkpt>
      <trkpt lat="48.76396" lon="2.17347">
        <ele>88.1</ele>
        <time>2021-03-06T15:37:38Z</time>
      </trkpt>
      <trkpt lat="48.76397" lon="2.17345">
        <ele>88.58</ele>
        <time>2021-03-06T15:37:45Z</time>
      </trkpt>
      <trkpt lat="48.76397" lon="2.17343">
        <ele>88.1</ele>
        <time>2021-03-06T15:37:46Z</time>
      </trkpt>
      <trkpt lat="48.76398" lon="2.17341">
        <ele>89.06</ele>
        <time>2021-03-06T15:37:47Z</time>
      </trkpt>
      <trkpt lat="48.76399" lon="2.17339">
        <ele>88.58</ele>
        <time>2021-03-06T15:37:48Z</time>
      </trkpt>
      <trkpt lat="48.764" lon="2.17337">
        <ele>89.06</ele>
        <time>2021-03-06T15:37:49Z</time>
      </trkpt>
      <trkpt lat="48.76401" lon="2.17336">
        <ele>89.54</ele>
        <time>2021-03-06T15:37:50Z</time>
      </trkpt>
      <trkpt lat="48.76401" lon="2.17334">
        <ele>89.54</ele>
        <time>2021-03-06T15:37:51Z</time>
      </trkpt>
      <trkpt lat="48.76402" lon="2.17329">
        <ele>88.58</ele>
        <time>2021-03-06T15:37:55Z</time>
      </trkpt>
      <trkpt lat="48.76403" lon="2.17323">
        <ele>88.58</ele>
        <time>2021-03-06T15:37:58Z</time>
      </trkpt>
      <trkpt lat="48.76403" lon="2.1732">
        <ele>88.1</ele>
        <time>2021-03-06T15:37:59Z</time>
      </trkpt>
      <trkpt lat="48.76404" lon="2.17317">
        <ele>88.58</ele>
        <time>2021-03-06T15:38:00Z</time>
      </trkpt>
      <trkpt lat="48.76404" lon="2.17315">
        <ele>88.58</ele>
        <time>2021-03-06T15:38:01Z</time>
      </trkpt>
      <trkpt lat="48.76408" lon="2.17299">
        <ele>88.58</ele>
        <time>2021-03-06T15:38:08Z</time>
      </trkpt>
      <trkpt lat="48.76416" lon="2.17269">
        <ele>89.06</ele>
        <time>2021-03-06T15:38:23Z</time>
      </trkpt>
      <trkpt lat="48.7642" lon="2.17245">
        <ele>89.54</ele>
        <time>2021-03-06T15:38:39Z</time>
      </trkpt>
      <trkpt lat="48.76424" lon="2.17226">
        <ele>88.58</ele>
        <time>2021-03-06T15:38:51Z</time>
      </trkpt>
      <trkpt lat="48.76428" lon="2.17213">
        <ele>89.54</ele>
        <time>2021-03-06T15:38:59Z</time>
      </trkpt>
      <trkpt lat="48.76433" lon="2.17195">
        <ele>89.06</ele>
        <time>2021-03-06T15:39:09Z</time>
      </trkpt>
      <trkpt lat="48.76434" lon="2.17191">
        <ele>90.02</ele>
        <time>2021-03-06T15:39:11Z</time>
      </trkpt>
      <trkpt lat="48.76437" lon="2.17181">
        <ele>89.54</ele>
        <time>2021-03-06T15:39:16Z</time>
      </trkpt>
      <trkpt lat="48.76437" lon="2.17178">
        <ele>89.54</ele>
        <time>2021-03-06T15:39:17Z</time>
      </trkpt>
      <trkpt lat="48.76437" lon="2.17176">
        <ele>89.06</ele>
        <time>2021-03-06T15:39:18Z</time>
      </trkpt>
      <trkpt lat="48.76437" lon="2.17174">
        <ele>89.54</ele>
        <time>2021-03-06T15:39:19Z</time>
      </trkpt>
      <trkpt lat="48.76438" lon="2.17172">
        <ele>89.54</ele>
        <time>2021-03-06T15:39:20Z</time>
      </trkpt>
      <trkpt lat="48.76439" lon="2.17171">
        <ele>90.02</ele>
        <time>2021-03-06T15:39:21Z</time>
      </trkpt>
      <trkpt lat="48.7644" lon="2.17169">
        <ele>89.06</ele>
        <time>2021-03-06T15:39:22Z</time>
      </trkpt>
      <trkpt lat="48.76442" lon="2.17165">
        <ele>89.54</ele>
        <time>2021-03-06T15:39:25Z</time>
      </trkpt>
      <trkpt lat="48.76452" lon="2.17131">
        <ele>89.54</ele>
        <time>2021-03-06T15:39:42Z</time>
      </trkpt>
      <trkpt lat="48.76453" lon="2.17124">
        <ele>90.02</ele>
        <time>2021-03-06T15:39:46Z</time>
      </trkpt>
      <trkpt lat="48.76454" lon="2.17122">
        <ele>90.02</ele>
        <time>2021-03-06T15:39:47Z</time>
      </trkpt>
      <trkpt lat="48.76453" lon="2.1712">
        <ele>90.02</ele>
        <time>2021-03-06T15:39:48Z</time>
      </trkpt>
      <trkpt lat="48.76459" lon="2.17102">
        <ele>90.5</ele>
        <time>2021-03-06T15:40:00Z</time>
      </trkpt>
      <trkpt lat="48.76459" lon="2.171">
        <ele>90.5</ele>
        <time>2021-03-06T15:40:01Z</time>
      </trkpt>
      <trkpt lat="48.7646" lon="2.17097">
        <ele>90.5</ele>
        <time>2021-03-06T15:40:02Z</time>
      </trkpt>
      <trkpt lat="48.76461" lon="2.17095">
        <ele>90.02</ele>
        <time>2021-03-06T15:40:03Z</time>
      </trkpt>
      <trkpt lat="48.76464" lon="2.17091">
        <ele>90.5</ele>
        <time>2021-03-06T15:40:07Z</time>
      </trkpt>
      <trkpt lat="48.76467" lon="2.17086">
        <ele>90.5</ele>
        <time>2021-03-06T15:40:11Z</time>
      </trkpt>
      <trkpt lat="48.76468" lon="2.17084">
        <ele>90.5</ele>
        <time>2021-03-06T15:40:12Z</time>
      </trkpt>
      <trkpt lat="48.76468" lon="2.17082">
        <ele>90.5</ele>
        <time>2021-03-06T15:40:13Z</time>
      </trkpt>
      <trkpt lat="48.76469" lon="2.17081">
        <ele>90.5</ele>
        <time>2021-03-06T15:40:14Z</time>
      </trkpt>
      <trkpt lat="48.76471" lon="2.17068">
        <ele>90.02</ele>
        <time>2021-03-06T15:40:22Z</time>
      </trkpt>
      <trkpt lat="48.76471" lon="2.17066">
        <ele>90.98</ele>
        <time>2021-03-06T15:40:23Z</time>
      </trkpt>
      <trkpt lat="48.76471" lon="2.17064">
        <ele>90.02</ele>
        <time>2021-03-06T15:40:24Z</time>
      </trkpt>
      <trkpt lat="48.76472" lon="2.17062">
        <ele>90.02</ele>
        <time>2021-03-06T15:40:25Z</time>
      </trkpt>
      <trkpt lat="48.76473" lon="2.1706">
        <ele>90.02</ele>
        <time>2021-03-06T15:40:26Z</time>
      </trkpt>
      <trkpt lat="48.76474" lon="2.17053">
        <ele>90.02</ele>
        <time>2021-03-06T15:40:31Z</time>
      </trkpt>
      <trkpt lat="48.76474" lon="2.17051">
        <ele>90.02</ele>
        <time>2021-03-06T15:40:32Z</time>
      </trkpt>
      <trkpt lat="48.76474" lon="2.17049">
        <ele>89.54</ele>
        <time>2021-03-06T15:40:33Z</time>
      </trkpt>
      <trkpt lat="48.76477" lon="2.17034">
        <ele>89.54</ele>
        <time>2021-03-06T15:40:43Z</time>
      </trkpt>
      <trkpt lat="48.76477" lon="2.17032">
        <ele>90.02</ele>
        <time>2021-03-06T15:40:44Z</time>
      </trkpt>
      <trkpt lat="48.76478" lon="2.17031">
        <ele>90.02</ele>
        <time>2021-03-06T15:40:45Z</time>
      </trkpt>
      <trkpt lat="48.7648" lon="2.1701">
        <ele>90.02</ele>
        <time>2021-03-06T15:40:58Z</time>
      </trkpt>
      <trkpt lat="48.76481" lon="2.17007">
        <ele>90.5</ele>
        <time>2021-03-06T15:41:00Z</time>
      </trkpt>
      <trkpt lat="48.76482" lon="2.17005">
        <ele>90.02</ele>
        <time>2021-03-06T15:41:01Z</time>
      </trkpt>
      <trkpt lat="48.76485" lon="2.16988">
        <ele>90.5</ele>
        <time>2021-03-06T15:41:11Z</time>
      </trkpt>
      <trkpt lat="48.76488" lon="2.16973">
        <ele>90.5</ele>
        <time>2021-03-06T15:41:20Z</time>
      </trkpt>
      <trkpt lat="48.76487" lon="2.1697">
        <ele>90.5</ele>
        <time>2021-03-06T15:41:22Z</time>
      </trkpt>
      <trkpt lat="48.76485" lon="2.16942">
        <ele>90.5</ele>
        <time>2021-03-06T15:41:37Z</time>
      </trkpt>
      <trkpt lat="48.76488" lon="2.16922">
        <ele>89.54</ele>
        <time>2021-03-06T15:41:48Z</time>
      </trkpt>
      <trkpt lat="48.7649" lon="2.16904">
        <ele>90.02</ele>
        <time>2021-03-06T15:42:00Z</time>
      </trkpt>
      <trkpt lat="48.76494" lon="2.16884">
        <ele>90.5</ele>
        <time>2021-03-06T15:42:12Z</time>
      </trkpt>
      <trkpt lat="48.76495" lon="2.16881">
        <ele>90.5</ele>
        <time>2021-03-06T15:42:13Z</time>
      </trkpt>
      <trkpt lat="48.76495" lon="2.1688">
        <ele>90.5</ele>
        <time>2021-03-06T15:42:14Z</time>
      </trkpt>
      <trkpt lat="48.76495" lon="2.16878">
        <ele>90.02</ele>
        <time>2021-03-06T15:42:15Z</time>
      </trkpt>
      <trkpt lat="48.76493" lon="2.16874">
        <ele>90.5</ele>
        <time>2021-03-06T15:42:19Z</time>
      </trkpt>
      <trkpt lat="48.76494" lon="2.16873">
        <ele>90.02</ele>
        <time>2021-03-06T15:42:20Z</time>
      </trkpt>
      <trkpt lat="48.76494" lon="2.16872">
        <ele>90.5</ele>
        <time>2021-03-06T15:42:21Z</time>
      </trkpt>
      <trkpt lat="48.76489" lon="2.1686">
        <ele>90.5</ele>
        <time>2021-03-06T15:42:28Z</time>
      </trkpt>
      <trkpt lat="48.76489" lon="2.16856">
        <ele>90.5</ele>
        <time>2021-03-06T15:42:30Z</time>
      </trkpt>
      <trkpt lat="48.76489" lon="2.16854">
        <ele>90.5</ele>
        <time>2021-03-06T15:42:31Z</time>
      </trkpt>
      <trkpt lat="48.76489" lon="2.16852">
        <ele>90.5</ele>
        <time>2021-03-06T15:42:32Z</time>
      </trkpt>
      <trkpt lat="48.7649" lon="2.16849">
        <ele>90.98</ele>
        <time>2021-03-06T15:42:33Z</time>
      </trkpt>
      <trkpt lat="48.7649" lon="2.16847">
        <ele>90.5</ele>
        <time>2021-03-06T15:42:34Z</time>
      </trkpt>
      <trkpt lat="48.76491" lon="2.16845">
        <ele>90.98</ele>
        <time>2021-03-06T15:42:35Z</time>
      </trkpt>
      <trkpt lat="48.76495" lon="2.1682">
        <ele>90.98</ele>
        <time>2021-03-06T15:42:47Z</time>
      </trkpt>
      <trkpt lat="48.76495" lon="2.16816">
        <ele>90.98</ele>
        <time>2021-03-06T15:42:49Z</time>
      </trkpt>
      <trkpt lat="48.76493" lon="2.16796">
        <ele>90.98</ele>
        <time>2021-03-06T15:43:01Z</time>
      </trkpt>
      <trkpt lat="48.76492" lon="2.16768">
        <ele>90.98</ele>
        <time>2021-03-06T15:43:16Z</time>
      </trkpt>
      <trkpt lat="48.76492" lon="2.16766">
        <ele>91.46</ele>
        <time>2021-03-06T15:43:17Z</time>
      </trkpt>
      <trkpt lat="48.76493" lon="2.1676">
        <ele>91.46</ele>
        <time>2021-03-06T15:43:21Z</time>
      </trkpt>
      <trkpt lat="48.76495" lon="2.16756">
        <ele>90.98</ele>
        <time>2021-03-06T15:43:23Z</time>
      </trkpt>
      <trkpt lat="48.76496" lon="2.16755">
        <ele>90.98</ele>
        <time>2021-03-06T15:43:24Z</time>
      </trkpt>
      <trkpt lat="48.76497" lon="2.16755">
        <ele>90.98</ele>
        <time>2021-03-06T15:43:25Z</time>
      </trkpt>
      <trkpt lat="48.76507" lon="2.16746">
        <ele>91.46</ele>
        <time>2021-03-06T15:43:38Z</time>
      </trkpt>
      <trkpt lat="48.76507" lon="2.1674">
        <ele>91.94</ele>
        <time>2021-03-06T15:43:55Z</time>
      </trkpt>
      <trkpt lat="48.76515" lon="2.16736">
        <ele>91.94</ele>
        <time>2021-03-06T15:44:08Z</time>
      </trkpt>
      <trkpt lat="48.76527" lon="2.16737">
        <ele>92.42</ele>
        <time>2021-03-06T15:44:23Z</time>
      </trkpt>
    </trkseg>
  </trk>
</gpx>